<?xml version='1.0' encoding='UTF-8'?><gpx version="1.1" creator="JPX - https://github.com/jenetics/jpx" xmlns="http://www.topografix.com/GPX/1/1"><trk><trkseg><trkpt lat="43.3441419" lon="13.2748757"><ele>310.0</ele><time>2026-05-02T08:09:34.089Z</time></trkpt><trkpt lat="43.34426" lon="13.2748933"><ele>310.0</ele><time>2026-05-02T08:09:35.299Z</time></trkpt><trkpt lat="43.3443783" lon="13.274915"><ele>310.0</ele><time>2026-05-02T08:09:36.299Z</time></trkpt><trkpt lat="43.3444117" lon="13.2750133"><ele>310.0</ele><time>2026-05-02T08:09:46.938Z</time></trkpt><trkpt lat="43.3444617" lon="13.2749533"><ele>310.0</ele><time>2026-05-02T08:34:08.934Z</time></trkpt><trkpt lat="43.344395" lon="13.2749883"><ele>310.0</ele><time>2026-05-02T08:34:15.935Z</time></trkpt><trkpt lat="43.3443817" lon="13.27508"><ele>310.0</ele><time>2026-05-02T08:34:52.934Z</time></trkpt><trkpt lat="43.3443483" lon="13.27516"><ele>310.0</ele><time>2026-05-02T08:34:55.935Z</time></trkpt><trkpt lat="43.3443183" lon="13.27527"><ele>310.0</ele><time>2026-05-02T08:34:58.934Z</time></trkpt><trkpt lat="43.3442933" lon="13.2753633"><ele>310.0</ele><time>2026-05-02T08:35:00.934Z</time></trkpt><trkpt lat="43.3442367" lon="13.275415"><ele>310.0</ele><time>2026-05-02T08:35:02.934Z</time></trkpt><trkpt lat="43.3441333" lon="13.2754083"><ele>310.0</ele><time>2026-05-02T08:35:04.934Z</time></trkpt><trkpt lat="43.3440417" lon="13.275375"><ele>310.0</ele><time>2026-05-02T08:35:06.934Z</time></trkpt><trkpt lat="43.3439783" lon="13.2753517"><ele>310.0</ele><time>2026-05-02T08:35:08.935Z</time></trkpt><trkpt lat="43.3439167" lon="13.2753333"><ele>310.0</ele><time>2026-05-02T08:35:11.934Z</time></trkpt><trkpt lat="43.3438583" lon="13.2752367"><ele>310.0</ele><time>2026-05-02T08:35:15.934Z</time></trkpt><trkpt lat="43.3438067" lon="13.2751417"><ele>310.0</ele><time>2026-05-02T08:35:17.934Z</time></trkpt><trkpt lat="43.34376" lon="13.274995"><ele>309.0</ele><time>2026-05-02T08:35:19.934Z</time></trkpt><trkpt lat="43.343745" lon="13.2749"><ele>308.0</ele><time>2026-05-02T08:35:20.934Z</time></trkpt><trkpt lat="43.3437433" lon="13.274765"><ele>307.0</ele><time>2026-05-02T08:35:22.933Z</time></trkpt><trkpt lat="43.34375" lon="13.2746533"><ele>306.0</ele><time>2026-05-02T08:35:24.933Z</time></trkpt><trkpt lat="43.3437517" lon="13.2745483"><ele>305.0</ele><time>2026-05-02T08:35:27.933Z</time></trkpt><trkpt lat="43.3437317" lon="13.2747017"><ele>304.0</ele><time>2026-05-02T08:35:36.933Z</time></trkpt><trkpt lat="43.3437317" lon="13.27484"><ele>304.0</ele><time>2026-05-02T08:35:38.933Z</time></trkpt><trkpt lat="43.3437133" lon="13.2749367"><ele>304.0</ele><time>2026-05-02T08:35:41.933Z</time></trkpt><trkpt lat="43.343645" lon="13.2749417"><ele>304.0</ele><time>2026-05-02T08:35:45.933Z</time></trkpt><trkpt lat="43.3435833" lon="13.2749067"><ele>304.0</ele><time>2026-05-02T08:35:47.933Z</time></trkpt><trkpt lat="43.343505" lon="13.2747917"><ele>304.0</ele><time>2026-05-02T08:35:49.933Z</time></trkpt><trkpt lat="43.343465" lon="13.2747033"><ele>304.0</ele><time>2026-05-02T08:35:50.933Z</time></trkpt><trkpt lat="43.3434133" lon="13.27459"><ele>304.0</ele><time>2026-05-02T08:35:51.933Z</time></trkpt><trkpt lat="43.3433517" lon="13.2744717"><ele>304.0</ele><time>2026-05-02T08:35:52.933Z</time></trkpt><trkpt lat="43.3432967" lon="13.2743383"><ele>304.0</ele><time>2026-05-02T08:35:53.934Z</time></trkpt><trkpt lat="43.3432467" lon="13.2741883"><ele>304.0</ele><time>2026-05-02T08:35:54.934Z</time></trkpt><trkpt lat="43.3432117" lon="13.2740283"><ele>304.0</ele><time>2026-05-02T08:35:55.933Z</time></trkpt><trkpt lat="43.343185" lon="13.273865"><ele>304.0</ele><time>2026-05-02T08:35:56.933Z</time></trkpt><trkpt lat="43.3431633" lon="13.27368"><ele>304.0</ele><time>2026-05-02T08:35:57.933Z</time></trkpt><trkpt lat="43.3431367" lon="13.273515"><ele>304.0</ele><time>2026-05-02T08:35:58.934Z</time></trkpt><trkpt lat="43.3431017" lon="13.2733617"><ele>304.0</ele><time>2026-05-02T08:35:59.934Z</time></trkpt><trkpt lat="43.3430483" lon="13.2732183"><ele>304.0</ele><time>2026-05-02T08:36:00.933Z</time></trkpt><trkpt lat="43.342985" lon="13.27306"><ele>304.0</ele><time>2026-05-02T08:36:01.934Z</time></trkpt><trkpt lat="43.3428967" lon="13.272915"><ele>304.0</ele><time>2026-05-02T08:36:02.933Z</time></trkpt><trkpt lat="43.3427983" lon="13.2727567"><ele>299.3333333333333</ele><time>2026-05-02T08:36:03.933Z</time></trkpt><trkpt lat="43.3426967" lon="13.2726067"><ele>294.6666666666667</ele><time>2026-05-02T08:36:04.933Z</time></trkpt><trkpt lat="43.3425933" lon="13.272455"><ele>290.0</ele><time>2026-05-02T08:36:05.933Z</time></trkpt><trkpt lat="43.342485" lon="13.2723083"><ele>290.5</ele><time>2026-05-02T08:36:06.933Z</time></trkpt><trkpt lat="43.34238" lon="13.2721567"><ele>291.0</ele><time>2026-05-02T08:36:07.933Z</time></trkpt><trkpt lat="43.34228" lon="13.2720067"><ele>291.5</ele><time>2026-05-02T08:36:08.933Z</time></trkpt><trkpt lat="43.3421867" lon="13.2718583"><ele>292.0</ele><time>2026-05-02T08:36:09.933Z</time></trkpt><trkpt lat="43.3420967" lon="13.2717083"><ele>290.75</ele><time>2026-05-02T08:36:10.933Z</time></trkpt><trkpt lat="43.3420017" lon="13.2715683"><ele>289.5</ele><time>2026-05-02T08:36:11.933Z</time></trkpt><trkpt lat="43.3419067" lon="13.2714217"><ele>288.25</ele><time>2026-05-02T08:36:12.933Z</time></trkpt><trkpt lat="43.3418117" lon="13.2712683"><ele>287.0</ele><time>2026-05-02T08:36:13.933Z</time></trkpt><trkpt lat="43.34173" lon="13.2711117"><ele>287.0</ele><time>2026-05-02T08:36:14.933Z</time></trkpt><trkpt lat="43.3416533" lon="13.270945"><ele>287.0</ele><time>2026-05-02T08:36:15.933Z</time></trkpt><trkpt lat="43.3416017" lon="13.270755"><ele>287.0</ele><time>2026-05-02T08:36:16.933Z</time></trkpt><trkpt lat="43.34158" lon="13.2705617"><ele>287.0</ele><time>2026-05-02T08:36:17.934Z</time></trkpt><trkpt lat="43.341565" lon="13.2703733"><ele>287.25</ele><time>2026-05-02T08:36:18.933Z</time></trkpt><trkpt lat="43.3415567" lon="13.27018"><ele>287.5</ele><time>2026-05-02T08:36:19.934Z</time></trkpt><trkpt lat="43.34154" lon="13.2699783"><ele>287.75</ele><time>2026-05-02T08:36:20.933Z</time></trkpt><trkpt lat="43.3415217" lon="13.2697733"><ele>288.0</ele><time>2026-05-02T08:36:21.933Z</time></trkpt><trkpt lat="43.3415083" lon="13.26957"><ele>289.3333333333333</ele><time>2026-05-02T08:36:22.934Z</time></trkpt><trkpt lat="43.3415033" lon="13.2693683"><ele>290.66666666666663</ele><time>2026-05-02T08:36:23.933Z</time></trkpt><trkpt lat="43.3414933" lon="13.269155"><ele>292.0</ele><time>2026-05-02T08:36:24.933Z</time></trkpt><trkpt lat="43.34148" lon="13.2689533"><ele>291.75</ele><time>2026-05-02T08:36:25.933Z</time></trkpt><trkpt lat="43.34146" lon="13.2687567"><ele>291.5</ele><time>2026-05-02T08:36:26.933Z</time></trkpt><trkpt lat="43.3414467" lon="13.2685583"><ele>291.25</ele><time>2026-05-02T08:36:27.933Z</time></trkpt><trkpt lat="43.34144" lon="13.2683433"><ele>291.0</ele><time>2026-05-02T08:36:28.933Z</time></trkpt><trkpt lat="43.3414533" lon="13.2681333"><ele>291.0</ele><time>2026-05-02T08:36:29.933Z</time></trkpt><trkpt lat="43.3414583" lon="13.26794"><ele>291.0</ele><time>2026-05-02T08:36:30.933Z</time></trkpt><trkpt lat="43.341465" lon="13.2677533"><ele>291.0</ele><time>2026-05-02T08:36:31.933Z</time></trkpt><trkpt lat="43.3414617" lon="13.26758"><ele>291.0</ele><time>2026-05-02T08:36:32.933Z</time></trkpt><trkpt lat="43.341445" lon="13.2674033"><ele>291.25</ele><time>2026-05-02T08:36:33.933Z</time></trkpt><trkpt lat="43.341425" lon="13.26723"><ele>291.5</ele><time>2026-05-02T08:36:34.933Z</time></trkpt><trkpt lat="43.3414067" lon="13.2670583"><ele>291.75</ele><time>2026-05-02T08:36:35.933Z</time></trkpt><trkpt lat="43.3413867" lon="13.26691"><ele>292.0</ele><time>2026-05-02T08:36:36.933Z</time></trkpt><trkpt lat="43.3413683" lon="13.2667733"><ele>291.4</ele><time>2026-05-02T08:36:37.933Z</time></trkpt><trkpt lat="43.34136" lon="13.2666517"><ele>290.79999999999995</ele><time>2026-05-02T08:36:38.933Z</time></trkpt><trkpt lat="43.3413383" lon="13.2665333"><ele>290.2</ele><time>2026-05-02T08:36:39.933Z</time></trkpt><trkpt lat="43.3413067" lon="13.2664267"><ele>289.59999999999997</ele><time>2026-05-02T08:36:40.933Z</time></trkpt><trkpt lat="43.3412517" lon="13.266325"><ele>289.0</ele><time>2026-05-02T08:36:41.933Z</time></trkpt><trkpt lat="43.341185" lon="13.266225"><ele>289.0</ele><time>2026-05-02T08:36:42.933Z</time></trkpt><trkpt lat="43.3410983" lon="13.266125"><ele>289.0</ele><time>2026-05-02T08:36:43.933Z</time></trkpt><trkpt lat="43.3410167" lon="13.2660133"><ele>289.0</ele><time>2026-05-02T08:36:44.933Z</time></trkpt><trkpt lat="43.3409617" lon="13.2658783"><ele>289.0</ele><time>2026-05-02T08:36:45.933Z</time></trkpt><trkpt lat="43.3409167" lon="13.2657167"><ele>288.5</ele><time>2026-05-02T08:36:46.933Z</time></trkpt><trkpt lat="43.3408817" lon="13.2655333"><ele>288.0</ele><time>2026-05-02T08:36:47.934Z</time></trkpt><trkpt lat="43.3408617" lon="13.2653383"><ele>287.5</ele><time>2026-05-02T08:36:48.933Z</time></trkpt><trkpt lat="43.3408483" lon="13.2651517"><ele>287.0</ele><time>2026-05-02T08:36:49.933Z</time></trkpt><trkpt lat="43.3408467" lon="13.2649667"><ele>287.0</ele><time>2026-05-02T08:36:50.933Z</time></trkpt><trkpt lat="43.3408567" lon="13.2648083"><ele>287.0</ele><time>2026-05-02T08:36:51.933Z</time></trkpt><trkpt lat="43.34085" lon="13.26466"><ele>287.0</ele><time>2026-05-02T08:36:52.933Z</time></trkpt><trkpt lat="43.3408533" lon="13.2645317"><ele>287.0</ele><time>2026-05-02T08:36:53.933Z</time></trkpt><trkpt lat="43.3408417" lon="13.264415"><ele>287.0</ele><time>2026-05-02T08:36:54.933Z</time></trkpt><trkpt lat="43.340825" lon="13.2643083"><ele>286.57142857142856</ele><time>2026-05-02T08:36:55.933Z</time></trkpt><trkpt lat="43.340795" lon="13.2642233"><ele>286.1428571428571</ele><time>2026-05-02T08:36:56.933Z</time></trkpt><trkpt lat="43.3407483" lon="13.2641467"><ele>285.7142857142857</ele><time>2026-05-02T08:36:57.934Z</time></trkpt><trkpt lat="43.3406967" lon="13.2640867"><ele>285.2857142857143</ele><time>2026-05-02T08:36:58.933Z</time></trkpt><trkpt lat="43.3406317" lon="13.26405"><ele>284.85714285714283</ele><time>2026-05-02T08:36:59.934Z</time></trkpt><trkpt lat="43.3405617" lon="13.2640283"><ele>284.42857142857144</ele><time>2026-05-02T08:37:00.933Z</time></trkpt><trkpt lat="43.34048" lon="13.264015"><ele>284.0</ele><time>2026-05-02T08:37:01.933Z</time></trkpt><trkpt lat="43.3404017" lon="13.2639883"><ele>286.33333333333337</ele><time>2026-05-02T08:37:02.933Z</time></trkpt><trkpt lat="43.3403467" lon="13.26393"><ele>288.6666666666667</ele><time>2026-05-02T08:37:03.934Z</time></trkpt><trkpt lat="43.3403233" lon="13.26384"><ele>291.0</ele><time>2026-05-02T08:37:04.933Z</time></trkpt><trkpt lat="43.340335" lon="13.2637267"><ele>293.3333333333333</ele><time>2026-05-02T08:37:05.933Z</time></trkpt><trkpt lat="43.3403833" lon="13.263635"><ele>295.66666666666663</ele><time>2026-05-02T08:37:06.933Z</time></trkpt><trkpt lat="43.3404433" lon="13.2635333"><ele>298.0</ele><time>2026-05-02T08:37:07.934Z</time></trkpt><trkpt lat="43.3405267" lon="13.263435"><ele>295.8</ele><time>2026-05-02T08:37:08.933Z</time></trkpt><trkpt lat="43.3406117" lon="13.2633317"><ele>293.6</ele><time>2026-05-02T08:37:09.933Z</time></trkpt><trkpt lat="43.340685" lon="13.26323"><ele>291.4</ele><time>2026-05-02T08:37:10.934Z</time></trkpt><trkpt lat="43.34073" lon="13.263125"><ele>289.2</ele><time>2026-05-02T08:37:11.933Z</time></trkpt><trkpt lat="43.3407533" lon="13.2630067"><ele>287.0</ele><time>2026-05-02T08:37:12.934Z</time></trkpt><trkpt lat="43.3407583" lon="13.2629083"><ele>287.0</ele><time>2026-05-02T08:37:13.933Z</time></trkpt><trkpt lat="43.340715" lon="13.2628267"><ele>287.0</ele><time>2026-05-02T08:37:15.933Z</time></trkpt><trkpt lat="43.3406367" lon="13.262925"><ele>287.0</ele><time>2026-05-02T08:37:17.934Z</time></trkpt><trkpt lat="43.3405717" lon="13.263035"><ele>287.0</ele><time>2026-05-02T08:37:18.933Z</time></trkpt><trkpt lat="43.3405183" lon="13.263125"><ele>287.0</ele><time>2026-05-02T08:37:19.933Z</time></trkpt><trkpt lat="43.3404517" lon="13.26319"><ele>287.0</ele><time>2026-05-02T08:37:20.933Z</time></trkpt><trkpt lat="43.3403833" lon="13.2632217"><ele>288.2</ele><time>2026-05-02T08:37:21.933Z</time></trkpt><trkpt lat="43.3402833" lon="13.2631783"><ele>289.4</ele><time>2026-05-02T08:37:23.933Z</time></trkpt><trkpt lat="43.3402717" lon="13.2630117"><ele>290.6</ele><time>2026-05-02T08:37:25.933Z</time></trkpt><trkpt lat="43.3403017" lon="13.2629183"><ele>291.8</ele><time>2026-05-02T08:37:26.933Z</time></trkpt><trkpt lat="43.3403117" lon="13.2628267"><ele>293.0</ele><time>2026-05-02T08:37:27.933Z</time></trkpt><trkpt lat="43.3402733" lon="13.2626967"><ele>293.0</ele><time>2026-05-02T08:37:29.933Z</time></trkpt><trkpt lat="43.3401833" lon="13.262785"><ele>293.0</ele><time>2026-05-02T08:37:32.934Z</time></trkpt><trkpt lat="43.3401517" lon="13.26291"><ele>293.0</ele><time>2026-05-02T08:37:33.933Z</time></trkpt><trkpt lat="43.3401017" lon="13.263045"><ele>293.0</ele><time>2026-05-02T08:37:34.933Z</time></trkpt><trkpt lat="43.340055" lon="13.263165"><ele>293.0</ele><time>2026-05-02T08:37:35.933Z</time></trkpt><trkpt lat="43.34001" lon="13.26323"><ele>294.0</ele><time>2026-05-02T08:37:36.933Z</time></trkpt><trkpt lat="43.33994" lon="13.2632583"><ele>295.0</ele><time>2026-05-02T08:37:37.933Z</time></trkpt><trkpt lat="43.3398517" lon="13.2632467"><ele>296.0</ele><time>2026-05-02T08:37:38.933Z</time></trkpt><trkpt lat="43.339775" lon="13.2631983"><ele>297.0</ele><time>2026-05-02T08:37:39.933Z</time></trkpt><trkpt lat="43.3396933" lon="13.2631117"><ele>298.0</ele><time>2026-05-02T08:37:40.933Z</time></trkpt><trkpt lat="43.339615" lon="13.2629967"><ele>300.5</ele><time>2026-05-02T08:37:41.933Z</time></trkpt><trkpt lat="43.3395317" lon="13.262865"><ele>303.0</ele><time>2026-05-02T08:37:42.934Z</time></trkpt><trkpt lat="43.3394617" lon="13.2627283"><ele>305.5</ele><time>2026-05-02T08:37:43.933Z</time></trkpt><trkpt lat="43.33941" lon="13.262575"><ele>308.0</ele><time>2026-05-02T08:37:44.933Z</time></trkpt><trkpt lat="43.3393567" lon="13.26243"><ele>308.2</ele><time>2026-05-02T08:37:45.933Z</time></trkpt><trkpt lat="43.3392967" lon="13.2622783"><ele>308.4</ele><time>2026-05-02T08:37:46.933Z</time></trkpt><trkpt lat="43.33923" lon="13.2621617"><ele>308.59999999999997</ele><time>2026-05-02T08:37:47.933Z</time></trkpt><trkpt lat="43.33917" lon="13.2620867"><ele>308.8</ele><time>2026-05-02T08:37:48.933Z</time></trkpt><trkpt lat="43.339095" lon="13.2620417"><ele>309.0</ele><time>2026-05-02T08:37:49.933Z</time></trkpt><trkpt lat="43.3390217" lon="13.26202"><ele>309.0</ele><time>2026-05-02T08:37:50.933Z</time></trkpt><trkpt lat="43.33893" lon="13.2620233"><ele>309.0</ele><time>2026-05-02T08:37:51.934Z</time></trkpt><trkpt lat="43.3388283" lon="13.26203"><ele>309.0</ele><time>2026-05-02T08:37:52.933Z</time></trkpt><trkpt lat="43.338715" lon="13.2620317"><ele>309.0</ele><time>2026-05-02T08:37:53.933Z</time></trkpt><trkpt lat="43.33859" lon="13.2620317"><ele>309.0</ele><time>2026-05-02T08:37:54.934Z</time></trkpt><trkpt lat="43.3384617" lon="13.2620283"><ele>309.75</ele><time>2026-05-02T08:37:55.934Z</time></trkpt><trkpt lat="43.33833" lon="13.2620233"><ele>310.5</ele><time>2026-05-02T08:37:56.933Z</time></trkpt><trkpt lat="43.3381933" lon="13.262015"><ele>311.25</ele><time>2026-05-02T08:37:57.933Z</time></trkpt><trkpt lat="43.3380533" lon="13.262005"><ele>312.0</ele><time>2026-05-02T08:37:58.933Z</time></trkpt><trkpt lat="43.3379233" lon="13.2620133"><ele>312.0</ele><time>2026-05-02T08:37:59.933Z</time></trkpt><trkpt lat="43.3377983" lon="13.2620517"><ele>312.0</ele><time>2026-05-02T08:38:00.933Z</time></trkpt><trkpt lat="43.33767" lon="13.2621217"><ele>312.0</ele><time>2026-05-02T08:38:01.934Z</time></trkpt><trkpt lat="43.3375667" lon="13.2621733"><ele>312.0</ele><time>2026-05-02T08:38:02.934Z</time></trkpt><trkpt lat="43.3374633" lon="13.2622183"><ele>312.0</ele><time>2026-05-02T08:38:03.933Z</time></trkpt><trkpt lat="43.3373717" lon="13.262245"><ele>312.0</ele><time>2026-05-02T08:38:04.934Z</time></trkpt><trkpt lat="43.33727" lon="13.262265"><ele>312.0</ele><time>2026-05-02T08:38:05.933Z</time></trkpt><trkpt lat="43.3371733" lon="13.2622683"><ele>312.0</ele><time>2026-05-02T08:38:06.933Z</time></trkpt><trkpt lat="43.3370783" lon="13.262255"><ele>312.0</ele><time>2026-05-02T08:38:07.933Z</time></trkpt><trkpt lat="43.3369917" lon="13.26222"><ele>311.0</ele><time>2026-05-02T08:38:08.933Z</time></trkpt><trkpt lat="43.3369083" lon="13.2621467"><ele>310.0</ele><time>2026-05-02T08:38:09.933Z</time></trkpt><trkpt lat="43.3368333" lon="13.26205"><ele>309.0</ele><time>2026-05-02T08:38:10.933Z</time></trkpt><trkpt lat="43.3367817" lon="13.261925"><ele>308.0</ele><time>2026-05-02T08:38:11.933Z</time></trkpt><trkpt lat="43.3367083" lon="13.261815"><ele>307.0</ele><time>2026-05-02T08:38:12.933Z</time></trkpt><trkpt lat="43.33663" lon="13.2616917"><ele>307.0</ele><time>2026-05-02T08:38:13.933Z</time></trkpt><trkpt lat="43.33655" lon="13.2615733"><ele>307.0</ele><time>2026-05-02T08:38:14.933Z</time></trkpt><trkpt lat="43.3364817" lon="13.2614383"><ele>307.0</ele><time>2026-05-02T08:38:15.933Z</time></trkpt><trkpt lat="43.3364167" lon="13.2612883"><ele>307.0</ele><time>2026-05-02T08:38:16.933Z</time></trkpt><trkpt lat="43.3363833" lon="13.2611283"><ele>308.5</ele><time>2026-05-02T08:38:17.933Z</time></trkpt><trkpt lat="43.3363567" lon="13.2609817"><ele>310.0</ele><time>2026-05-02T08:38:18.933Z</time></trkpt><trkpt lat="43.336325" lon="13.2608617"><ele>311.5</ele><time>2026-05-02T08:38:19.933Z</time></trkpt><trkpt lat="43.3363033" lon="13.2607633"><ele>313.0</ele><time>2026-05-02T08:38:20.933Z</time></trkpt><trkpt lat="43.336275" lon="13.26068"><ele>314.5</ele><time>2026-05-02T08:38:21.934Z</time></trkpt><trkpt lat="43.336245" lon="13.2606033"><ele>316.0</ele><time>2026-05-02T08:38:22.934Z</time></trkpt><trkpt lat="43.3362033" lon="13.260535"><ele>317.6</ele><time>2026-05-02T08:38:23.934Z</time></trkpt><trkpt lat="43.3361467" lon="13.2604267"><ele>319.20000000000005</ele><time>2026-05-02T08:38:25.933Z</time></trkpt><trkpt lat="43.33611" lon="13.2603067"><ele>320.79999999999995</ele><time>2026-05-02T08:38:27.933Z</time></trkpt><trkpt lat="43.3360917" lon="13.260125"><ele>322.4</ele><time>2026-05-02T08:38:29.933Z</time></trkpt><trkpt lat="43.336095" lon="13.25999"><ele>324.0</ele><time>2026-05-02T08:38:30.933Z</time></trkpt><trkpt lat="43.3360967" lon="13.2598433"><ele>324.0</ele><time>2026-05-02T08:38:31.933Z</time></trkpt><trkpt lat="43.3360983" lon="13.2597167"><ele>324.0</ele><time>2026-05-02T08:38:32.933Z</time></trkpt><trkpt lat="43.3360983" lon="13.2596"><ele>324.0</ele><time>2026-05-02T08:38:33.933Z</time></trkpt><trkpt lat="43.3361" lon="13.2594983"><ele>324.0</ele><time>2026-05-02T08:38:34.933Z</time></trkpt><trkpt lat="43.3361017" lon="13.2593967"><ele>324.0</ele><time>2026-05-02T08:38:35.933Z</time></trkpt><trkpt lat="43.33611" lon="13.2592983"><ele>324.0</ele><time>2026-05-02T08:38:36.933Z</time></trkpt><trkpt lat="43.3361117" lon="13.2592033"><ele>324.0</ele><time>2026-05-02T08:38:37.933Z</time></trkpt><trkpt lat="43.3361033" lon="13.2591133"><ele>324.0</ele><time>2026-05-02T08:38:38.933Z</time></trkpt><trkpt lat="43.3361" lon="13.2589517"><ele>324.0</ele><time>2026-05-02T08:38:40.934Z</time></trkpt><trkpt lat="43.3361" lon="13.2587933"><ele>324.0</ele><time>2026-05-02T08:38:42.933Z</time></trkpt><trkpt lat="43.33612" lon="13.258625"><ele>324.0</ele><time>2026-05-02T08:38:49.933Z</time></trkpt><trkpt lat="43.3361167" lon="13.2584383"><ele>324.3333333333333</ele><time>2026-05-02T08:38:51.933Z</time></trkpt><trkpt lat="43.3361033" lon="13.2583233"><ele>324.6666666666667</ele><time>2026-05-02T08:38:52.933Z</time></trkpt><trkpt lat="43.3360933" lon="13.25821"><ele>325.0</ele><time>2026-05-02T08:38:53.933Z</time></trkpt><trkpt lat="43.3360833" lon="13.258105"><ele>325.33333333333337</ele><time>2026-05-02T08:38:54.934Z</time></trkpt><trkpt lat="43.3360867" lon="13.2580117"><ele>325.6666666666667</ele><time>2026-05-02T08:38:55.933Z</time></trkpt><trkpt lat="43.336085" lon="13.2579133"><ele>326.0</ele><time>2026-05-02T08:38:56.934Z</time></trkpt><trkpt lat="43.3360833" lon="13.2578133"><ele>326.5</ele><time>2026-05-02T08:38:57.933Z</time></trkpt><trkpt lat="43.3361" lon="13.25771"><ele>327.0</ele><time>2026-05-02T08:38:58.933Z</time></trkpt><trkpt lat="43.3361133" lon="13.2576217"><ele>327.5</ele><time>2026-05-02T08:38:59.933Z</time></trkpt><trkpt lat="43.336135" lon="13.2574667"><ele>328.0</ele><time>2026-05-02T08:39:01.933Z</time></trkpt><trkpt lat="43.3361533" lon="13.25737"><ele>328.5</ele><time>2026-05-02T08:39:03.933Z</time></trkpt><trkpt lat="43.3361817" lon="13.2572867"><ele>329.0</ele><time>2026-05-02T08:39:05.933Z</time></trkpt><trkpt lat="43.3361917" lon="13.2571883"><ele>329.5</ele><time>2026-05-02T08:39:07.933Z</time></trkpt><trkpt lat="43.3361917" lon="13.2570883"><ele>330.0</ele><time>2026-05-02T08:39:09.934Z</time></trkpt><trkpt lat="43.3362117" lon="13.256965"><ele>330.5</ele><time>2026-05-02T08:39:12.933Z</time></trkpt><trkpt lat="43.3362283" lon="13.2568483"><ele>331.0</ele><time>2026-05-02T08:39:14.933Z</time></trkpt><trkpt lat="43.33626" lon="13.2567267"><ele>331.5</ele><time>2026-05-02T08:39:16.933Z</time></trkpt><trkpt lat="43.336295" lon="13.2566317"><ele>332.0</ele><time>2026-05-02T08:39:28.933Z</time></trkpt><trkpt lat="43.336315" lon="13.25653"><ele>333.0</ele><time>2026-05-02T08:39:30.933Z</time></trkpt><trkpt lat="43.33634" lon="13.25638"><ele>334.0</ele><time>2026-05-02T08:39:32.933Z</time></trkpt><trkpt lat="43.336385" lon="13.2562417"><ele>335.0</ele><time>2026-05-02T08:39:34.933Z</time></trkpt><trkpt lat="43.336455" lon="13.2561233"><ele>336.0</ele><time>2026-05-02T08:39:36.933Z</time></trkpt><trkpt lat="43.336575" lon="13.2560567"><ele>336.3333333333333</ele><time>2026-05-02T08:39:38.933Z</time></trkpt><trkpt lat="43.3366383" lon="13.2560367"><ele>336.6666666666667</ele><time>2026-05-02T08:39:39.933Z</time></trkpt><trkpt lat="43.3367283" lon="13.2559917"><ele>337.0</ele><time>2026-05-02T08:39:41.933Z</time></trkpt><trkpt lat="43.3367933" lon="13.2558783"><ele>337.33333333333337</ele><time>2026-05-02T08:39:43.933Z</time></trkpt><trkpt lat="43.3368017" lon="13.2557917"><ele>337.6666666666667</ele><time>2026-05-02T08:39:44.934Z</time></trkpt><trkpt lat="43.3368017" lon="13.2556983"><ele>338.0</ele><time>2026-05-02T08:39:45.933Z</time></trkpt><trkpt lat="43.3367883" lon="13.2555917"><ele>338.33333333333337</ele><time>2026-05-02T08:39:46.933Z</time></trkpt><trkpt lat="43.3367667" lon="13.2554833"><ele>338.6666666666667</ele><time>2026-05-02T08:39:47.933Z</time></trkpt><trkpt lat="43.3367367" lon="13.2553667"><ele>339.0</ele><time>2026-05-02T08:39:48.933Z</time></trkpt><trkpt lat="43.336705" lon="13.2552517"><ele>339.3333333333333</ele><time>2026-05-02T08:39:49.933Z</time></trkpt><trkpt lat="43.3366817" lon="13.255135"><ele>339.66666666666663</ele><time>2026-05-02T08:39:50.933Z</time></trkpt><trkpt lat="43.33666" lon="13.2550117"><ele>340.0</ele><time>2026-05-02T08:39:51.933Z</time></trkpt><trkpt lat="43.3366317" lon="13.2548817"><ele>340.2</ele><time>2026-05-02T08:39:52.934Z</time></trkpt><trkpt lat="43.33661" lon="13.254745"><ele>340.4</ele><time>2026-05-02T08:39:53.933Z</time></trkpt><trkpt lat="43.3365883" lon="13.2546133"><ele>340.6</ele><time>2026-05-02T08:39:54.933Z</time></trkpt><trkpt lat="43.336565" lon="13.2544783"><ele>340.8</ele><time>2026-05-02T08:39:55.933Z</time></trkpt><trkpt lat="43.3365383" lon="13.2543467"><ele>341.0</ele><time>2026-05-02T08:39:56.933Z</time></trkpt><trkpt lat="43.3364983" lon="13.25421"><ele>341.0</ele><time>2026-05-02T08:39:57.933Z</time></trkpt><trkpt lat="43.33646" lon="13.2540817"><ele>341.0</ele><time>2026-05-02T08:39:58.933Z</time></trkpt><trkpt lat="43.336415" lon="13.2539567"><ele>341.0</ele><time>2026-05-02T08:39:59.933Z</time></trkpt><trkpt lat="43.3363617" lon="13.253825"><ele>341.0</ele><time>2026-05-02T08:40:00.933Z</time></trkpt><trkpt lat="43.3363117" lon="13.2537067"><ele>341.0</ele><time>2026-05-02T08:40:01.933Z</time></trkpt><trkpt lat="43.3362617" lon="13.2535867"><ele>342.8</ele><time>2026-05-02T08:40:02.933Z</time></trkpt><trkpt lat="43.3362133" lon="13.253465"><ele>344.6</ele><time>2026-05-02T08:40:03.933Z</time></trkpt><trkpt lat="43.33617" lon="13.253345"><ele>346.4</ele><time>2026-05-02T08:40:04.934Z</time></trkpt><trkpt lat="43.33613" lon="13.2532317"><ele>348.2</ele><time>2026-05-02T08:40:05.933Z</time></trkpt><trkpt lat="43.336095" lon="13.2531167"><ele>350.0</ele><time>2026-05-02T08:40:06.934Z</time></trkpt><trkpt lat="43.3360733" lon="13.2530117"><ele>350.33333333333337</ele><time>2026-05-02T08:40:07.933Z</time></trkpt><trkpt lat="43.336055" lon="13.2528967"><ele>350.6666666666667</ele><time>2026-05-02T08:40:08.933Z</time></trkpt><trkpt lat="43.336025" lon="13.2527817"><ele>351.0</ele><time>2026-05-02T08:40:09.933Z</time></trkpt><trkpt lat="43.3359883" lon="13.2526783"><ele>351.3333333333333</ele><time>2026-05-02T08:40:10.933Z</time></trkpt><trkpt lat="43.3359483" lon="13.252575"><ele>351.66666666666663</ele><time>2026-05-02T08:40:11.934Z</time></trkpt><trkpt lat="43.335905" lon="13.2524683"><ele>352.0</ele><time>2026-05-02T08:40:12.933Z</time></trkpt><trkpt lat="43.3358467" lon="13.252355"><ele>352.25</ele><time>2026-05-02T08:40:13.933Z</time></trkpt><trkpt lat="43.3357817" lon="13.252225"><ele>352.5</ele><time>2026-05-02T08:40:14.933Z</time></trkpt><trkpt lat="43.33572" lon="13.2520833"><ele>352.75</ele><time>2026-05-02T08:40:15.933Z</time></trkpt><trkpt lat="43.3356567" lon="13.2519467"><ele>353.0</ele><time>2026-05-02T08:40:16.933Z</time></trkpt><trkpt lat="43.33559" lon="13.25182"><ele>354.4</ele><time>2026-05-02T08:40:17.933Z</time></trkpt><trkpt lat="43.3355233" lon="13.251705"><ele>355.79999999999995</ele><time>2026-05-02T08:40:18.933Z</time></trkpt><trkpt lat="43.3354583" lon="13.2516"><ele>357.2</ele><time>2026-05-02T08:40:19.933Z</time></trkpt><trkpt lat="43.335385" lon="13.2514867"><ele>358.6</ele><time>2026-05-02T08:40:20.933Z</time></trkpt><trkpt lat="43.335315" lon="13.2513817"><ele>360.0</ele><time>2026-05-02T08:40:21.934Z</time></trkpt><trkpt lat="43.3352583" lon="13.2512683"><ele>361.0</ele><time>2026-05-02T08:40:22.933Z</time></trkpt><trkpt lat="43.3352283" lon="13.2511467"><ele>362.0</ele><time>2026-05-02T08:40:23.932Z</time></trkpt><trkpt lat="43.3352183" lon="13.2510117"><ele>363.0</ele><time>2026-05-02T08:40:24.932Z</time></trkpt><trkpt lat="43.3352183" lon="13.250875"><ele>364.0</ele><time>2026-05-02T08:40:25.932Z</time></trkpt><trkpt lat="43.3352267" lon="13.2507333"><ele>365.0</ele><time>2026-05-02T08:40:26.932Z</time></trkpt><trkpt lat="43.3352233" lon="13.2505983"><ele>365.2</ele><time>2026-05-02T08:40:27.933Z</time></trkpt><trkpt lat="43.3352067" lon="13.250475"><ele>365.4</ele><time>2026-05-02T08:40:28.932Z</time></trkpt><trkpt lat="43.3351583" lon="13.2503667"><ele>365.6</ele><time>2026-05-02T08:40:29.932Z</time></trkpt><trkpt lat="43.3350867" lon="13.250245"><ele>365.8</ele><time>2026-05-02T08:40:30.932Z</time></trkpt><trkpt lat="43.3349983" lon="13.2501117"><ele>366.0</ele><time>2026-05-02T08:40:31.932Z</time></trkpt><trkpt lat="43.3348867" lon="13.2499983"><ele>366.0</ele><time>2026-05-02T08:40:32.932Z</time></trkpt><trkpt lat="43.3347617" lon="13.2499117"><ele>366.0</ele><time>2026-05-02T08:40:33.932Z</time></trkpt><trkpt lat="43.3346317" lon="13.24984"><ele>366.0</ele><time>2026-05-02T08:40:34.932Z</time></trkpt><trkpt lat="43.334495" lon="13.249785"><ele>366.0</ele><time>2026-05-02T08:40:35.932Z</time></trkpt><trkpt lat="43.3343517" lon="13.2497283"><ele>365.0</ele><time>2026-05-02T08:40:36.932Z</time></trkpt><trkpt lat="43.334225" lon="13.2496533"><ele>364.0</ele><time>2026-05-02T08:40:37.933Z</time></trkpt><trkpt lat="43.334125" lon="13.24956"><ele>363.0</ele><time>2026-05-02T08:40:38.932Z</time></trkpt><trkpt lat="43.3340183" lon="13.2494367"><ele>362.0</ele><time>2026-05-02T08:40:39.932Z</time></trkpt><trkpt lat="43.3339117" lon="13.2492833"><ele>362.40000000000003</ele><time>2026-05-02T08:40:40.933Z</time></trkpt><trkpt lat="43.33383" lon="13.24912"><ele>362.8</ele><time>2026-05-02T08:40:41.932Z</time></trkpt><trkpt lat="43.3337583" lon="13.2489983"><ele>363.2</ele><time>2026-05-02T08:40:42.932Z</time></trkpt><trkpt lat="43.3336967" lon="13.2489083"><ele>363.6</ele><time>2026-05-02T08:40:43.932Z</time></trkpt><trkpt lat="43.33363" lon="13.2488317"><ele>364.0</ele><time>2026-05-02T08:40:44.932Z</time></trkpt><trkpt lat="43.33355" lon="13.24876"><ele>364.0</ele><time>2026-05-02T08:40:45.932Z</time></trkpt><trkpt lat="43.3334717" lon="13.24871"><ele>364.0</ele><time>2026-05-02T08:40:46.932Z</time></trkpt><trkpt lat="43.3333817" lon="13.248685"><ele>364.0</ele><time>2026-05-02T08:40:47.932Z</time></trkpt><trkpt lat="43.333295" lon="13.248655"><ele>364.0</ele><time>2026-05-02T08:40:48.932Z</time></trkpt><trkpt lat="43.3332067" lon="13.248635"><ele>364.0</ele><time>2026-05-02T08:40:49.933Z</time></trkpt><trkpt lat="43.3331417" lon="13.2486167"><ele>364.0</ele><time>2026-05-02T08:40:50.932Z</time></trkpt><trkpt lat="43.3330367" lon="13.248565"><ele>364.0</ele><time>2026-05-02T08:40:52.933Z</time></trkpt><trkpt lat="43.332985" lon="13.248485"><ele>364.0</ele><time>2026-05-02T08:40:54.932Z</time></trkpt><trkpt lat="43.3330033" lon="13.248375"><ele>364.0</ele><time>2026-05-02T08:40:56.932Z</time></trkpt><trkpt lat="43.3330833" lon="13.2482783"><ele>364.0</ele><time>2026-05-02T08:40:58.932Z</time></trkpt><trkpt lat="43.3331433" lon="13.2482483"><ele>364.0</ele><time>2026-05-02T08:40:59.933Z</time></trkpt><trkpt lat="43.3332067" lon="13.2482333"><ele>364.0</ele><time>2026-05-02T08:41:00.932Z</time></trkpt><trkpt lat="43.3332667" lon="13.248205"><ele>364.0</ele><time>2026-05-02T08:41:01.932Z</time></trkpt><trkpt lat="43.33336" lon="13.2481333"><ele>364.0</ele><time>2026-05-02T08:41:03.932Z</time></trkpt><trkpt lat="43.3333833" lon="13.2480517"><ele>364.0</ele><time>2026-05-02T08:41:05.932Z</time></trkpt><trkpt lat="43.3333583" lon="13.247955"><ele>364.0</ele><time>2026-05-02T08:43:57.932Z</time></trkpt><trkpt lat="43.3332467" lon="13.2478767"><ele>364.0</ele><time>2026-05-02T08:43:59.932Z</time></trkpt><trkpt lat="43.3331667" lon="13.2478517"><ele>363.79999999999995</ele><time>2026-05-02T08:44:00.932Z</time></trkpt><trkpt lat="43.3330683" lon="13.24783"><ele>363.59999999999997</ele><time>2026-05-02T08:44:01.932Z</time></trkpt><trkpt lat="43.3329583" lon="13.24779"><ele>363.4</ele><time>2026-05-02T08:44:02.932Z</time></trkpt><trkpt lat="43.3328567" lon="13.2477283"><ele>363.2</ele><time>2026-05-02T08:44:03.932Z</time></trkpt><trkpt lat="43.33277" lon="13.2476617"><ele>363.0</ele><time>2026-05-02T08:44:04.932Z</time></trkpt><trkpt lat="43.332695" lon="13.2476183"><ele>365.0</ele><time>2026-05-02T08:44:05.932Z</time></trkpt><trkpt lat="43.3326083" lon="13.2475917"><ele>367.0</ele><time>2026-05-02T08:44:06.932Z</time></trkpt><trkpt lat="43.3325167" lon="13.2475817"><ele>369.0</ele><time>2026-05-02T08:44:07.932Z</time></trkpt><trkpt lat="43.3324017" lon="13.2475767"><ele>371.0</ele><time>2026-05-02T08:44:08.932Z</time></trkpt><trkpt lat="43.3322733" lon="13.2475483"><ele>373.0</ele><time>2026-05-02T08:44:09.932Z</time></trkpt><trkpt lat="43.3321467" lon="13.2474883"><ele>375.0</ele><time>2026-05-02T08:44:10.932Z</time></trkpt><trkpt lat="43.33203" lon="13.2474183"><ele>377.0</ele><time>2026-05-02T08:44:11.932Z</time></trkpt><trkpt lat="43.3319133" lon="13.24735"><ele>379.0</ele><time>2026-05-02T08:44:12.932Z</time></trkpt><trkpt lat="43.3318" lon="13.2472817"><ele>381.0</ele><time>2026-05-02T08:44:13.932Z</time></trkpt><trkpt lat="43.3316733" lon="13.2472433"><ele>381.75</ele><time>2026-05-02T08:44:14.932Z</time></trkpt><trkpt lat="43.3315417" lon="13.247225"><ele>382.5</ele><time>2026-05-02T08:44:15.932Z</time></trkpt><trkpt lat="43.3314083" lon="13.2472183"><ele>383.25</ele><time>2026-05-02T08:44:16.932Z</time></trkpt><trkpt lat="43.3312867" lon="13.2472117"><ele>384.0</ele><time>2026-05-02T08:44:17.932Z</time></trkpt><trkpt lat="43.3311817" lon="13.2472167"><ele>385.6</ele><time>2026-05-02T08:44:18.932Z</time></trkpt><trkpt lat="43.331085" lon="13.247215"><ele>387.2</ele><time>2026-05-02T08:44:19.932Z</time></trkpt><trkpt lat="43.331005" lon="13.2471933"><ele>388.8</ele><time>2026-05-02T08:44:20.932Z</time></trkpt><trkpt lat="43.3309283" lon="13.24712"><ele>390.40000000000003</ele><time>2026-05-02T08:44:22.932Z</time></trkpt><trkpt lat="43.3309483" lon="13.2469667"><ele>392.0</ele><time>2026-05-02T08:44:24.932Z</time></trkpt><trkpt lat="43.33098" lon="13.2468567"><ele>392.0</ele><time>2026-05-02T08:44:25.932Z</time></trkpt><trkpt lat="43.3310217" lon="13.24673"><ele>392.0</ele><time>2026-05-02T08:44:26.932Z</time></trkpt><trkpt lat="43.33107" lon="13.2465917"><ele>392.0</ele><time>2026-05-02T08:44:27.932Z</time></trkpt><trkpt lat="43.33112" lon="13.2464483"><ele>392.0</ele><time>2026-05-02T08:44:28.932Z</time></trkpt><trkpt lat="43.3311717" lon="13.24632"><ele>392.0</ele><time>2026-05-02T08:44:29.932Z</time></trkpt><trkpt lat="43.3312067" lon="13.246225"><ele>391.8333333333333</ele><time>2026-05-02T08:44:30.932Z</time></trkpt><trkpt lat="43.3312517" lon="13.24614"><ele>391.66666666666663</ele><time>2026-05-02T08:44:31.932Z</time></trkpt><trkpt lat="43.3313633" lon="13.24606"><ele>391.5</ele><time>2026-05-02T08:44:33.932Z</time></trkpt><trkpt lat="43.3314367" lon="13.2460583"><ele>391.33333333333337</ele><time>2026-05-02T08:44:34.933Z</time></trkpt><trkpt lat="43.3315167" lon="13.2460733"><ele>391.1666666666667</ele><time>2026-05-02T08:44:35.932Z</time></trkpt><trkpt lat="43.3315883" lon="13.2460767"><ele>391.0</ele><time>2026-05-02T08:44:36.932Z</time></trkpt><trkpt lat="43.3317033" lon="13.24602"><ele>391.0</ele><time>2026-05-02T08:44:38.932Z</time></trkpt><trkpt lat="43.3317467" lon="13.24594"><ele>391.0</ele><time>2026-05-02T08:44:39.932Z</time></trkpt><trkpt lat="43.3317667" lon="13.2458183"><ele>391.0</ele><time>2026-05-02T08:44:40.933Z</time></trkpt><trkpt lat="43.3317817" lon="13.2456433"><ele>391.0</ele><time>2026-05-02T08:44:41.932Z</time></trkpt><trkpt lat="43.33178" lon="13.2454467"><ele>391.0</ele><time>2026-05-02T08:44:42.932Z</time></trkpt><trkpt lat="43.331765" lon="13.245245"><ele>393.8</ele><time>2026-05-02T08:44:43.932Z</time></trkpt><trkpt lat="43.3317783" lon="13.2451033"><ele>396.6</ele><time>2026-05-02T08:44:44.932Z</time></trkpt><trkpt lat="43.3318267" lon="13.2449733"><ele>399.4</ele><time>2026-05-02T08:44:46.933Z</time></trkpt><trkpt lat="43.3318867" lon="13.2449383"><ele>402.2</ele><time>2026-05-02T08:44:47.932Z</time></trkpt><trkpt lat="43.331965" lon="13.24492"><ele>405.0</ele><time>2026-05-02T08:44:48.933Z</time></trkpt><trkpt lat="43.332075" lon="13.2449033"><ele>405.0</ele><time>2026-05-02T08:44:49.932Z</time></trkpt><trkpt lat="43.3321983" lon="13.24489"><ele>405.0</ele><time>2026-05-02T08:44:50.932Z</time></trkpt><trkpt lat="43.3323283" lon="13.2448833"><ele>405.0</ele><time>2026-05-02T08:44:51.933Z</time></trkpt><trkpt lat="43.3324617" lon="13.24488"><ele>405.0</ele><time>2026-05-02T08:44:52.932Z</time></trkpt><trkpt lat="43.3325783" lon="13.244885"><ele>404.4</ele><time>2026-05-02T08:44:53.932Z</time></trkpt><trkpt lat="43.3326833" lon="13.2449133"><ele>403.8</ele><time>2026-05-02T08:44:54.932Z</time></trkpt><trkpt lat="43.3327717" lon="13.2449717"><ele>403.20000000000005</ele><time>2026-05-02T08:44:55.932Z</time></trkpt><trkpt lat="43.332845" lon="13.2450533"><ele>402.6</ele><time>2026-05-02T08:44:56.932Z</time></trkpt><trkpt lat="43.33292" lon="13.245155"><ele>402.0</ele><time>2026-05-02T08:44:57.932Z</time></trkpt><trkpt lat="43.3330117" lon="13.24525"><ele>403.6</ele><time>2026-05-02T08:44:58.932Z</time></trkpt><trkpt lat="43.3330933" lon="13.24535"><ele>405.20000000000005</ele><time>2026-05-02T08:44:59.932Z</time></trkpt><trkpt lat="43.33318" lon="13.24543"><ele>406.8</ele><time>2026-05-02T08:45:00.932Z</time></trkpt><trkpt lat="43.3332683" lon="13.2455217"><ele>408.4</ele><time>2026-05-02T08:45:01.932Z</time></trkpt><trkpt lat="43.333345" lon="13.2456167"><ele>410.0</ele><time>2026-05-02T08:45:02.931Z</time></trkpt><trkpt lat="43.3334117" lon="13.2457017"><ele>405.8333333333333</ele><time>2026-05-02T08:45:03.932Z</time></trkpt><trkpt lat="43.3334733" lon="13.2457867"><ele>401.66666666666663</ele><time>2026-05-02T08:45:04.931Z</time></trkpt><trkpt lat="43.3335333" lon="13.2458517"><ele>397.5</ele><time>2026-05-02T08:45:05.931Z</time></trkpt><trkpt lat="43.3335917" lon="13.245885"><ele>393.33333333333337</ele><time>2026-05-02T08:45:06.932Z</time></trkpt><trkpt lat="43.3336567" lon="13.24597"><ele>389.1666666666667</ele><time>2026-05-02T08:45:08.931Z</time></trkpt><trkpt lat="43.3336683" lon="13.246085"><ele>385.0</ele><time>2026-05-02T08:45:10.931Z</time></trkpt><trkpt lat="43.3337183" lon="13.246175"><ele>385.0</ele><time>2026-05-02T08:45:12.931Z</time></trkpt><trkpt lat="43.3338133" lon="13.2462117"><ele>385.0</ele><time>2026-05-02T08:45:14.931Z</time></trkpt><trkpt lat="43.3339233" lon="13.2462083"><ele>385.0</ele><time>2026-05-02T08:45:16.931Z</time></trkpt><trkpt lat="43.334025" lon="13.2461883"><ele>385.0</ele><time>2026-05-02T08:45:18.931Z</time></trkpt><trkpt lat="43.3341017" lon="13.246175"><ele>385.0</ele><time>2026-05-02T08:45:20.931Z</time></trkpt><trkpt lat="43.334205" lon="13.24616"><ele>385.2</ele><time>2026-05-02T08:45:22.931Z</time></trkpt><trkpt lat="43.334325" lon="13.2461767"><ele>385.4</ele><time>2026-05-02T08:45:24.931Z</time></trkpt><trkpt lat="43.3344083" lon="13.2461933"><ele>385.6</ele><time>2026-05-02T08:45:25.932Z</time></trkpt><trkpt lat="43.3344967" lon="13.2462233"><ele>385.8</ele><time>2026-05-02T08:45:26.931Z</time></trkpt><trkpt lat="43.3345967" lon="13.2462617"><ele>386.0</ele><time>2026-05-02T08:45:27.931Z</time></trkpt><trkpt lat="43.3347033" lon="13.2463067"><ele>386.4</ele><time>2026-05-02T08:45:28.932Z</time></trkpt><trkpt lat="43.3347933" lon="13.246345"><ele>386.8</ele><time>2026-05-02T08:45:29.931Z</time></trkpt><trkpt lat="43.3348867" lon="13.2463633"><ele>387.2</ele><time>2026-05-02T08:45:30.931Z</time></trkpt><trkpt lat="43.33499" lon="13.2463717"><ele>387.59999999999997</ele><time>2026-05-02T08:45:31.931Z</time></trkpt><trkpt lat="43.335105" lon="13.2463667"><ele>388.0</ele><time>2026-05-02T08:45:32.931Z</time></trkpt><trkpt lat="43.3352283" lon="13.2463583"><ele>388.0</ele><time>2026-05-02T08:45:33.931Z</time></trkpt><trkpt lat="43.33535" lon="13.2463367"><ele>388.0</ele><time>2026-05-02T08:45:34.931Z</time></trkpt><trkpt lat="43.33545" lon="13.2462983"><ele>388.0</ele><time>2026-05-02T08:45:35.931Z</time></trkpt><trkpt lat="43.3355417" lon="13.2462467"><ele>388.0</ele><time>2026-05-02T08:45:36.931Z</time></trkpt><trkpt lat="43.3356217" lon="13.2462033"><ele>388.0</ele><time>2026-05-02T08:45:37.931Z</time></trkpt><trkpt lat="43.335705" lon="13.246145"><ele>383.75</ele><time>2026-05-02T08:45:38.931Z</time></trkpt><trkpt lat="43.3357783" lon="13.2460667"><ele>379.5</ele><time>2026-05-02T08:45:39.931Z</time></trkpt><trkpt lat="43.335855" lon="13.24594"><ele>375.25</ele><time>2026-05-02T08:45:40.931Z</time></trkpt><trkpt lat="43.33591" lon="13.245795"><ele>371.0</ele><time>2026-05-02T08:45:41.931Z</time></trkpt><trkpt lat="43.33598" lon="13.245655"><ele>375.25</ele><time>2026-05-02T08:45:42.931Z</time></trkpt><trkpt lat="43.3360533" lon="13.245525"><ele>379.5</ele><time>2026-05-02T08:45:43.931Z</time></trkpt><trkpt lat="43.3361483" lon="13.2454067"><ele>383.75</ele><time>2026-05-02T08:45:44.931Z</time></trkpt><trkpt lat="43.336255" lon="13.24528"><ele>388.0</ele><time>2026-05-02T08:45:45.932Z</time></trkpt><trkpt lat="43.3363633" lon="13.245145"><ele>385.4</ele><time>2026-05-02T08:45:46.931Z</time></trkpt><trkpt lat="43.336445" lon="13.245025"><ele>382.79999999999995</ele><time>2026-05-02T08:45:47.931Z</time></trkpt><trkpt lat="43.3365083" lon="13.244915"><ele>380.2</ele><time>2026-05-02T08:45:48.932Z</time></trkpt><trkpt lat="43.3365633" lon="13.2447967"><ele>377.6</ele><time>2026-05-02T08:45:49.931Z</time></trkpt><trkpt lat="43.3366133" lon="13.2446767"><ele>375.0</ele><time>2026-05-02T08:45:50.931Z</time></trkpt><trkpt lat="43.3366483" lon="13.2445667"><ele>375.0</ele><time>2026-05-02T08:45:51.931Z</time></trkpt><trkpt lat="43.3366783" lon="13.2444467"><ele>375.0</ele><time>2026-05-02T08:45:52.931Z</time></trkpt><trkpt lat="43.3366883" lon="13.2443133"><ele>375.0</ele><time>2026-05-02T08:45:53.932Z</time></trkpt><trkpt lat="43.336705" lon="13.2441583"><ele>375.0</ele><time>2026-05-02T08:45:54.931Z</time></trkpt><trkpt lat="43.3367217" lon="13.24401"><ele>375.0</ele><time>2026-05-02T08:45:55.931Z</time></trkpt><trkpt lat="43.3367483" lon="13.2438717"><ele>375.4</ele><time>2026-05-02T08:45:56.931Z</time></trkpt><trkpt lat="43.3367767" lon="13.2437333"><ele>375.8</ele><time>2026-05-02T08:45:57.931Z</time></trkpt><trkpt lat="43.3367917" lon="13.2436"><ele>376.20000000000005</ele><time>2026-05-02T08:45:58.931Z</time></trkpt><trkpt lat="43.33679" lon="13.243465"><ele>376.6</ele><time>2026-05-02T08:45:59.931Z</time></trkpt><trkpt lat="43.3367933" lon="13.24334"><ele>377.0</ele><time>2026-05-02T08:46:00.931Z</time></trkpt><trkpt lat="43.33679" lon="13.24321"><ele>376.6666666666667</ele><time>2026-05-02T08:46:01.931Z</time></trkpt><trkpt lat="43.336785" lon="13.243085"><ele>376.33333333333337</ele><time>2026-05-02T08:46:02.931Z</time></trkpt><trkpt lat="43.3367617" lon="13.2429583"><ele>376.0</ele><time>2026-05-02T08:46:03.931Z</time></trkpt><trkpt lat="43.3367467" lon="13.242845"><ele>375.6666666666667</ele><time>2026-05-02T08:46:04.931Z</time></trkpt><trkpt lat="43.3367417" lon="13.2427333"><ele>375.3333333333333</ele><time>2026-05-02T08:46:05.931Z</time></trkpt><trkpt lat="43.33673" lon="13.2426233"><ele>375.0</ele><time>2026-05-02T08:46:06.932Z</time></trkpt><trkpt lat="43.3367183" lon="13.2425167"><ele>375.0</ele><time>2026-05-02T08:46:07.931Z</time></trkpt><trkpt lat="43.3367167" lon="13.242425"><ele>375.0</ele><time>2026-05-02T08:46:08.931Z</time></trkpt><trkpt lat="43.3367217" lon="13.2423267"><ele>375.0</ele><time>2026-05-02T08:46:09.931Z</time></trkpt><trkpt lat="43.3367433" lon="13.2421983"><ele>375.0</ele><time>2026-05-02T08:46:10.931Z</time></trkpt><trkpt lat="43.3367717" lon="13.242035"><ele>375.0</ele><time>2026-05-02T08:46:11.931Z</time></trkpt><trkpt lat="43.3368117" lon="13.241855"><ele>374.8</ele><time>2026-05-02T08:46:12.931Z</time></trkpt><trkpt lat="43.3368567" lon="13.241705"><ele>374.6</ele><time>2026-05-02T08:46:13.931Z</time></trkpt><trkpt lat="43.336915" lon="13.2415717"><ele>374.4</ele><time>2026-05-02T08:46:14.931Z</time></trkpt><trkpt lat="43.3369817" lon="13.241445"><ele>374.2</ele><time>2026-05-02T08:46:15.932Z</time></trkpt><trkpt lat="43.337035" lon="13.2413383"><ele>374.0</ele><time>2026-05-02T08:46:16.931Z</time></trkpt><trkpt lat="43.337075" lon="13.2412117"><ele>374.2</ele><time>2026-05-02T08:46:17.931Z</time></trkpt><trkpt lat="43.337115" lon="13.241085"><ele>374.4</ele><time>2026-05-02T08:46:18.932Z</time></trkpt><trkpt lat="43.3371317" lon="13.2409517"><ele>374.6</ele><time>2026-05-02T08:46:19.931Z</time></trkpt><trkpt lat="43.3371283" lon="13.2408167"><ele>374.8</ele><time>2026-05-02T08:46:20.931Z</time></trkpt><trkpt lat="43.3370983" lon="13.2406767"><ele>375.0</ele><time>2026-05-02T08:46:21.931Z</time></trkpt><trkpt lat="43.33707" lon="13.2405433"><ele>375.0</ele><time>2026-05-02T08:46:22.931Z</time></trkpt><trkpt lat="43.3370567" lon="13.2404467"><ele>375.0</ele><time>2026-05-02T08:46:23.932Z</time></trkpt><trkpt lat="43.337025" lon="13.24033"><ele>375.0</ele><time>2026-05-02T08:46:25.931Z</time></trkpt><trkpt lat="43.337005" lon="13.2402317"><ele>375.0</ele><time>2026-05-02T08:47:04.931Z</time></trkpt><trkpt lat="43.3369583" lon="13.24014"><ele>375.0</ele><time>2026-05-02T08:47:20.931Z</time></trkpt><trkpt lat="43.3369167" lon="13.23998"><ele>375.0</ele><time>2026-05-02T08:47:22.931Z</time></trkpt><trkpt lat="43.3368783" lon="13.2398217"><ele>374.3333333333333</ele><time>2026-05-02T08:47:24.931Z</time></trkpt><trkpt lat="43.33687" lon="13.2397033"><ele>373.6666666666667</ele><time>2026-05-02T08:47:26.931Z</time></trkpt><trkpt lat="43.3369183" lon="13.2396183"><ele>373.0</ele><time>2026-05-02T08:47:28.931Z</time></trkpt><trkpt lat="43.3370067" lon="13.239565"><ele>372.33333333333337</ele><time>2026-05-02T08:47:30.932Z</time></trkpt><trkpt lat="43.3370767" lon="13.23951"><ele>371.6666666666667</ele><time>2026-05-02T08:47:31.931Z</time></trkpt><trkpt lat="43.3371533" lon="13.23945"><ele>371.0</ele><time>2026-05-02T08:47:32.931Z</time></trkpt><trkpt lat="43.3372333" lon="13.239395"><ele>367.57142857142856</ele><time>2026-05-02T08:47:33.931Z</time></trkpt><trkpt lat="43.3373067" lon="13.2393533"><ele>364.1428571428571</ele><time>2026-05-02T08:47:34.931Z</time></trkpt><trkpt lat="43.33738" lon="13.239315"><ele>360.7142857142857</ele><time>2026-05-02T08:47:35.931Z</time></trkpt><trkpt lat="43.3374533" lon="13.2392883"><ele>357.2857142857143</ele><time>2026-05-02T08:47:36.931Z</time></trkpt><trkpt lat="43.3375217" lon="13.2392967"><ele>353.85714285714283</ele><time>2026-05-02T08:47:37.931Z</time></trkpt><trkpt lat="43.33758" lon="13.2393333"><ele>350.42857142857144</ele><time>2026-05-02T08:47:38.931Z</time></trkpt><trkpt lat="43.3376317" lon="13.239395"><ele>347.0</ele><time>2026-05-02T08:47:39.931Z</time></trkpt><trkpt lat="43.337695" lon="13.2394817"><ele>347.0</ele><time>2026-05-02T08:47:41.931Z</time></trkpt><trkpt lat="43.3376783" lon="13.2393833"><ele>347.0</ele><time>2026-05-02T08:54:52.929Z</time></trkpt><trkpt lat="43.33766" lon="13.2392667"><ele>347.0</ele><time>2026-05-02T08:54:54.929Z</time></trkpt><trkpt lat="43.3376133" lon="13.239135"><ele>347.0</ele><time>2026-05-02T08:54:56.929Z</time></trkpt><trkpt lat="43.3375633" lon="13.2390633"><ele>347.0</ele><time>2026-05-02T08:54:57.929Z</time></trkpt><trkpt lat="43.3375133" lon="13.2389933"><ele>347.0</ele><time>2026-05-02T08:54:58.929Z</time></trkpt><trkpt lat="43.3374717" lon="13.238915"><ele>347.5</ele><time>2026-05-02T08:54:59.929Z</time></trkpt><trkpt lat="43.3374633" lon="13.2388267"><ele>348.0</ele><time>2026-05-02T08:55:00.929Z</time></trkpt><trkpt lat="43.3374683" lon="13.2387367"><ele>348.5</ele><time>2026-05-02T08:55:01.93Z</time></trkpt><trkpt lat="43.33751" lon="13.2386283"><ele>349.0</ele><time>2026-05-02T08:55:02.929Z</time></trkpt><trkpt lat="43.33756" lon="13.23853"><ele>349.5</ele><time>2026-05-02T08:55:03.929Z</time></trkpt><trkpt lat="43.3375983" lon="13.23843"><ele>350.0</ele><time>2026-05-02T08:55:04.929Z</time></trkpt><trkpt lat="43.3376167" lon="13.2383117"><ele>350.0</ele><time>2026-05-02T08:55:05.929Z</time></trkpt><trkpt lat="43.3376117" lon="13.2381983"><ele>350.0</ele><time>2026-05-02T08:55:06.93Z</time></trkpt><trkpt lat="43.3375883" lon="13.2380817"><ele>350.0</ele><time>2026-05-02T08:55:07.929Z</time></trkpt><trkpt lat="43.33756" lon="13.23797"><ele>350.0</ele><time>2026-05-02T08:55:08.929Z</time></trkpt><trkpt lat="43.33753" lon="13.23786"><ele>350.0</ele><time>2026-05-02T08:55:09.929Z</time></trkpt><trkpt lat="43.3375183" lon="13.23775"><ele>350.0</ele><time>2026-05-02T08:55:10.93Z</time></trkpt><trkpt lat="43.3375033" lon="13.23763"><ele>351.1666666666667</ele><time>2026-05-02T08:55:11.929Z</time></trkpt><trkpt lat="43.3374983" lon="13.23751"><ele>352.33333333333337</ele><time>2026-05-02T08:55:12.929Z</time></trkpt><trkpt lat="43.3375033" lon="13.23742"><ele>353.5</ele><time>2026-05-02T08:55:13.929Z</time></trkpt><trkpt lat="43.3375467" lon="13.23734"><ele>354.6666666666667</ele><time>2026-05-02T08:55:15.929Z</time></trkpt><trkpt lat="43.337615" lon="13.2373133"><ele>355.8333333333333</ele><time>2026-05-02T08:55:18.929Z</time></trkpt><trkpt lat="43.3376867" lon="13.23721"><ele>357.0</ele><time>2026-05-02T08:55:21.929Z</time></trkpt><trkpt lat="43.337715" lon="13.237125"><ele>357.6</ele><time>2026-05-02T08:55:22.929Z</time></trkpt><trkpt lat="43.3377467" lon="13.2370367"><ele>358.20000000000005</ele><time>2026-05-02T08:55:23.929Z</time></trkpt><trkpt lat="43.337775" lon="13.23693"><ele>358.8</ele><time>2026-05-02T08:55:24.93Z</time></trkpt><trkpt lat="43.3378" lon="13.2368033"><ele>359.4</ele><time>2026-05-02T08:55:25.929Z</time></trkpt><trkpt lat="43.337825" lon="13.236645"><ele>360.0</ele><time>2026-05-02T08:55:26.93Z</time></trkpt><trkpt lat="43.337845" lon="13.2364467"><ele>360.0</ele><time>2026-05-02T08:55:27.929Z</time></trkpt><trkpt lat="43.3378717" lon="13.236225"><ele>360.0</ele><time>2026-05-02T08:55:28.929Z</time></trkpt><trkpt lat="43.3378783" lon="13.236025"><ele>360.0</ele><time>2026-05-02T08:55:29.929Z</time></trkpt><trkpt lat="43.3378883" lon="13.23584"><ele>360.0</ele><time>2026-05-02T08:55:30.929Z</time></trkpt><trkpt lat="43.337865" lon="13.2356733"><ele>360.5</ele><time>2026-05-02T08:55:31.93Z</time></trkpt><trkpt lat="43.33781" lon="13.2355033"><ele>361.0</ele><time>2026-05-02T08:55:32.929Z</time></trkpt><trkpt lat="43.3377217" lon="13.2353583"><ele>361.5</ele><time>2026-05-02T08:55:33.929Z</time></trkpt><trkpt lat="43.3376317" lon="13.23521"><ele>362.0</ele><time>2026-05-02T08:55:34.929Z</time></trkpt><trkpt lat="43.337555" lon="13.2350467"><ele>362.0</ele><time>2026-05-02T08:55:35.929Z</time></trkpt><trkpt lat="43.3375017" lon="13.23488"><ele>362.0</ele><time>2026-05-02T08:55:36.93Z</time></trkpt><trkpt lat="43.3374717" lon="13.2347067"><ele>362.0</ele><time>2026-05-02T08:55:37.929Z</time></trkpt><trkpt lat="43.33744" lon="13.2345433"><ele>362.0</ele><time>2026-05-02T08:55:38.929Z</time></trkpt><trkpt lat="43.33735" lon="13.2343717"><ele>364.33333333333337</ele><time>2026-05-02T08:55:39.929Z</time></trkpt><trkpt lat="43.3372367" lon="13.2342283"><ele>366.6666666666667</ele><time>2026-05-02T08:55:40.929Z</time></trkpt><trkpt lat="43.337115" lon="13.2341083"><ele>369.0</ele><time>2026-05-02T08:55:41.929Z</time></trkpt><trkpt lat="43.33698" lon="13.2340083"><ele>371.3333333333333</ele><time>2026-05-02T08:55:42.929Z</time></trkpt><trkpt lat="43.3368467" lon="13.2339117"><ele>373.66666666666663</ele><time>2026-05-02T08:55:43.929Z</time></trkpt><trkpt lat="43.3367083" lon="13.23382"><ele>376.0</ele><time>2026-05-02T08:55:44.929Z</time></trkpt><trkpt lat="43.336585" lon="13.2337117"><ele>376.0</ele><time>2026-05-02T08:55:45.929Z</time></trkpt><trkpt lat="43.33647" lon="13.2335783"><ele>376.0</ele><time>2026-05-02T08:55:46.929Z</time></trkpt><trkpt lat="43.3363567" lon="13.2334483"><ele>376.0</ele><time>2026-05-02T08:55:47.929Z</time></trkpt><trkpt lat="43.3362367" lon="13.23332"><ele>376.3333333333333</ele><time>2026-05-02T08:55:48.929Z</time></trkpt><trkpt lat="43.3361067" lon="13.2331933"><ele>376.6666666666667</ele><time>2026-05-02T08:55:49.929Z</time></trkpt><trkpt lat="43.3359833" lon="13.23307"><ele>377.0</ele><time>2026-05-02T08:55:50.93Z</time></trkpt><trkpt lat="43.3358667" lon="13.2329483"><ele>377.0</ele><time>2026-05-02T08:55:51.93Z</time></trkpt><trkpt lat="43.33575" lon="13.2328383"><ele>377.0</ele><time>2026-05-02T08:55:52.929Z</time></trkpt><trkpt lat="43.335635" lon="13.2327317"><ele>377.0</ele><time>2026-05-02T08:55:53.929Z</time></trkpt><trkpt lat="43.335525" lon="13.232625"><ele>377.0</ele><time>2026-05-02T08:55:54.929Z</time></trkpt><trkpt lat="43.3354217" lon="13.2325217"><ele>376.40000000000003</ele><time>2026-05-02T08:55:55.929Z</time></trkpt><trkpt lat="43.3353283" lon="13.2324417"><ele>375.8</ele><time>2026-05-02T08:55:56.929Z</time></trkpt><trkpt lat="43.3352333" lon="13.2323683"><ele>375.2</ele><time>2026-05-02T08:55:57.929Z</time></trkpt><trkpt lat="43.335145" lon="13.2323117"><ele>374.6</ele><time>2026-05-02T08:55:58.929Z</time></trkpt><trkpt lat="43.3350417" lon="13.232295"><ele>374.0</ele><time>2026-05-02T08:55:59.929Z</time></trkpt><trkpt lat="43.3349317" lon="13.2323233"><ele>374.0</ele><time>2026-05-02T08:56:00.929Z</time></trkpt><trkpt lat="43.3348233" lon="13.232395"><ele>374.0</ele><time>2026-05-02T08:56:01.929Z</time></trkpt><trkpt lat="43.3347117" lon="13.2325067"><ele>374.0</ele><time>2026-05-02T08:56:02.929Z</time></trkpt><trkpt lat="43.3346083" lon="13.2326183"><ele>374.0</ele><time>2026-05-02T08:56:03.929Z</time></trkpt><trkpt lat="43.3344917" lon="13.2327233"><ele>373.5</ele><time>2026-05-02T08:56:04.929Z</time></trkpt><trkpt lat="43.3343533" lon="13.23282"><ele>373.0</ele><time>2026-05-02T08:56:05.929Z</time></trkpt><trkpt lat="43.33423" lon="13.232895"><ele>372.5</ele><time>2026-05-02T08:56:06.929Z</time></trkpt><trkpt lat="43.33409" lon="13.2329317"><ele>372.0</ele><time>2026-05-02T08:56:07.929Z</time></trkpt><trkpt lat="43.3339667" lon="13.2329417"><ele>372.0</ele><time>2026-05-02T08:56:08.929Z</time></trkpt><trkpt lat="43.3338483" lon="13.2328883"><ele>372.0</ele><time>2026-05-02T08:56:09.93Z</time></trkpt><trkpt lat="43.333745" lon="13.232815"><ele>372.0</ele><time>2026-05-02T08:56:10.929Z</time></trkpt><trkpt lat="43.3336483" lon="13.232715"><ele>372.0</ele><time>2026-05-02T08:56:11.929Z</time></trkpt><trkpt lat="43.3335417" lon="13.2326033"><ele>372.0</ele><time>2026-05-02T08:56:12.929Z</time></trkpt><trkpt lat="43.3334333" lon="13.2324983"><ele>372.0</ele><time>2026-05-02T08:56:13.929Z</time></trkpt><trkpt lat="43.33332" lon="13.2324217"><ele>372.0</ele><time>2026-05-02T08:56:14.929Z</time></trkpt><trkpt lat="43.3332067" lon="13.2323617"><ele>372.0</ele><time>2026-05-02T08:56:15.93Z</time></trkpt><trkpt lat="43.3330817" lon="13.232335"><ele>373.5</ele><time>2026-05-02T08:56:16.93Z</time></trkpt><trkpt lat="43.3329567" lon="13.23228"><ele>375.0</ele><time>2026-05-02T08:56:17.929Z</time></trkpt><trkpt lat="43.3328233" lon="13.2322667"><ele>376.5</ele><time>2026-05-02T08:56:18.929Z</time></trkpt><trkpt lat="43.3327" lon="13.2322783"><ele>378.0</ele><time>2026-05-02T08:56:19.929Z</time></trkpt><trkpt lat="43.3325917" lon="13.2323133"><ele>378.0</ele><time>2026-05-02T08:56:20.929Z</time></trkpt><trkpt lat="43.3324867" lon="13.2323583"><ele>378.0</ele><time>2026-05-02T08:56:21.929Z</time></trkpt><trkpt lat="43.3323817" lon="13.2324067"><ele>378.0</ele><time>2026-05-02T08:56:22.929Z</time></trkpt><trkpt lat="43.3322717" lon="13.2324417"><ele>378.0</ele><time>2026-05-02T08:56:23.929Z</time></trkpt><trkpt lat="43.33216" lon="13.2324317"><ele>378.0</ele><time>2026-05-02T08:56:24.929Z</time></trkpt><trkpt lat="43.3320567" lon="13.2323633"><ele>381.0</ele><time>2026-05-02T08:56:25.929Z</time></trkpt><trkpt lat="43.33197" lon="13.232255"><ele>384.0</ele><time>2026-05-02T08:56:26.929Z</time></trkpt><trkpt lat="43.3318883" lon="13.2321283"><ele>387.0</ele><time>2026-05-02T08:56:27.929Z</time></trkpt><trkpt lat="43.33182" lon="13.231965"><ele>390.0</ele><time>2026-05-02T08:56:28.929Z</time></trkpt><trkpt lat="43.3317517" lon="13.2317717"><ele>390.0</ele><time>2026-05-02T08:56:29.93Z</time></trkpt><trkpt lat="43.3316917" lon="13.2315783"><ele>390.0</ele><time>2026-05-02T08:56:30.929Z</time></trkpt><trkpt lat="43.3316367" lon="13.2313767"><ele>390.0</ele><time>2026-05-02T08:56:31.929Z</time></trkpt><trkpt lat="43.331565" lon="13.2312083"><ele>391.25</ele><time>2026-05-02T08:56:32.929Z</time></trkpt><trkpt lat="43.3314783" lon="13.2310633"><ele>392.5</ele><time>2026-05-02T08:56:33.93Z</time></trkpt><trkpt lat="43.3313767" lon="13.23096"><ele>393.75</ele><time>2026-05-02T08:56:34.929Z</time></trkpt><trkpt lat="43.33127" lon="13.2308767"><ele>395.0</ele><time>2026-05-02T08:56:35.929Z</time></trkpt><trkpt lat="43.3311633" lon="13.2308"><ele>395.0</ele><time>2026-05-02T08:56:36.93Z</time></trkpt><trkpt lat="43.3310533" lon="13.2307183"><ele>395.0</ele><time>2026-05-02T08:56:37.929Z</time></trkpt><trkpt lat="43.3309333" lon="13.2306133"><ele>395.0</ele><time>2026-05-02T08:56:38.929Z</time></trkpt><trkpt lat="43.330805" lon="13.2305017"><ele>395.0</ele><time>2026-05-02T08:56:39.929Z</time></trkpt><trkpt lat="43.3306867" lon="13.2303783"><ele>397.3333333333333</ele><time>2026-05-02T08:56:40.929Z</time></trkpt><trkpt lat="43.33058" lon="13.2302317"><ele>399.66666666666663</ele><time>2026-05-02T08:56:41.929Z</time></trkpt><trkpt lat="43.330485" lon="13.230065"><ele>402.0</ele><time>2026-05-02T08:56:42.929Z</time></trkpt><trkpt lat="43.3303933" lon="13.2298833"><ele>403.33333333333337</ele><time>2026-05-02T08:56:43.929Z</time></trkpt><trkpt lat="43.3303" lon="13.2296917"><ele>404.6666666666667</ele><time>2026-05-02T08:56:44.929Z</time></trkpt><trkpt lat="43.3302067" lon="13.22948"><ele>406.0</ele><time>2026-05-02T08:56:45.929Z</time></trkpt><trkpt lat="43.3301033" lon="13.22927"><ele>406.0</ele><time>2026-05-02T08:56:46.93Z</time></trkpt><trkpt lat="43.329995" lon="13.229075"><ele>406.0</ele><time>2026-05-02T08:56:47.929Z</time></trkpt><trkpt lat="43.3298883" lon="13.2289017"><ele>406.0</ele><time>2026-05-02T08:56:48.929Z</time></trkpt><trkpt lat="43.3297833" lon="13.2287533"><ele>407.0</ele><time>2026-05-02T08:56:49.929Z</time></trkpt><trkpt lat="43.3296833" lon="13.22861"><ele>408.0</ele><time>2026-05-02T08:56:50.929Z</time></trkpt><trkpt lat="43.3295917" lon="13.2284683"><ele>409.0</ele><time>2026-05-02T08:56:51.929Z</time></trkpt><trkpt lat="43.3294783" lon="13.2283317"><ele>410.0</ele><time>2026-05-02T08:56:52.929Z</time></trkpt><trkpt lat="43.329355" lon="13.2281967"><ele>413.75</ele><time>2026-05-02T08:56:53.929Z</time></trkpt><trkpt lat="43.3292217" lon="13.2280683"><ele>417.5</ele><time>2026-05-02T08:56:54.93Z</time></trkpt><trkpt lat="43.32909" lon="13.227965"><ele>421.25</ele><time>2026-05-02T08:56:55.929Z</time></trkpt><trkpt lat="43.3289833" lon="13.22786"><ele>425.0</ele><time>2026-05-02T08:56:56.929Z</time></trkpt><trkpt lat="43.32889" lon="13.2277467"><ele>426.0</ele><time>2026-05-02T08:56:57.929Z</time></trkpt><trkpt lat="43.3288183" lon="13.2276117"><ele>427.0</ele><time>2026-05-02T08:56:58.929Z</time></trkpt><trkpt lat="43.32879" lon="13.22745"><ele>428.0</ele><time>2026-05-02T08:56:59.929Z</time></trkpt><trkpt lat="43.3287917" lon="13.2272767"><ele>429.0</ele><time>2026-05-02T08:57:00.929Z</time></trkpt><trkpt lat="43.3288133" lon="13.227095"><ele>427.5</ele><time>2026-05-02T08:57:01.929Z</time></trkpt><trkpt lat="43.32884" lon="13.2269217"><ele>426.0</ele><time>2026-05-02T08:57:02.929Z</time></trkpt><trkpt lat="43.328845" lon="13.2267383"><ele>424.5</ele><time>2026-05-02T08:57:03.93Z</time></trkpt><trkpt lat="43.3288033" lon="13.226555"><ele>423.0</ele><time>2026-05-02T08:57:04.929Z</time></trkpt><trkpt lat="43.3287367" lon="13.2263767"><ele>423.0</ele><time>2026-05-02T08:57:05.93Z</time></trkpt><trkpt lat="43.3286667" lon="13.22621"><ele>423.0</ele><time>2026-05-02T08:57:06.929Z</time></trkpt><trkpt lat="43.3286083" lon="13.2260333"><ele>423.0</ele><time>2026-05-02T08:57:07.929Z</time></trkpt><trkpt lat="43.32857" lon="13.2258567"><ele>423.0</ele><time>2026-05-02T08:57:08.93Z</time></trkpt><trkpt lat="43.32855" lon="13.2256783"><ele>424.75</ele><time>2026-05-02T08:57:09.929Z</time></trkpt><trkpt lat="43.3285433" lon="13.2254983"><ele>426.5</ele><time>2026-05-02T08:57:10.929Z</time></trkpt><trkpt lat="43.3285433" lon="13.2253183"><ele>428.25</ele><time>2026-05-02T08:57:11.929Z</time></trkpt><trkpt lat="43.328565" lon="13.2251133"><ele>430.0</ele><time>2026-05-02T08:57:12.929Z</time></trkpt><trkpt lat="43.3285883" lon="13.22494"><ele>433.25</ele><time>2026-05-02T08:57:13.929Z</time></trkpt><trkpt lat="43.328635" lon="13.224775"><ele>436.5</ele><time>2026-05-02T08:57:14.929Z</time></trkpt><trkpt lat="43.3286883" lon="13.2245933"><ele>439.75</ele><time>2026-05-02T08:57:15.929Z</time></trkpt><trkpt lat="43.3287417" lon="13.224405"><ele>443.0</ele><time>2026-05-02T08:57:16.93Z</time></trkpt><trkpt lat="43.3287933" lon="13.2242067"><ele>443.0</ele><time>2026-05-02T08:57:17.93Z</time></trkpt><trkpt lat="43.3288467" lon="13.2240133"><ele>443.0</ele><time>2026-05-02T08:57:18.929Z</time></trkpt><trkpt lat="43.3289067" lon="13.223815"><ele>443.0</ele><time>2026-05-02T08:57:19.929Z</time></trkpt><trkpt lat="43.3289667" lon="13.2236067"><ele>439.0</ele><time>2026-05-02T08:57:20.928Z</time></trkpt><trkpt lat="43.32903" lon="13.2234017"><ele>435.0</ele><time>2026-05-02T08:57:21.928Z</time></trkpt><trkpt lat="43.3290967" lon="13.2232033"><ele>431.0</ele><time>2026-05-02T08:57:22.928Z</time></trkpt><trkpt lat="43.3291767" lon="13.2230267"><ele>431.0</ele><time>2026-05-02T08:57:23.928Z</time></trkpt><trkpt lat="43.3292667" lon="13.2228633"><ele>431.0</ele><time>2026-05-02T08:57:24.928Z</time></trkpt><trkpt lat="43.3293533" lon="13.2227"><ele>431.0</ele><time>2026-05-02T08:57:25.928Z</time></trkpt><trkpt lat="43.329435" lon="13.2225217"><ele>431.0</ele><time>2026-05-02T08:57:26.928Z</time></trkpt><trkpt lat="43.3294933" lon="13.222345"><ele>436.0</ele><time>2026-05-02T08:57:27.928Z</time></trkpt><trkpt lat="43.3295483" lon="13.222155"><ele>441.0</ele><time>2026-05-02T08:57:28.928Z</time></trkpt><trkpt lat="43.3296" lon="13.2219633"><ele>446.0</ele><time>2026-05-02T08:57:29.928Z</time></trkpt><trkpt lat="43.3296567" lon="13.2217767"><ele>451.0</ele><time>2026-05-02T08:57:30.928Z</time></trkpt><trkpt lat="43.3297167" lon="13.2216067"><ele>448.5</ele><time>2026-05-02T08:57:31.928Z</time></trkpt><trkpt lat="43.3297733" lon="13.2214383"><ele>446.0</ele><time>2026-05-02T08:57:32.929Z</time></trkpt><trkpt lat="43.3298167" lon="13.2212833"><ele>443.5</ele><time>2026-05-02T08:57:33.928Z</time></trkpt><trkpt lat="43.3298383" lon="13.221125"><ele>441.0</ele><time>2026-05-02T08:57:34.929Z</time></trkpt><trkpt lat="43.329825" lon="13.22097"><ele>441.0</ele><time>2026-05-02T08:57:35.928Z</time></trkpt><trkpt lat="43.329795" lon="13.220805"><ele>441.0</ele><time>2026-05-02T08:57:36.928Z</time></trkpt><trkpt lat="43.3297483" lon="13.2206317"><ele>441.0</ele><time>2026-05-02T08:57:37.928Z</time></trkpt><trkpt lat="43.3297033" lon="13.220455"><ele>441.0</ele><time>2026-05-02T08:57:38.928Z</time></trkpt><trkpt lat="43.3296683" lon="13.220275"><ele>444.0</ele><time>2026-05-02T08:57:39.928Z</time></trkpt><trkpt lat="43.3296333" lon="13.2200817"><ele>447.0</ele><time>2026-05-02T08:57:40.928Z</time></trkpt><trkpt lat="43.3296067" lon="13.2198917"><ele>450.0</ele><time>2026-05-02T08:57:41.929Z</time></trkpt><trkpt lat="43.3295904" lon="13.2197126"><ele>453.0</ele><time>2026-05-02T08:57:42.929Z</time></trkpt><trkpt lat="43.3295948" lon="13.2195345"><ele>454.5</ele><time>2026-05-02T08:57:43.929Z</time></trkpt><trkpt lat="43.3296303" lon="13.2193489"><ele>456.0</ele><time>2026-05-02T08:57:44.928Z</time></trkpt><trkpt lat="43.3296853" lon="13.2191708"><ele>457.5</ele><time>2026-05-02T08:57:45.928Z</time></trkpt><trkpt lat="43.3297487" lon="13.218997"><ele>459.0</ele><time>2026-05-02T08:57:46.928Z</time></trkpt><trkpt lat="43.3298138" lon="13.2188266"><ele>453.75</ele><time>2026-05-02T08:57:47.928Z</time></trkpt><trkpt lat="43.329882" lon="13.2186547"><ele>448.5</ele><time>2026-05-02T08:57:48.928Z</time></trkpt><trkpt lat="43.3299495" lon="13.2184879"><ele>443.25</ele><time>2026-05-02T08:57:49.928Z</time></trkpt><trkpt lat="43.3300257" lon="13.218318"><ele>438.0</ele><time>2026-05-02T08:57:50.928Z</time></trkpt><trkpt lat="43.3301031" lon="13.218148"><ele>438.0</ele><time>2026-05-02T08:57:51.928Z</time></trkpt><trkpt lat="43.3301787" lon="13.2179688"><ele>438.0</ele><time>2026-05-02T08:57:52.928Z</time></trkpt><trkpt lat="43.3302489" lon="13.2177927"><ele>438.0</ele><time>2026-05-02T08:57:53.928Z</time></trkpt><trkpt lat="43.3303148" lon="13.2176073"><ele>438.0</ele><time>2026-05-02T08:57:54.928Z</time></trkpt><trkpt lat="43.3303752" lon="13.2174135"><ele>443.33333333333337</ele><time>2026-05-02T08:57:55.928Z</time></trkpt><trkpt lat="43.3304255" lon="13.2172182"><ele>448.6666666666667</ele><time>2026-05-02T08:57:56.928Z</time></trkpt><trkpt lat="43.330476" lon="13.2170077"><ele>454.0</ele><time>2026-05-02T08:57:57.928Z</time></trkpt><trkpt lat="43.3305279" lon="13.216788"><ele>449.6666666666667</ele><time>2026-05-02T08:57:58.928Z</time></trkpt><trkpt lat="43.3305819" lon="13.216561"><ele>445.33333333333337</ele><time>2026-05-02T08:57:59.929Z</time></trkpt><trkpt lat="43.3306461" lon="13.2163295"><ele>441.0</ele><time>2026-05-02T08:58:00.928Z</time></trkpt><trkpt lat="43.3307125" lon="13.2161004"><ele>441.0</ele><time>2026-05-02T08:58:01.928Z</time></trkpt><trkpt lat="43.3307809" lon="13.2158773"><ele>441.0</ele><time>2026-05-02T08:58:02.928Z</time></trkpt><trkpt lat="43.330857" lon="13.2156479"><ele>441.0</ele><time>2026-05-02T08:58:03.928Z</time></trkpt><trkpt lat="43.3309329" lon="13.2154152"><ele>442.33333333333337</ele><time>2026-05-02T08:58:04.928Z</time></trkpt><trkpt lat="43.3310031" lon="13.2151936"><ele>443.6666666666667</ele><time>2026-05-02T08:58:05.928Z</time></trkpt><trkpt lat="43.3310786" lon="13.2149697"><ele>445.0</ele><time>2026-05-02T08:58:06.928Z</time></trkpt><trkpt lat="43.3311449" lon="13.2147521"><ele>446.6666666666667</ele><time>2026-05-02T08:58:07.929Z</time></trkpt><trkpt lat="43.3311969" lon="13.2145289"><ele>448.33333333333337</ele><time>2026-05-02T08:58:08.929Z</time></trkpt><trkpt lat="43.3312378" lon="13.2142897"><ele>450.0</ele><time>2026-05-02T08:58:09.928Z</time></trkpt><trkpt lat="43.3312661" lon="13.2140553"><ele>451.33333333333337</ele><time>2026-05-02T08:58:10.928Z</time></trkpt><trkpt lat="43.3312744" lon="13.2138327"><ele>452.6666666666667</ele><time>2026-05-02T08:58:11.928Z</time></trkpt><trkpt lat="43.3312638" lon="13.2136115"><ele>454.0</ele><time>2026-05-02T08:58:12.928Z</time></trkpt><trkpt lat="43.3312599" lon="13.2133883"><ele>454.0</ele><time>2026-05-02T08:58:13.928Z</time></trkpt><trkpt lat="43.3312549" lon="13.2131642"><ele>454.0</ele><time>2026-05-02T08:58:14.928Z</time></trkpt><trkpt lat="43.3312634" lon="13.2129359"><ele>454.0</ele><time>2026-05-02T08:58:15.928Z</time></trkpt><trkpt lat="43.3313009" lon="13.2127168"><ele>456.0</ele><time>2026-05-02T08:58:16.928Z</time></trkpt><trkpt lat="43.3313566" lon="13.2125106"><ele>458.0</ele><time>2026-05-02T08:58:17.929Z</time></trkpt><trkpt lat="43.3314186" lon="13.2123056"><ele>460.0</ele><time>2026-05-02T08:58:18.928Z</time></trkpt><trkpt lat="43.3314851" lon="13.2120908"><ele>456.0</ele><time>2026-05-02T08:58:19.928Z</time></trkpt><trkpt lat="43.3315591" lon="13.2118843"><ele>452.0</ele><time>2026-05-02T08:58:20.928Z</time></trkpt><trkpt lat="43.3316425" lon="13.2116834"><ele>448.0</ele><time>2026-05-02T08:58:21.928Z</time></trkpt><trkpt lat="43.3317295" lon="13.2114783"><ele>447.0</ele><time>2026-05-02T08:58:22.928Z</time></trkpt><trkpt lat="43.3317996" lon="13.2112692"><ele>446.0</ele><time>2026-05-02T08:58:23.928Z</time></trkpt><trkpt lat="43.3318572" lon="13.2110539"><ele>445.0</ele><time>2026-05-02T08:58:24.928Z</time></trkpt><trkpt lat="43.331895" lon="13.2108261"><ele>445.6666666666667</ele><time>2026-05-02T08:58:25.929Z</time></trkpt><trkpt lat="43.3319355" lon="13.2106052"><ele>446.33333333333337</ele><time>2026-05-02T08:58:26.928Z</time></trkpt><trkpt lat="43.3319775" lon="13.2103997"><ele>447.0</ele><time>2026-05-02T08:58:27.929Z</time></trkpt><trkpt lat="43.3320199" lon="13.2102059"><ele>447.0</ele><time>2026-05-02T08:58:28.928Z</time></trkpt><trkpt lat="43.3320454" lon="13.2100211"><ele>447.0</ele><time>2026-05-02T08:58:29.928Z</time></trkpt><trkpt lat="43.3320496" lon="13.2098309"><ele>447.0</ele><time>2026-05-02T08:58:30.928Z</time></trkpt><trkpt lat="43.332033" lon="13.2096267"><ele>447.0</ele><time>2026-05-02T08:58:31.928Z</time></trkpt><trkpt lat="43.3320139" lon="13.2094088"><ele>448.33333333333337</ele><time>2026-05-02T08:58:32.928Z</time></trkpt><trkpt lat="43.332011" lon="13.2091992"><ele>449.6666666666667</ele><time>2026-05-02T08:58:33.928Z</time></trkpt><trkpt lat="43.3320247" lon="13.2089833"><ele>451.0</ele><time>2026-05-02T08:58:34.929Z</time></trkpt><trkpt lat="43.3320339" lon="13.2087756"><ele>452.0</ele><time>2026-05-02T08:58:35.929Z</time></trkpt><trkpt lat="43.3320132" lon="13.2085631"><ele>453.0</ele><time>2026-05-02T08:58:36.928Z</time></trkpt><trkpt lat="43.3319702" lon="13.2083567"><ele>454.0</ele><time>2026-05-02T08:58:37.928Z</time></trkpt><trkpt lat="43.3319028" lon="13.2081556"><ele>456.33333333333337</ele><time>2026-05-02T08:58:38.928Z</time></trkpt><trkpt lat="43.3318242" lon="13.2079558"><ele>458.66666666666663</ele><time>2026-05-02T08:58:39.928Z</time></trkpt><trkpt lat="43.3317496" lon="13.2077491"><ele>461.0</ele><time>2026-05-02T08:58:40.929Z</time></trkpt><trkpt lat="43.331681" lon="13.2075369"><ele>463.3333333333333</ele><time>2026-05-02T08:58:41.929Z</time></trkpt><trkpt lat="43.3316192" lon="13.2073228"><ele>465.66666666666663</ele><time>2026-05-02T08:58:42.928Z</time></trkpt><trkpt lat="43.3315715" lon="13.2071061"><ele>468.0</ele><time>2026-05-02T08:58:43.928Z</time></trkpt><trkpt lat="43.3315351" lon="13.2068876"><ele>468.0</ele><time>2026-05-02T08:58:44.928Z</time></trkpt><trkpt lat="43.3315073" lon="13.2066611"><ele>468.0</ele><time>2026-05-02T08:58:45.928Z</time></trkpt><trkpt lat="43.3314815" lon="13.2064298"><ele>468.0</ele><time>2026-05-02T08:58:46.928Z</time></trkpt><trkpt lat="43.3314555" lon="13.2061876"><ele>471.0</ele><time>2026-05-02T08:58:47.928Z</time></trkpt><trkpt lat="43.3314241" lon="13.2059471"><ele>474.0</ele><time>2026-05-02T08:58:48.928Z</time></trkpt><trkpt lat="43.3313847" lon="13.205701"><ele>477.0</ele><time>2026-05-02T08:58:49.928Z</time></trkpt><trkpt lat="43.3313352" lon="13.2054508"><ele>472.33333333333337</ele><time>2026-05-02T08:58:50.928Z</time></trkpt><trkpt lat="43.3312751" lon="13.2051909"><ele>467.6666666666667</ele><time>2026-05-02T08:58:51.928Z</time></trkpt><trkpt lat="43.3311973" lon="13.204941"><ele>463.0</ele><time>2026-05-02T08:58:52.928Z</time></trkpt><trkpt lat="43.3311038" lon="13.2047035"><ele>463.0</ele><time>2026-05-02T08:58:53.928Z</time></trkpt><trkpt lat="43.3310002" lon="13.2044774"><ele>463.0</ele><time>2026-05-02T08:58:54.928Z</time></trkpt><trkpt lat="43.3308915" lon="13.2042634"><ele>463.0</ele><time>2026-05-02T08:58:55.929Z</time></trkpt><trkpt lat="43.3307726" lon="13.204069"><ele>460.6666666666667</ele><time>2026-05-02T08:58:56.928Z</time></trkpt><trkpt lat="43.330643" lon="13.2038846"><ele>458.33333333333337</ele><time>2026-05-02T08:58:57.928Z</time></trkpt><trkpt lat="43.3305082" lon="13.2037044"><ele>456.0</ele><time>2026-05-02T08:58:58.928Z</time></trkpt><trkpt lat="43.3303808" lon="13.203522"><ele>456.0</ele><time>2026-05-02T08:58:59.928Z</time></trkpt><trkpt lat="43.3302592" lon="13.2033357"><ele>456.0</ele><time>2026-05-02T08:59:00.928Z</time></trkpt><trkpt lat="43.3301313" lon="13.2031569"><ele>456.0</ele><time>2026-05-02T08:59:01.928Z</time></trkpt><trkpt lat="43.3299908" lon="13.2029857"><ele>456.33333333333337</ele><time>2026-05-02T08:59:02.928Z</time></trkpt><trkpt lat="43.3298495" lon="13.2028237"><ele>456.6666666666667</ele><time>2026-05-02T08:59:03.928Z</time></trkpt><trkpt lat="43.3297125" lon="13.2026625"><ele>457.0</ele><time>2026-05-02T08:59:04.928Z</time></trkpt><trkpt lat="43.329576" lon="13.2024874"><ele>458.6666666666667</ele><time>2026-05-02T08:59:05.928Z</time></trkpt><trkpt lat="43.3294387" lon="13.202316"><ele>460.33333333333337</ele><time>2026-05-02T08:59:06.929Z</time></trkpt><trkpt lat="43.3293074" lon="13.2021439"><ele>462.0</ele><time>2026-05-02T08:59:07.928Z</time></trkpt><trkpt lat="43.3291801" lon="13.201965"><ele>462.0</ele><time>2026-05-02T08:59:08.928Z</time></trkpt><trkpt lat="43.3290611" lon="13.2017796"><ele>462.0</ele><time>2026-05-02T08:59:09.928Z</time></trkpt><trkpt lat="43.328951" lon="13.2015908"><ele>462.0</ele><time>2026-05-02T08:59:10.928Z</time></trkpt><trkpt lat="43.3288525" lon="13.2013994"><ele>462.33333333333337</ele><time>2026-05-02T08:59:11.928Z</time></trkpt><trkpt lat="43.3287571" lon="13.2012077"><ele>462.6666666666667</ele><time>2026-05-02T08:59:12.928Z</time></trkpt><trkpt lat="43.3286574" lon="13.2010311"><ele>463.0</ele><time>2026-05-02T08:59:13.928Z</time></trkpt><trkpt lat="43.3285601" lon="13.2008568"><ele>463.0</ele><time>2026-05-02T08:59:14.929Z</time></trkpt><trkpt lat="43.3284598" lon="13.2006935"><ele>463.0</ele><time>2026-05-02T08:59:15.929Z</time></trkpt><trkpt lat="43.3283508" lon="13.2005367"><ele>463.0</ele><time>2026-05-02T08:59:16.929Z</time></trkpt><trkpt lat="43.3282334" lon="13.2003821"><ele>464.0</ele><time>2026-05-02T08:59:17.928Z</time></trkpt><trkpt lat="43.3281149" lon="13.2002215"><ele>465.0</ele><time>2026-05-02T08:59:18.928Z</time></trkpt><trkpt lat="43.3279949" lon="13.2000728"><ele>466.0</ele><time>2026-05-02T08:59:19.928Z</time></trkpt><trkpt lat="43.3278849" lon="13.1999407"><ele>466.20000000000005</ele><time>2026-05-02T08:59:20.928Z</time></trkpt><trkpt lat="43.3277938" lon="13.1998209"><ele>466.40000000000003</ele><time>2026-05-02T08:59:21.929Z</time></trkpt><trkpt lat="43.3277175" lon="13.1997085"><ele>466.6</ele><time>2026-05-02T08:59:22.928Z</time></trkpt><trkpt lat="43.3276597" lon="13.1995944"><ele>466.8</ele><time>2026-05-02T08:59:23.929Z</time></trkpt><trkpt lat="43.3276078" lon="13.1994775"><ele>467.0</ele><time>2026-05-02T08:59:24.928Z</time></trkpt><trkpt lat="43.3275583" lon="13.1993556"><ele>467.0</ele><time>2026-05-02T08:59:25.928Z</time></trkpt><trkpt lat="43.3275049" lon="13.1992249"><ele>467.00000000000006</ele><time>2026-05-02T08:59:26.928Z</time></trkpt><trkpt lat="43.3274425" lon="13.1990877"><ele>467.00000000000006</ele><time>2026-05-02T08:59:27.928Z</time></trkpt><trkpt lat="43.3273822" lon="13.1989595"><ele>467.0</ele><time>2026-05-02T08:59:28.928Z</time></trkpt><trkpt lat="43.3273293" lon="13.1988602"><ele>467.0</ele><time>2026-05-02T08:59:29.928Z</time></trkpt><trkpt lat="43.3272874" lon="13.1987923"><ele>466.99999999999994</ele><time>2026-05-02T08:59:30.928Z</time></trkpt><trkpt lat="43.3272412" lon="13.1987273"><ele>467.0</ele><time>2026-05-02T08:59:32.928Z</time></trkpt><trkpt lat="43.3272139" lon="13.198646"><ele>467.0</ele><time>2026-05-02T08:59:47.929Z</time></trkpt><trkpt lat="43.3272283" lon="13.198735"><ele>467.0</ele><time>2026-05-02T09:00:12.928Z</time></trkpt><trkpt lat="43.3272867" lon="13.1988333"><ele>466.99999999999994</ele><time>2026-05-02T09:00:14.928Z</time></trkpt><trkpt lat="43.3273333" lon="13.1989233"><ele>467.0</ele><time>2026-05-02T09:00:16.928Z</time></trkpt><trkpt lat="43.32738" lon="13.1990233"><ele>466.99999999999994</ele><time>2026-05-02T09:00:18.928Z</time></trkpt><trkpt lat="43.3274333" lon="13.1991333"><ele>467.0</ele><time>2026-05-02T09:00:20.928Z</time></trkpt><trkpt lat="43.3274733" lon="13.1992217"><ele>467.0</ele><time>2026-05-02T09:00:22.928Z</time></trkpt><trkpt lat="43.327525" lon="13.1993183"><ele>467.0</ele><time>2026-05-02T09:00:25.928Z</time></trkpt><trkpt lat="43.3275867" lon="13.1992417"><ele>466.99999999999994</ele><time>2026-05-02T09:00:32.928Z</time></trkpt><trkpt lat="43.3275933" lon="13.1991417"><ele>467.0</ele><time>2026-05-02T09:00:34.928Z</time></trkpt><trkpt lat="43.3275817" lon="13.1990067"><ele>468.8333333333333</ele><time>2026-05-02T09:00:36.928Z</time></trkpt><trkpt lat="43.3275583" lon="13.198915"><ele>470.66666666666663</ele><time>2026-05-02T09:00:37.928Z</time></trkpt><trkpt lat="43.3275283" lon="13.1988267"><ele>472.5</ele><time>2026-05-02T09:00:38.928Z</time></trkpt><trkpt lat="43.32749" lon="13.198755"><ele>474.33333333333337</ele><time>2026-05-02T09:00:39.928Z</time></trkpt><trkpt lat="43.327445" lon="13.19862"><ele>476.1666666666667</ele><time>2026-05-02T09:00:41.928Z</time></trkpt><trkpt lat="43.3274583" lon="13.1984717"><ele>478.0</ele><time>2026-05-02T09:00:43.928Z</time></trkpt><trkpt lat="43.3274867" lon="13.1983767"><ele>478.00000000000006</ele><time>2026-05-02T09:00:44.928Z</time></trkpt><trkpt lat="43.3275233" lon="13.1982783"><ele>478.0</ele><time>2026-05-02T09:00:45.929Z</time></trkpt><trkpt lat="43.3275683" lon="13.19818"><ele>478.0</ele><time>2026-05-02T09:00:46.928Z</time></trkpt><trkpt lat="43.327615" lon="13.198105"><ele>478.0</ele><time>2026-05-02T09:00:47.928Z</time></trkpt><trkpt lat="43.32773" lon="13.198025"><ele>478.00000000000006</ele><time>2026-05-02T09:00:49.928Z</time></trkpt><trkpt lat="43.3277983" lon="13.198005"><ele>478.0</ele><time>2026-05-02T09:00:50.928Z</time></trkpt><trkpt lat="43.3278733" lon="13.1979867"><ele>481.00000000000006</ele><time>2026-05-02T09:00:51.928Z</time></trkpt><trkpt lat="43.3279533" lon="13.197965"><ele>484.0</ele><time>2026-05-02T09:00:52.928Z</time></trkpt><trkpt lat="43.3280367" lon="13.19795"><ele>487.0</ele><time>2026-05-02T09:00:53.928Z</time></trkpt><trkpt lat="43.3281133" lon="13.1979367"><ele>490.0</ele><time>2026-05-02T09:00:54.928Z</time></trkpt><trkpt lat="43.3281867" lon="13.197915"><ele>493.00000000000006</ele><time>2026-05-02T09:00:55.928Z</time></trkpt><trkpt lat="43.3282483" lon="13.1978867"><ele>496.0</ele><time>2026-05-02T09:00:56.928Z</time></trkpt><trkpt lat="43.3283133" lon="13.197825"><ele>498.1666666666667</ele><time>2026-05-02T09:00:57.928Z</time></trkpt><trkpt lat="43.3283633" lon="13.1977467"><ele>500.33333333333337</ele><time>2026-05-02T09:00:58.928Z</time></trkpt><trkpt lat="43.3284067" lon="13.1976583"><ele>502.5</ele><time>2026-05-02T09:00:59.928Z</time></trkpt><trkpt lat="43.3284617" lon="13.1975217"><ele>504.66666666666663</ele><time>2026-05-02T09:01:01.928Z</time></trkpt><trkpt lat="43.3285356" lon="13.1974884"><ele>506.8333333333333</ele><time>2026-05-02T09:01:32.929Z</time></trkpt><trkpt lat="43.3285925" lon="13.1974122"><ele>509.0</ele><time>2026-05-02T09:01:35.928Z</time></trkpt><trkpt lat="43.3286322" lon="13.1972657"><ele>510.3333333333333</ele><time>2026-05-02T09:01:37.928Z</time></trkpt><trkpt lat="43.328661" lon="13.1971677"><ele>511.66666666666663</ele><time>2026-05-02T09:01:38.928Z</time></trkpt><trkpt lat="43.3287057" lon="13.1970759"><ele>513.0</ele><time>2026-05-02T09:01:39.929Z</time></trkpt><trkpt lat="43.3287579" lon="13.1969978"><ele>514.3333333333334</ele><time>2026-05-02T09:01:40.928Z</time></trkpt><trkpt lat="43.3288177" lon="13.1969339"><ele>515.6666666666667</ele><time>2026-05-02T09:01:41.928Z</time></trkpt><trkpt lat="43.3288768" lon="13.1968754"><ele>517.0</ele><time>2026-05-02T09:01:42.928Z</time></trkpt><trkpt lat="43.3289609" lon="13.196794"><ele>517.0</ele><time>2026-05-02T09:01:44.928Z</time></trkpt><trkpt lat="43.3290305" lon="13.196702"><ele>517.0</ele><time>2026-05-02T09:01:46.928Z</time></trkpt><trkpt lat="43.3290971" lon="13.1965857"><ele>517.0</ele><time>2026-05-02T09:01:48.928Z</time></trkpt><trkpt lat="43.3291561" lon="13.1964596"><ele>517.0</ele><time>2026-05-02T09:01:50.928Z</time></trkpt><trkpt lat="43.329227" lon="13.196324"><ele>517.0</ele><time>2026-05-02T09:01:52.929Z</time></trkpt><trkpt lat="43.329271" lon="13.1962507"><ele>518.8333333333334</ele><time>2026-05-02T09:01:53.928Z</time></trkpt><trkpt lat="43.3293176" lon="13.1961693"><ele>520.6666666666667</ele><time>2026-05-02T09:01:54.929Z</time></trkpt><trkpt lat="43.329367" lon="13.1960893"><ele>522.5</ele><time>2026-05-02T09:01:55.928Z</time></trkpt><trkpt lat="43.3294064" lon="13.1960077"><ele>524.3333333333334</ele><time>2026-05-02T09:01:56.928Z</time></trkpt><trkpt lat="43.3294594" lon="13.1958762"><ele>526.1666666666666</ele><time>2026-05-02T09:01:58.928Z</time></trkpt><trkpt lat="43.3295319" lon="13.1957729"><ele>528.0</ele><time>2026-05-02T09:02:00.928Z</time></trkpt><trkpt lat="43.3295897" lon="13.1956916"><ele>529.3333333333334</ele><time>2026-05-02T09:02:02.928Z</time></trkpt><trkpt lat="43.3296107" lon="13.1956039"><ele>530.6666666666666</ele><time>2026-05-02T09:02:04.928Z</time></trkpt><trkpt lat="43.3296059" lon="13.1954645"><ele>532.0</ele><time>2026-05-02T09:02:06.928Z</time></trkpt><trkpt lat="43.3296074" lon="13.1953435"><ele>533.3333333333333</ele><time>2026-05-02T09:02:08.928Z</time></trkpt><trkpt lat="43.32957" lon="13.1952572"><ele>534.6666666666666</ele><time>2026-05-02T09:02:10.928Z</time></trkpt><trkpt lat="43.3295415" lon="13.1951723"><ele>536.0</ele><time>2026-05-02T09:02:12.929Z</time></trkpt><trkpt lat="43.32955" lon="13.19507"><ele>536.0</ele><time>2026-05-02T09:02:25.928Z</time></trkpt><trkpt lat="43.3295867" lon="13.1949767"><ele>536.0</ele><time>2026-05-02T09:02:41.927Z</time></trkpt><trkpt lat="43.329645" lon="13.1949383"><ele>536.0</ele><time>2026-05-02T09:02:45.927Z</time></trkpt><trkpt lat="43.3296933" lon="13.1950133"><ele>536.0</ele><time>2026-05-02T09:03:00.927Z</time></trkpt><trkpt lat="43.3296267" lon="13.195115"><ele>536.0</ele><time>2026-05-02T09:03:03.927Z</time></trkpt><trkpt lat="43.3295633" lon="13.1951633"><ele>536.0</ele><time>2026-05-02T09:03:05.927Z</time></trkpt><trkpt lat="43.3295317" lon="13.1952583"><ele>536.0</ele><time>2026-05-02T09:03:17.928Z</time></trkpt><trkpt lat="43.3294433" lon="13.1952917"><ele>536.0</ele><time>2026-05-02T09:03:20.928Z</time></trkpt><trkpt lat="43.329375" lon="13.195295"><ele>536.0</ele><time>2026-05-02T09:03:23.927Z</time></trkpt><trkpt lat="43.329395" lon="13.1951733"><ele>536.0</ele><time>2026-05-02T09:03:56.928Z</time></trkpt><trkpt lat="43.329395" lon="13.1950767"><ele>536.0</ele><time>2026-05-02T09:03:57.928Z</time></trkpt><trkpt lat="43.329385" lon="13.1949733"><ele>536.0</ele><time>2026-05-02T09:03:58.927Z</time></trkpt><trkpt lat="43.3293817" lon="13.1948767"><ele>537.0</ele><time>2026-05-02T09:03:59.927Z</time></trkpt><trkpt lat="43.3293817" lon="13.19477"><ele>538.0</ele><time>2026-05-02T09:04:00.927Z</time></trkpt><trkpt lat="43.32937" lon="13.19467"><ele>539.0</ele><time>2026-05-02T09:04:01.927Z</time></trkpt><trkpt lat="43.3293417" lon="13.1945317"><ele>540.0</ele><time>2026-05-02T09:04:03.927Z</time></trkpt><trkpt lat="43.3292867" lon="13.1944567"><ele>541.0</ele><time>2026-05-02T09:04:06.928Z</time></trkpt><trkpt lat="43.3292567" lon="13.1943733"><ele>542.0</ele><time>2026-05-02T09:04:08.927Z</time></trkpt><trkpt lat="43.3292433" lon="13.1942833"><ele>542.0</ele><time>2026-05-02T09:04:10.927Z</time></trkpt><trkpt lat="43.3292217" lon="13.1941733"><ele>542.0</ele><time>2026-05-02T09:04:12.927Z</time></trkpt><trkpt lat="43.3291767" lon="13.1940617"><ele>542.0</ele><time>2026-05-02T09:04:14.927Z</time></trkpt><trkpt lat="43.3291583" lon="13.1939667"><ele>542.0</ele><time>2026-05-02T09:04:16.927Z</time></trkpt><trkpt lat="43.3292033" lon="13.19388"><ele>542.0</ele><time>2026-05-02T09:04:19.927Z</time></trkpt><trkpt lat="43.3293117" lon="13.193855"><ele>542.0</ele><time>2026-05-02T09:04:21.927Z</time></trkpt><trkpt lat="43.3293883" lon="13.193845"><ele>542.0</ele><time>2026-05-02T09:04:22.927Z</time></trkpt><trkpt lat="43.329475" lon="13.19382"><ele>542.0</ele><time>2026-05-02T09:04:23.927Z</time></trkpt><trkpt lat="43.329565" lon="13.1937867"><ele>542.0</ele><time>2026-05-02T09:04:24.928Z</time></trkpt><trkpt lat="43.32966" lon="13.193725"><ele>542.0</ele><time>2026-05-02T09:04:25.927Z</time></trkpt><trkpt lat="43.3297483" lon="13.19364"><ele>542.0</ele><time>2026-05-02T09:04:26.927Z</time></trkpt><trkpt lat="43.32982" lon="13.1935283"><ele>542.0</ele><time>2026-05-02T09:04:27.927Z</time></trkpt><trkpt lat="43.32988" lon="13.1934017"><ele>542.0</ele><time>2026-05-02T09:04:28.927Z</time></trkpt><trkpt lat="43.3299333" lon="13.1932667"><ele>542.0</ele><time>2026-05-02T09:04:29.928Z</time></trkpt><trkpt lat="43.329975" lon="13.1931267"><ele>542.0</ele><time>2026-05-02T09:04:30.927Z</time></trkpt><trkpt lat="43.330015" lon="13.1929817"><ele>542.0</ele><time>2026-05-02T09:04:31.927Z</time></trkpt><trkpt lat="43.330065" lon="13.192845"><ele>543.25</ele><time>2026-05-02T09:04:32.927Z</time></trkpt><trkpt lat="43.3301233" lon="13.1927167"><ele>544.5</ele><time>2026-05-02T09:04:33.928Z</time></trkpt><trkpt lat="43.33021" lon="13.19261"><ele>545.75</ele><time>2026-05-02T09:04:34.927Z</time></trkpt><trkpt lat="43.330305" lon="13.192515"><ele>547.0</ele><time>2026-05-02T09:04:35.927Z</time></trkpt><trkpt lat="43.3304033" lon="13.19245"><ele>547.0</ele><time>2026-05-02T09:04:36.927Z</time></trkpt><trkpt lat="43.330515" lon="13.1924083"><ele>547.0</ele><time>2026-05-02T09:04:37.927Z</time></trkpt><trkpt lat="43.3306283" lon="13.1923967"><ele>547.0</ele><time>2026-05-02T09:04:38.927Z</time></trkpt><trkpt lat="43.3307483" lon="13.1924117"><ele>547.0</ele><time>2026-05-02T09:04:39.927Z</time></trkpt><trkpt lat="43.3308667" lon="13.1924517"><ele>545.0</ele><time>2026-05-02T09:04:40.927Z</time></trkpt><trkpt lat="43.3309933" lon="13.1925017"><ele>543.0</ele><time>2026-05-02T09:04:41.927Z</time></trkpt><trkpt lat="43.331115" lon="13.1925617"><ele>541.0</ele><time>2026-05-02T09:04:42.927Z</time></trkpt><trkpt lat="43.3312433" lon="13.1926183"><ele>539.0</ele><time>2026-05-02T09:04:43.927Z</time></trkpt><trkpt lat="43.331375" lon="13.1926867"><ele>538.0</ele><time>2026-05-02T09:04:44.927Z</time></trkpt><trkpt lat="43.331515" lon="13.1927483"><ele>537.0</ele><time>2026-05-02T09:04:45.928Z</time></trkpt><trkpt lat="43.3316617" lon="13.192815"><ele>536.0</ele><time>2026-05-02T09:04:46.927Z</time></trkpt><trkpt lat="43.3318117" lon="13.1928783"><ele>536.0</ele><time>2026-05-02T09:04:47.927Z</time></trkpt><trkpt lat="43.3319583" lon="13.19294"><ele>536.0</ele><time>2026-05-02T09:04:48.927Z</time></trkpt><trkpt lat="43.3320967" lon="13.1930033"><ele>536.0</ele><time>2026-05-02T09:04:49.928Z</time></trkpt><trkpt lat="43.3322233" lon="13.193055"><ele>536.0</ele><time>2026-05-02T09:04:50.927Z</time></trkpt><trkpt lat="43.332335" lon="13.193105"><ele>535.8</ele><time>2026-05-02T09:04:51.927Z</time></trkpt><trkpt lat="43.332445" lon="13.1931483"><ele>535.6</ele><time>2026-05-02T09:04:52.927Z</time></trkpt><trkpt lat="43.3325483" lon="13.1931967"><ele>535.4</ele><time>2026-05-02T09:04:53.927Z</time></trkpt><trkpt lat="43.3326467" lon="13.19324"><ele>535.2</ele><time>2026-05-02T09:04:54.927Z</time></trkpt><trkpt lat="43.3327483" lon="13.19328"><ele>535.0</ele><time>2026-05-02T09:04:55.927Z</time></trkpt><trkpt lat="43.3328617" lon="13.1933133"><ele>536.75</ele><time>2026-05-02T09:04:56.927Z</time></trkpt><trkpt lat="43.3329783" lon="13.193335"><ele>538.5</ele><time>2026-05-02T09:04:57.927Z</time></trkpt><trkpt lat="43.3331033" lon="13.1933383"><ele>540.25</ele><time>2026-05-02T09:04:58.927Z</time></trkpt><trkpt lat="43.333235" lon="13.193335"><ele>542.0</ele><time>2026-05-02T09:04:59.928Z</time></trkpt><trkpt lat="43.3333667" lon="13.1933167"><ele>543.0</ele><time>2026-05-02T09:05:00.927Z</time></trkpt><trkpt lat="43.3335133" lon="13.1932817"><ele>544.0</ele><time>2026-05-02T09:05:01.928Z</time></trkpt><trkpt lat="43.3336783" lon="13.19325"><ele>545.0</ele><time>2026-05-02T09:05:02.927Z</time></trkpt><trkpt lat="43.3338517" lon="13.19321"><ele>545.6666666666666</ele><time>2026-05-02T09:05:03.928Z</time></trkpt><trkpt lat="43.334025" lon="13.1931733"><ele>546.3333333333334</ele><time>2026-05-02T09:05:04.927Z</time></trkpt><trkpt lat="43.3341983" lon="13.1931267"><ele>547.0</ele><time>2026-05-02T09:05:05.927Z</time></trkpt><trkpt lat="43.3343783" lon="13.1930783"><ele>548.3333333333334</ele><time>2026-05-02T09:05:06.927Z</time></trkpt><trkpt lat="43.334565" lon="13.193035"><ele>549.6666666666666</ele><time>2026-05-02T09:05:07.927Z</time></trkpt><trkpt lat="43.3347467" lon="13.193"><ele>551.0</ele><time>2026-05-02T09:05:08.927Z</time></trkpt><trkpt lat="43.3349283" lon="13.1929567"><ele>552.3333333333333</ele><time>2026-05-02T09:05:09.927Z</time></trkpt><trkpt lat="43.3351117" lon="13.19293"><ele>553.6666666666666</ele><time>2026-05-02T09:05:10.927Z</time></trkpt><trkpt lat="43.3352833" lon="13.1929383"><ele>555.0</ele><time>2026-05-02T09:05:11.927Z</time></trkpt><trkpt lat="43.335455" lon="13.1929883"><ele>554.6666666666666</ele><time>2026-05-02T09:05:12.927Z</time></trkpt><trkpt lat="43.3356217" lon="13.1930633"><ele>554.3333333333333</ele><time>2026-05-02T09:05:13.927Z</time></trkpt><trkpt lat="43.3357867" lon="13.1931433"><ele>554.0</ele><time>2026-05-02T09:05:14.927Z</time></trkpt><trkpt lat="43.3359467" lon="13.1932367"><ele>554.0</ele><time>2026-05-02T09:05:15.928Z</time></trkpt><trkpt lat="43.3360983" lon="13.1933417"><ele>554.0</ele><time>2026-05-02T09:05:16.927Z</time></trkpt><trkpt lat="43.3362483" lon="13.19345"><ele>554.0</ele><time>2026-05-02T09:05:17.927Z</time></trkpt><trkpt lat="43.3363767" lon="13.1935717"><ele>556.5</ele><time>2026-05-02T09:05:18.927Z</time></trkpt><trkpt lat="43.3364967" lon="13.1936933"><ele>559.0</ele><time>2026-05-02T09:05:19.927Z</time></trkpt><trkpt lat="43.3366317" lon="13.1937883"><ele>561.5</ele><time>2026-05-02T09:05:20.927Z</time></trkpt><trkpt lat="43.33677" lon="13.19386"><ele>564.0</ele><time>2026-05-02T09:05:21.927Z</time></trkpt><trkpt lat="43.3369117" lon="13.19389"><ele>564.0</ele><time>2026-05-02T09:05:22.927Z</time></trkpt><trkpt lat="43.3370483" lon="13.1938767"><ele>564.0</ele><time>2026-05-02T09:05:23.927Z</time></trkpt><trkpt lat="43.3371867" lon="13.1938067"><ele>564.0</ele><time>2026-05-02T09:05:24.927Z</time></trkpt><trkpt lat="43.3373217" lon="13.193715"><ele>564.0</ele><time>2026-05-02T09:05:25.927Z</time></trkpt><trkpt lat="43.337455" lon="13.19362"><ele>565.0</ele><time>2026-05-02T09:05:26.927Z</time></trkpt><trkpt lat="43.33759" lon="13.19357"><ele>566.0</ele><time>2026-05-02T09:05:27.927Z</time></trkpt><trkpt lat="43.3377317" lon="13.1935633"><ele>567.0</ele><time>2026-05-02T09:05:28.927Z</time></trkpt><trkpt lat="43.33787" lon="13.1935883"><ele>568.0</ele><time>2026-05-02T09:05:29.927Z</time></trkpt><trkpt lat="43.3380117" lon="13.1936217"><ele>567.5</ele><time>2026-05-02T09:05:30.927Z</time></trkpt><trkpt lat="43.33815" lon="13.1936217"><ele>567.0</ele><time>2026-05-02T09:05:31.928Z</time></trkpt><trkpt lat="43.3382917" lon="13.1936133"><ele>566.5</ele><time>2026-05-02T09:05:32.927Z</time></trkpt><trkpt lat="43.3384283" lon="13.1936017"><ele>566.0</ele><time>2026-05-02T09:05:33.927Z</time></trkpt><trkpt lat="43.3385667" lon="13.1936033"><ele>566.0</ele><time>2026-05-02T09:05:34.928Z</time></trkpt><trkpt lat="43.338695" lon="13.1936383"><ele>566.0</ele><time>2026-05-02T09:05:35.927Z</time></trkpt><trkpt lat="43.3388083" lon="13.19367"><ele>566.0</ele><time>2026-05-02T09:05:36.927Z</time></trkpt><trkpt lat="43.3389064" lon="13.1936926"><ele>566.0</ele><time>2026-05-02T09:05:37.927Z</time></trkpt><trkpt lat="43.3389901" lon="13.1937127"><ele>566.0</ele><time>2026-05-02T09:05:38.927Z</time></trkpt><trkpt lat="43.339052" lon="13.1937362"><ele>566.3333333333333</ele><time>2026-05-02T09:05:39.927Z</time></trkpt><trkpt lat="43.3391173" lon="13.1937873"><ele>566.6666666666666</ele><time>2026-05-02T09:05:41.927Z</time></trkpt><trkpt lat="43.3391381" lon="13.1938859"><ele>567.0</ele><time>2026-05-02T09:05:43.927Z</time></trkpt><trkpt lat="43.3391673" lon="13.1940302"><ele>567.3333333333334</ele><time>2026-05-02T09:05:45.927Z</time></trkpt><trkpt lat="43.3391829" lon="13.1941253"><ele>567.6666666666667</ele><time>2026-05-02T09:05:46.927Z</time></trkpt><trkpt lat="43.3391995" lon="13.194227"><ele>568.0</ele><time>2026-05-02T09:05:47.927Z</time></trkpt><trkpt lat="43.3392189" lon="13.1943294"><ele>569.8</ele><time>2026-05-02T09:05:48.927Z</time></trkpt><trkpt lat="43.3392441" lon="13.1944335"><ele>571.5999999999999</ele><time>2026-05-02T09:05:49.927Z</time></trkpt><trkpt lat="43.3392702" lon="13.194524"><ele>573.4000000000001</ele><time>2026-05-02T09:05:50.927Z</time></trkpt><trkpt lat="43.3393238" lon="13.194661"><ele>575.2</ele><time>2026-05-02T09:05:52.927Z</time></trkpt><trkpt lat="43.3394041" lon="13.1947065"><ele>577.0</ele><time>2026-05-02T09:05:54.927Z</time></trkpt><trkpt lat="43.3395528" lon="13.1946973"><ele>577.0</ele><time>2026-05-02T09:05:56.927Z</time></trkpt><trkpt lat="43.3396499" lon="13.1947033"><ele>577.0</ele><time>2026-05-02T09:05:57.927Z</time></trkpt><trkpt lat="43.339751" lon="13.1947517"><ele>577.0</ele><time>2026-05-02T09:05:58.928Z</time></trkpt><trkpt lat="43.3398628" lon="13.1948102"><ele>577.0</ele><time>2026-05-02T09:05:59.927Z</time></trkpt><trkpt lat="43.3399697" lon="13.1948638"><ele>577.0</ele><time>2026-05-02T09:06:00.928Z</time></trkpt><trkpt lat="43.3400497" lon="13.1949163"><ele>581.6666666666667</ele><time>2026-05-02T09:06:01.928Z</time></trkpt><trkpt lat="43.3401011" lon="13.1949752"><ele>586.3333333333334</ele><time>2026-05-02T09:06:02.927Z</time></trkpt><trkpt lat="43.3401429" lon="13.1951369"><ele>591.0</ele><time>2026-05-02T09:06:04.927Z</time></trkpt><trkpt lat="43.3401547" lon="13.1952334"><ele>595.6666666666666</ele><time>2026-05-02T09:06:06.927Z</time></trkpt><trkpt lat="43.3402217" lon="13.1953283"><ele>600.3333333333333</ele><time>2026-05-02T09:06:35.927Z</time></trkpt><trkpt lat="43.3402733" lon="13.1953867"><ele>605.0</ele><time>2026-05-02T09:06:37.927Z</time></trkpt><trkpt lat="43.3403333" lon="13.19542"><ele>605.0</ele><time>2026-05-02T09:06:39.927Z</time></trkpt><trkpt lat="43.3403767" lon="13.1954883"><ele>605.0</ele><time>2026-05-02T09:06:41.927Z</time></trkpt><trkpt lat="43.3404517" lon="13.19557"><ele>605.0</ele><time>2026-05-02T09:06:44.927Z</time></trkpt><trkpt lat="43.3405033" lon="13.1956833"><ele>605.0</ele><time>2026-05-02T09:06:46.927Z</time></trkpt><trkpt lat="43.3405417" lon="13.1957683"><ele>605.0</ele><time>2026-05-02T09:06:47.928Z</time></trkpt><trkpt lat="43.340585" lon="13.19587"><ele>605.0</ele><time>2026-05-02T09:06:48.927Z</time></trkpt><trkpt lat="43.34062" lon="13.195985"><ele>609.5</ele><time>2026-05-02T09:06:49.927Z</time></trkpt><trkpt lat="43.34065" lon="13.1961083"><ele>614.0</ele><time>2026-05-02T09:06:50.927Z</time></trkpt><trkpt lat="43.3406717" lon="13.196235"><ele>618.5</ele><time>2026-05-02T09:06:51.927Z</time></trkpt><trkpt lat="43.3407" lon="13.1963533"><ele>623.0</ele><time>2026-05-02T09:06:52.927Z</time></trkpt><trkpt lat="43.3407183" lon="13.1964617"><ele>627.5</ele><time>2026-05-02T09:06:53.927Z</time></trkpt><trkpt lat="43.3407283" lon="13.196555"><ele>632.0</ele><time>2026-05-02T09:06:54.926Z</time></trkpt><trkpt lat="43.3407133" lon="13.196645"><ele>634.5</ele><time>2026-05-02T09:06:55.927Z</time></trkpt><trkpt lat="43.3406917" lon="13.19674"><ele>637.0</ele><time>2026-05-02T09:06:56.926Z</time></trkpt><trkpt lat="43.340675" lon="13.1968267"><ele>639.5</ele><time>2026-05-02T09:06:57.927Z</time></trkpt><trkpt lat="43.3406583" lon="13.1969183"><ele>642.0</ele><time>2026-05-02T09:06:58.926Z</time></trkpt><trkpt lat="43.3406117" lon="13.1970567"><ele>644.5</ele><time>2026-05-02T09:07:00.926Z</time></trkpt><trkpt lat="43.3405183" lon="13.1971083"><ele>647.0</ele><time>2026-05-02T09:07:02.926Z</time></trkpt><trkpt lat="43.340425" lon="13.19705"><ele>647.0</ele><time>2026-05-02T09:07:04.927Z</time></trkpt><trkpt lat="43.34033" lon="13.1970267"><ele>647.0</ele><time>2026-05-02T09:07:06.926Z</time></trkpt><trkpt lat="43.34024" lon="13.197065"><ele>647.0</ele><time>2026-05-02T09:07:08.926Z</time></trkpt><trkpt lat="43.3401833" lon="13.197135"><ele>647.0</ele><time>2026-05-02T09:07:10.926Z</time></trkpt><trkpt lat="43.3401333" lon="13.19726"><ele>647.0</ele><time>2026-05-02T09:07:12.926Z</time></trkpt><trkpt lat="43.3401117" lon="13.1974017"><ele>650.8</ele><time>2026-05-02T09:07:14.926Z</time></trkpt><trkpt lat="43.3401017" lon="13.1975633"><ele>654.6</ele><time>2026-05-02T09:07:16.926Z</time></trkpt><trkpt lat="43.3401017" lon="13.1976533"><ele>658.4</ele><time>2026-05-02T09:07:17.926Z</time></trkpt><trkpt lat="43.3401417" lon="13.1977883"><ele>662.1999999999999</ele><time>2026-05-02T09:07:19.926Z</time></trkpt><trkpt lat="43.3401933" lon="13.197885"><ele>666.0</ele><time>2026-05-02T09:07:21.926Z</time></trkpt><trkpt lat="43.340205" lon="13.198015"><ele>666.0</ele><time>2026-05-02T09:07:23.927Z</time></trkpt><trkpt lat="43.3401983" lon="13.1981567"><ele>666.0</ele><time>2026-05-02T09:07:25.926Z</time></trkpt><trkpt lat="43.340185" lon="13.1982417"><ele>666.0</ele><time>2026-05-02T09:07:26.926Z</time></trkpt><trkpt lat="43.3401717" lon="13.1983267"><ele>666.0</ele><time>2026-05-02T09:07:27.926Z</time></trkpt><trkpt lat="43.3401717" lon="13.1984233"><ele>666.0</ele><time>2026-05-02T09:07:28.926Z</time></trkpt><trkpt lat="43.3401767" lon="13.198525"><ele>666.0</ele><time>2026-05-02T09:07:29.926Z</time></trkpt><trkpt lat="43.3401867" lon="13.1986467"><ele>668.5</ele><time>2026-05-02T09:07:30.926Z</time></trkpt><trkpt lat="43.3402017" lon="13.1987633"><ele>671.0</ele><time>2026-05-02T09:07:31.926Z</time></trkpt><trkpt lat="43.3402133" lon="13.198875"><ele>673.5</ele><time>2026-05-02T09:07:32.926Z</time></trkpt><trkpt lat="43.340225" lon="13.19897"><ele>676.0</ele><time>2026-05-02T09:07:33.926Z</time></trkpt><trkpt lat="43.3402367" lon="13.1990583"><ele>678.5</ele><time>2026-05-02T09:07:34.926Z</time></trkpt><trkpt lat="43.34024" lon="13.1991483"><ele>681.0</ele><time>2026-05-02T09:07:35.926Z</time></trkpt><trkpt lat="43.3402267" lon="13.1992783"><ele>683.4</ele><time>2026-05-02T09:07:37.926Z</time></trkpt><trkpt lat="43.340175" lon="13.1993833"><ele>685.8</ele><time>2026-05-02T09:09:32.927Z</time></trkpt><trkpt lat="43.340085" lon="13.1994717"><ele>688.1999999999999</ele><time>2026-05-02T09:09:34.926Z</time></trkpt><trkpt lat="43.3400117" lon="13.1995417"><ele>690.5999999999999</ele><time>2026-05-02T09:09:36.926Z</time></trkpt><trkpt lat="43.3399583" lon="13.199615"><ele>693.0</ele><time>2026-05-02T09:09:38.926Z</time></trkpt><trkpt lat="43.33987" lon="13.19975"><ele>693.0</ele><time>2026-05-02T09:09:40.926Z</time></trkpt><trkpt lat="43.33983" lon="13.19983"><ele>693.0</ele><time>2026-05-02T09:09:41.926Z</time></trkpt><trkpt lat="43.339795" lon="13.1999167"><ele>693.0</ele><time>2026-05-02T09:09:42.926Z</time></trkpt><trkpt lat="43.3397733" lon="13.2"><ele>693.0</ele><time>2026-05-02T09:09:43.926Z</time></trkpt><trkpt lat="43.339755" lon="13.200145"><ele>693.0</ele><time>2026-05-02T09:09:45.926Z</time></trkpt><trkpt lat="43.3397583" lon="13.200315"><ele>693.0</ele><time>2026-05-02T09:09:47.926Z</time></trkpt><trkpt lat="43.3397467" lon="13.2004033"><ele>692.5999999999999</ele><time>2026-05-02T09:09:48.927Z</time></trkpt><trkpt lat="43.3396817" lon="13.2005433"><ele>692.1999999999999</ele><time>2026-05-02T09:09:50.926Z</time></trkpt><trkpt lat="43.3396267" lon="13.2006133"><ele>691.8</ele><time>2026-05-02T09:09:51.926Z</time></trkpt><trkpt lat="43.3395583" lon="13.2006883"><ele>691.4</ele><time>2026-05-02T09:09:52.926Z</time></trkpt><trkpt lat="43.3394867" lon="13.200755"><ele>691.0</ele><time>2026-05-02T09:09:53.926Z</time></trkpt><trkpt lat="43.3394017" lon="13.20083"><ele>691.8333333333334</ele><time>2026-05-02T09:09:54.926Z</time></trkpt><trkpt lat="43.3393183" lon="13.2009083"><ele>692.6666666666667</ele><time>2026-05-02T09:09:55.927Z</time></trkpt><trkpt lat="43.33924" lon="13.200965"><ele>693.5</ele><time>2026-05-02T09:09:56.926Z</time></trkpt><trkpt lat="43.3391633" lon="13.20102"><ele>694.3333333333334</ele><time>2026-05-02T09:09:57.926Z</time></trkpt><trkpt lat="43.3391" lon="13.201075"><ele>695.1666666666666</ele><time>2026-05-02T09:09:58.926Z</time></trkpt><trkpt lat="43.3390233" lon="13.2011483"><ele>696.0</ele><time>2026-05-02T09:10:00.926Z</time></trkpt><trkpt lat="43.3389633" lon="13.2012033"><ele>696.5999999999999</ele><time>2026-05-02T09:10:05.926Z</time></trkpt><trkpt lat="43.3388483" lon="13.2012783"><ele>697.2</ele><time>2026-05-02T09:10:07.926Z</time></trkpt><trkpt lat="43.3387667" lon="13.2013467"><ele>697.8</ele><time>2026-05-02T09:10:09.926Z</time></trkpt><trkpt lat="43.338695" lon="13.201415"><ele>698.4000000000001</ele><time>2026-05-02T09:10:22.926Z</time></trkpt><trkpt lat="43.3386433" lon="13.20147"><ele>699.0</ele><time>2026-05-02T09:10:23.926Z</time></trkpt><trkpt lat="43.3385767" lon="13.20153"><ele>699.0</ele><time>2026-05-02T09:10:24.926Z</time></trkpt><trkpt lat="43.3385033" lon="13.201605"><ele>699.0</ele><time>2026-05-02T09:10:25.926Z</time></trkpt><trkpt lat="43.3384233" lon="13.2016783"><ele>699.0</ele><time>2026-05-02T09:10:26.926Z</time></trkpt><trkpt lat="43.3383267" lon="13.2017633"><ele>699.0</ele><time>2026-05-02T09:10:27.926Z</time></trkpt><trkpt lat="43.3382367" lon="13.201845"><ele>699.0</ele><time>2026-05-02T09:10:28.926Z</time></trkpt><trkpt lat="43.3381567" lon="13.2019217"><ele>699.0</ele><time>2026-05-02T09:10:29.927Z</time></trkpt><trkpt lat="43.3380633" lon="13.2020133"><ele>699.0</ele><time>2026-05-02T09:10:30.926Z</time></trkpt><trkpt lat="43.3379567" lon="13.2021083"><ele>699.0</ele><time>2026-05-02T09:10:31.926Z</time></trkpt><trkpt lat="43.33785" lon="13.2022067"><ele>699.0</ele><time>2026-05-02T09:10:32.926Z</time></trkpt><trkpt lat="43.337745" lon="13.2023017"><ele>700.3333333333334</ele><time>2026-05-02T09:10:33.926Z</time></trkpt><trkpt lat="43.337655" lon="13.202375"><ele>701.6666666666666</ele><time>2026-05-02T09:10:34.926Z</time></trkpt><trkpt lat="43.3375917" lon="13.2024317"><ele>703.0</ele><time>2026-05-02T09:10:35.926Z</time></trkpt><trkpt lat="43.337535" lon="13.2024817"><ele>704.3333333333333</ele><time>2026-05-02T09:10:36.926Z</time></trkpt><trkpt lat="43.33742" lon="13.202545"><ele>705.6666666666666</ele><time>2026-05-02T09:10:38.926Z</time></trkpt><trkpt lat="43.3373633" lon="13.2025833"><ele>707.0</ele><time>2026-05-02T09:10:39.926Z</time></trkpt><trkpt lat="43.3372933" lon="13.2026317"><ele>707.0</ele><time>2026-05-02T09:10:40.926Z</time></trkpt><trkpt lat="43.3372317" lon="13.202685"><ele>707.0</ele><time>2026-05-02T09:10:41.927Z</time></trkpt><trkpt lat="43.3371683" lon="13.202745"><ele>707.0</ele><time>2026-05-02T09:10:42.927Z</time></trkpt><trkpt lat="43.3371117" lon="13.2028233"><ele>707.0</ele><time>2026-05-02T09:10:43.926Z</time></trkpt><trkpt lat="43.33706" lon="13.202905"><ele>707.0</ele><time>2026-05-02T09:10:44.926Z</time></trkpt><trkpt lat="43.3370217" lon="13.2029833"><ele>707.0</ele><time>2026-05-02T09:10:45.926Z</time></trkpt><trkpt lat="43.3369817" lon="13.2030617"><ele>707.0</ele><time>2026-05-02T09:10:46.926Z</time></trkpt><trkpt lat="43.3369467" lon="13.2032167"><ele>709.5</ele><time>2026-05-02T09:10:48.927Z</time></trkpt><trkpt lat="43.3369867" lon="13.203385"><ele>712.0</ele><time>2026-05-02T09:10:50.926Z</time></trkpt><trkpt lat="43.3370183" lon="13.203465"><ele>714.5</ele><time>2026-05-02T09:10:51.927Z</time></trkpt><trkpt lat="43.3370417" lon="13.203555"><ele>717.0</ele><time>2026-05-02T09:10:52.926Z</time></trkpt><trkpt lat="43.3370533" lon="13.20365"><ele>719.5</ele><time>2026-05-02T09:10:53.926Z</time></trkpt><trkpt lat="43.33705" lon="13.2037383"><ele>722.0</ele><time>2026-05-02T09:10:54.926Z</time></trkpt><trkpt lat="43.337045" lon="13.203845"><ele>722.0</ele><time>2026-05-02T09:10:55.927Z</time></trkpt><trkpt lat="43.337055" lon="13.203945"><ele>722.0</ele><time>2026-05-02T09:10:56.927Z</time></trkpt><trkpt lat="43.3370733" lon="13.2040483"><ele>722.0</ele><time>2026-05-02T09:10:57.926Z</time></trkpt><trkpt lat="43.3371" lon="13.2041517"><ele>722.0</ele><time>2026-05-02T09:10:58.926Z</time></trkpt><trkpt lat="43.33714" lon="13.2042483"><ele>722.0</ele><time>2026-05-02T09:10:59.926Z</time></trkpt><trkpt lat="43.337185" lon="13.2043433"><ele>722.0</ele><time>2026-05-02T09:11:00.926Z</time></trkpt><trkpt lat="43.33723" lon="13.2044317"><ele>725.1428571428572</ele><time>2026-05-02T09:11:01.926Z</time></trkpt><trkpt lat="43.3372617" lon="13.2045167"><ele>728.2857142857142</ele><time>2026-05-02T09:11:02.926Z</time></trkpt><trkpt lat="43.33728" lon="13.2046067"><ele>731.4285714285714</ele><time>2026-05-02T09:11:03.926Z</time></trkpt><trkpt lat="43.3372733" lon="13.2047183"><ele>734.5714285714287</ele><time>2026-05-02T09:11:04.926Z</time></trkpt><trkpt lat="43.3372617" lon="13.2048217"><ele>737.7142857142858</ele><time>2026-05-02T09:11:05.926Z</time></trkpt><trkpt lat="43.3372467" lon="13.2049067"><ele>740.8571428571429</ele><time>2026-05-02T09:11:06.926Z</time></trkpt><trkpt lat="43.3372217" lon="13.205"><ele>744.0</ele><time>2026-05-02T09:11:08.926Z</time></trkpt><trkpt lat="43.3371726" lon="13.2050914"><ele>745.8000000000001</ele><time>2026-05-02T09:11:25.926Z</time></trkpt><trkpt lat="43.3371014" lon="13.2052111"><ele>747.6</ele><time>2026-05-02T09:11:27.926Z</time></trkpt><trkpt lat="43.3370137" lon="13.2053236"><ele>749.4</ele><time>2026-05-02T09:11:29.926Z</time></trkpt><trkpt lat="43.3369554" lon="13.2053633"><ele>751.2</ele><time>2026-05-02T09:11:30.927Z</time></trkpt><trkpt lat="43.3368811" lon="13.20539"><ele>753.0</ele><time>2026-05-02T09:11:31.927Z</time></trkpt><trkpt lat="43.3368003" lon="13.2054051"><ele>753.0</ele><time>2026-05-02T09:11:32.926Z</time></trkpt><trkpt lat="43.3367106" lon="13.2054212"><ele>753.0</ele><time>2026-05-02T09:11:33.926Z</time></trkpt><trkpt lat="43.3366321" lon="13.2054412"><ele>753.0</ele><time>2026-05-02T09:11:34.926Z</time></trkpt><trkpt lat="43.3365667" lon="13.2054552"><ele>753.0</ele><time>2026-05-02T09:11:35.926Z</time></trkpt><trkpt lat="43.3364911" lon="13.2054822"><ele>753.0</ele><time>2026-05-02T09:11:37.926Z</time></trkpt><trkpt lat="43.336419" lon="13.2055648"><ele>753.0</ele><time>2026-05-02T09:11:40.925Z</time></trkpt><trkpt lat="43.3363599" lon="13.2056133"><ele>752.4285714285714</ele><time>2026-05-02T09:11:42.926Z</time></trkpt><trkpt lat="43.3362994" lon="13.2055864"><ele>751.8571428571429</ele><time>2026-05-02T09:11:44.925Z</time></trkpt><trkpt lat="43.3362453" lon="13.2055209"><ele>751.2857142857142</ele><time>2026-05-02T09:11:46.925Z</time></trkpt><trkpt lat="43.336182" lon="13.2054919"><ele>750.7142857142858</ele><time>2026-05-02T09:11:48.925Z</time></trkpt><trkpt lat="43.3361017" lon="13.2055117"><ele>750.1428571428571</ele><time>2026-05-02T09:11:52.925Z</time></trkpt><trkpt lat="43.33603" lon="13.205575"><ele>749.5714285714286</ele><time>2026-05-02T09:11:55.925Z</time></trkpt><trkpt lat="43.3359717" lon="13.2056283"><ele>749.0</ele><time>2026-05-02T09:11:57.926Z</time></trkpt><trkpt lat="43.335885" lon="13.2056817"><ele>748.5714285714286</ele><time>2026-05-02T09:12:00.925Z</time></trkpt><trkpt lat="43.335815" lon="13.2056617"><ele>748.1428571428571</ele><time>2026-05-02T09:12:02.925Z</time></trkpt><trkpt lat="43.3357567" lon="13.2056133"><ele>747.7142857142858</ele><time>2026-05-02T09:12:04.926Z</time></trkpt><trkpt lat="43.3356933" lon="13.2055883"><ele>747.2857142857142</ele><time>2026-05-02T09:12:06.925Z</time></trkpt><trkpt lat="43.335625" lon="13.2055433"><ele>746.8571428571429</ele><time>2026-05-02T09:12:08.925Z</time></trkpt><trkpt lat="43.3355833" lon="13.20546"><ele>746.4285714285714</ele><time>2026-05-02T09:12:10.925Z</time></trkpt><trkpt lat="43.3355433" lon="13.205385"><ele>746.0</ele><time>2026-05-02T09:12:12.925Z</time></trkpt><trkpt lat="43.3354833" lon="13.2053117"><ele>741.3333333333333</ele><time>2026-05-02T09:12:15.925Z</time></trkpt><trkpt lat="43.3354517" lon="13.2052317"><ele>736.6666666666666</ele><time>2026-05-02T09:12:17.926Z</time></trkpt><trkpt lat="43.3354167" lon="13.2051317"><ele>732.0</ele><time>2026-05-02T09:12:19.925Z</time></trkpt><trkpt lat="43.3353717" lon="13.2050317"><ele>727.3333333333334</ele><time>2026-05-02T09:12:21.925Z</time></trkpt><trkpt lat="43.3353117" lon="13.2049517"><ele>722.6666666666667</ele><time>2026-05-02T09:12:23.925Z</time></trkpt><trkpt lat="43.3352483" lon="13.2048567"><ele>718.0</ele><time>2026-05-02T09:12:25.925Z</time></trkpt><trkpt lat="43.335205" lon="13.2047717"><ele>717.5</ele><time>2026-05-02T09:12:27.925Z</time></trkpt><trkpt lat="43.3351617" lon="13.2047"><ele>717.0</ele><time>2026-05-02T09:12:29.926Z</time></trkpt><trkpt lat="43.33511" lon="13.2046117"><ele>716.5</ele><time>2026-05-02T09:12:31.925Z</time></trkpt><trkpt lat="43.3350683" lon="13.2045033"><ele>716.0</ele><time>2026-05-02T09:12:33.925Z</time></trkpt><trkpt lat="43.3350317" lon="13.2044117"><ele>715.5</ele><time>2026-05-02T09:12:35.925Z</time></trkpt><trkpt lat="43.3349767" lon="13.2043083"><ele>715.0</ele><time>2026-05-02T09:12:38.925Z</time></trkpt><trkpt lat="43.3349183" lon="13.204255"><ele>715.0</ele><time>2026-05-02T09:12:40.925Z</time></trkpt><trkpt lat="43.3348567" lon="13.2042083"><ele>715.0</ele><time>2026-05-02T09:12:42.925Z</time></trkpt><trkpt lat="43.3348133" lon="13.204125"><ele>715.0</ele><time>2026-05-02T09:12:44.926Z</time></trkpt><trkpt lat="43.3347817" lon="13.2040317"><ele>715.0</ele><time>2026-05-02T09:12:46.925Z</time></trkpt><trkpt lat="43.3347317" lon="13.2039317"><ele>715.0</ele><time>2026-05-02T09:12:49.925Z</time></trkpt><trkpt lat="43.3346683" lon="13.203865"><ele>715.0</ele><time>2026-05-02T09:12:51.925Z</time></trkpt><trkpt lat="43.3346133" lon="13.2037983"><ele>708.3333333333334</ele><time>2026-05-02T09:12:53.925Z</time></trkpt><trkpt lat="43.3345533" lon="13.203705"><ele>701.6666666666667</ele><time>2026-05-02T09:12:56.925Z</time></trkpt><trkpt lat="43.3345083" lon="13.2036217"><ele>695.0</ele><time>2026-05-02T09:13:01.925Z</time></trkpt><trkpt lat="43.3344283" lon="13.2035783"><ele>688.3333333333334</ele><time>2026-05-02T09:13:08.925Z</time></trkpt><trkpt lat="43.3343667" lon="13.2035583"><ele>681.6666666666666</ele><time>2026-05-02T09:13:11.926Z</time></trkpt><trkpt lat="43.33432" lon="13.2034633"><ele>675.0</ele><time>2026-05-02T09:13:15.925Z</time></trkpt><trkpt lat="43.3342633" lon="13.203365"><ele>675.0</ele><time>2026-05-02T09:13:17.925Z</time></trkpt><trkpt lat="43.3341967" lon="13.2032633"><ele>675.0</ele><time>2026-05-02T09:13:19.925Z</time></trkpt><trkpt lat="43.33415" lon="13.20318"><ele>675.0</ele><time>2026-05-02T09:13:21.926Z</time></trkpt><trkpt lat="43.33411" lon="13.2031083"><ele>675.0</ele><time>2026-05-02T09:13:23.925Z</time></trkpt><trkpt lat="43.334075" lon="13.2030317"><ele>675.0</ele><time>2026-05-02T09:13:25.925Z</time></trkpt><trkpt lat="43.3340217" lon="13.2029817"><ele>675.0</ele><time>2026-05-02T09:13:27.926Z</time></trkpt><trkpt lat="43.3339783" lon="13.2029133"><ele>675.0</ele><time>2026-05-02T09:13:29.925Z</time></trkpt><trkpt lat="43.3339867" lon="13.2027967"><ele>673.0</ele><time>2026-05-02T09:13:32.925Z</time></trkpt><trkpt lat="43.3340067" lon="13.20271"><ele>671.0</ele><time>2026-05-02T09:13:34.925Z</time></trkpt><trkpt lat="43.3339917" lon="13.2026133"><ele>669.0</ele><time>2026-05-02T09:13:36.925Z</time></trkpt><trkpt lat="43.3339533" lon="13.2025283"><ele>667.0</ele><time>2026-05-02T09:13:38.925Z</time></trkpt><trkpt lat="43.3339183" lon="13.2024467"><ele>665.0</ele><time>2026-05-02T09:13:40.925Z</time></trkpt><trkpt lat="43.3339533" lon="13.2023683"><ele>663.0</ele><time>2026-05-02T09:13:58.925Z</time></trkpt><trkpt lat="43.334035" lon="13.2023167"><ele>661.0</ele><time>2026-05-02T09:14:01.925Z</time></trkpt><trkpt lat="43.3341283" lon="13.2022967"><ele>661.0</ele><time>2026-05-02T09:14:03.925Z</time></trkpt><trkpt lat="43.334245" lon="13.2023167"><ele>661.0</ele><time>2026-05-02T09:14:05.925Z</time></trkpt><trkpt lat="43.3343767" lon="13.20236"><ele>661.0</ele><time>2026-05-02T09:14:07.925Z</time></trkpt><trkpt lat="43.3344433" lon="13.2023867"><ele>661.0</ele><time>2026-05-02T09:14:08.925Z</time></trkpt><trkpt lat="43.3345133" lon="13.2024067"><ele>661.0</ele><time>2026-05-02T09:14:09.925Z</time></trkpt><trkpt lat="43.334625" lon="13.2024167"><ele>661.0</ele><time>2026-05-02T09:14:11.925Z</time></trkpt><trkpt lat="43.3346867" lon="13.2023533"><ele>661.0</ele><time>2026-05-02T09:14:12.925Z</time></trkpt><trkpt lat="43.3347517" lon="13.20225"><ele>661.0</ele><time>2026-05-02T09:14:13.925Z</time></trkpt><trkpt lat="43.3348233" lon="13.2021533"><ele>661.0</ele><time>2026-05-02T09:14:14.926Z</time></trkpt><trkpt lat="43.3348983" lon="13.20205"><ele>661.0</ele><time>2026-05-02T09:14:15.926Z</time></trkpt><trkpt lat="43.3349683" lon="13.2019617"><ele>657.6666666666667</ele><time>2026-05-02T09:14:16.925Z</time></trkpt><trkpt lat="43.3350167" lon="13.20188"><ele>654.3333333333334</ele><time>2026-05-02T09:14:17.926Z</time></trkpt><trkpt lat="43.3350733" lon="13.2018217"><ele>651.0</ele><time>2026-05-02T09:14:18.925Z</time></trkpt><trkpt lat="43.3351383" lon="13.2017717"><ele>647.6666666666666</ele><time>2026-05-02T09:14:19.925Z</time></trkpt><trkpt lat="43.3352033" lon="13.20174"><ele>644.3333333333333</ele><time>2026-05-02T09:14:20.925Z</time></trkpt><trkpt lat="43.3352683" lon="13.20172"><ele>641.0</ele><time>2026-05-02T09:14:21.925Z</time></trkpt><trkpt lat="43.3353983" lon="13.201685"><ele>641.0</ele><time>2026-05-02T09:14:23.925Z</time></trkpt><trkpt lat="43.3354717" lon="13.20167"><ele>641.0</ele><time>2026-05-02T09:14:24.925Z</time></trkpt><trkpt lat="43.3355583" lon="13.20166"><ele>641.0</ele><time>2026-05-02T09:14:25.926Z</time></trkpt><trkpt lat="43.335635" lon="13.201665"><ele>641.0</ele><time>2026-05-02T09:14:26.925Z</time></trkpt><trkpt lat="43.335715" lon="13.2016633"><ele>641.0</ele><time>2026-05-02T09:14:27.925Z</time></trkpt><trkpt lat="43.3357833" lon="13.201675"><ele>641.0</ele><time>2026-05-02T09:14:28.925Z</time></trkpt><trkpt lat="43.3358533" lon="13.2016867"><ele>638.8333333333333</ele><time>2026-05-02T09:14:29.925Z</time></trkpt><trkpt lat="43.335925" lon="13.201695"><ele>636.6666666666666</ele><time>2026-05-02T09:14:30.925Z</time></trkpt><trkpt lat="43.3359867" lon="13.2016683"><ele>634.5</ele><time>2026-05-02T09:14:31.925Z</time></trkpt><trkpt lat="43.3360633" lon="13.2015783"><ele>632.3333333333334</ele><time>2026-05-02T09:14:33.925Z</time></trkpt><trkpt lat="43.3360817" lon="13.2014833"><ele>630.1666666666667</ele><time>2026-05-02T09:14:34.925Z</time></trkpt><trkpt lat="43.3360967" lon="13.2013467"><ele>628.0</ele><time>2026-05-02T09:14:35.925Z</time></trkpt><trkpt lat="43.336115" lon="13.2011833"><ele>628.0</ele><time>2026-05-02T09:14:36.926Z</time></trkpt><trkpt lat="43.336155" lon="13.20102"><ele>628.0</ele><time>2026-05-02T09:14:37.925Z</time></trkpt><trkpt lat="43.336195" lon="13.200885"><ele>628.0</ele><time>2026-05-02T09:14:38.925Z</time></trkpt><trkpt lat="43.33624" lon="13.20075"><ele>628.0</ele><time>2026-05-02T09:14:39.926Z</time></trkpt><trkpt lat="43.3362767" lon="13.20062"><ele>628.0</ele><time>2026-05-02T09:14:40.925Z</time></trkpt><trkpt lat="43.3363017" lon="13.2005"><ele>631.2</ele><time>2026-05-02T09:14:41.925Z</time></trkpt><trkpt lat="43.3363167" lon="13.200365"><ele>634.4</ele><time>2026-05-02T09:14:42.925Z</time></trkpt><trkpt lat="43.336325" lon="13.2002283"><ele>637.6</ele><time>2026-05-02T09:14:43.925Z</time></trkpt><trkpt lat="43.336335" lon="13.2001083"><ele>640.8000000000001</ele><time>2026-05-02T09:14:44.925Z</time></trkpt><trkpt lat="43.33635" lon="13.2000133"><ele>644.0</ele><time>2026-05-02T09:14:45.925Z</time></trkpt><trkpt lat="43.3363983" lon="13.199885"><ele>641.0</ele><time>2026-05-02T09:14:47.926Z</time></trkpt><trkpt lat="43.3364817" lon="13.1998183"><ele>638.0</ele><time>2026-05-02T09:14:49.926Z</time></trkpt><trkpt lat="43.3365483" lon="13.1998067"><ele>635.0</ele><time>2026-05-02T09:14:50.925Z</time></trkpt><trkpt lat="43.3366117" lon="13.1997917"><ele>632.0</ele><time>2026-05-02T09:14:51.925Z</time></trkpt><trkpt lat="43.3367083" lon="13.19976"><ele>629.0</ele><time>2026-05-02T09:14:53.925Z</time></trkpt><trkpt lat="43.3367867" lon="13.19965"><ele>626.0</ele><time>2026-05-02T09:14:55.925Z</time></trkpt><trkpt lat="43.3368467" lon="13.1995517"><ele>626.0</ele><time>2026-05-02T09:14:57.926Z</time></trkpt><trkpt lat="43.336885" lon="13.199635"><ele>626.0</ele><time>2026-05-02T09:15:12.926Z</time></trkpt><trkpt lat="43.33688" lon="13.1997683"><ele>626.0</ele><time>2026-05-02T09:15:14.925Z</time></trkpt><trkpt lat="43.3368917" lon="13.1999133"><ele>626.0</ele><time>2026-05-02T09:15:16.926Z</time></trkpt><trkpt lat="43.3369117" lon="13.1999967"><ele>626.0</ele><time>2026-05-02T09:15:17.925Z</time></trkpt><trkpt lat="43.33693" lon="13.2001"><ele>626.0</ele><time>2026-05-02T09:15:18.925Z</time></trkpt><trkpt lat="43.3369317" lon="13.2002083"><ele>628.5714285714286</ele><time>2026-05-02T09:15:19.925Z</time></trkpt><trkpt lat="43.33693" lon="13.20031"><ele>631.1428571428571</ele><time>2026-05-02T09:15:20.925Z</time></trkpt><trkpt lat="43.3369283" lon="13.2004133"><ele>633.7142857142858</ele><time>2026-05-02T09:15:21.925Z</time></trkpt><trkpt lat="43.336925" lon="13.200515"><ele>636.2857142857142</ele><time>2026-05-02T09:15:22.925Z</time></trkpt><trkpt lat="43.3369183" lon="13.2006167"><ele>638.8571428571429</ele><time>2026-05-02T09:15:23.926Z</time></trkpt><trkpt lat="43.3369033" lon="13.2007133"><ele>641.4285714285714</ele><time>2026-05-02T09:15:24.925Z</time></trkpt><trkpt lat="43.3368817" lon="13.200805"><ele>644.0</ele><time>2026-05-02T09:15:25.925Z</time></trkpt><trkpt lat="43.3368533" lon="13.2009467"><ele>647.0</ele><time>2026-05-02T09:15:27.925Z</time></trkpt><trkpt lat="43.3369117" lon="13.2010483"><ele>650.0</ele><time>2026-05-02T09:15:29.925Z</time></trkpt><trkpt lat="43.33697" lon="13.2011"><ele>653.0</ele><time>2026-05-02T09:15:30.925Z</time></trkpt><trkpt lat="43.3370217" lon="13.2011733"><ele>656.0</ele><time>2026-05-02T09:15:31.926Z</time></trkpt><trkpt lat="43.3370767" lon="13.20124"><ele>659.0</ele><time>2026-05-02T09:15:32.925Z</time></trkpt><trkpt lat="43.3371283" lon="13.2012967"><ele>662.0</ele><time>2026-05-02T09:15:33.925Z</time></trkpt><trkpt lat="43.3371717" lon="13.2014033"><ele>665.0</ele><time>2026-05-02T09:15:35.925Z</time></trkpt><trkpt lat="43.3372117" lon="13.20153"><ele>668.0</ele><time>2026-05-02T09:15:37.925Z</time></trkpt><trkpt lat="43.3372533" lon="13.2016017"><ele>671.0</ele><time>2026-05-02T09:15:38.926Z</time></trkpt><trkpt lat="43.3372867" lon="13.2016783"><ele>674.0</ele><time>2026-05-02T09:15:39.926Z</time></trkpt><trkpt lat="43.33732" lon="13.2017667"><ele>677.0</ele><time>2026-05-02T09:15:40.925Z</time></trkpt><trkpt lat="43.337355" lon="13.201855"><ele>680.0</ele><time>2026-05-02T09:15:41.925Z</time></trkpt><trkpt lat="43.3373767" lon="13.2020217"><ele>682.3333333333333</ele><time>2026-05-02T09:15:43.925Z</time></trkpt><trkpt lat="43.3373833" lon="13.2021817"><ele>684.6666666666666</ele><time>2026-05-02T09:15:45.925Z</time></trkpt><trkpt lat="43.337405" lon="13.2022783"><ele>687.0</ele><time>2026-05-02T09:15:46.925Z</time></trkpt><trkpt lat="43.33744" lon="13.20236"><ele>689.3333333333334</ele><time>2026-05-02T09:15:47.925Z</time></trkpt><trkpt lat="43.3375067" lon="13.2024667"><ele>691.6666666666667</ele><time>2026-05-02T09:15:49.925Z</time></trkpt><trkpt lat="43.33757" lon="13.2024383"><ele>694.0</ele><time>2026-05-02T09:16:03.925Z</time></trkpt><trkpt lat="43.3376617" lon="13.2023433"><ele>694.0</ele><time>2026-05-02T09:16:06.926Z</time></trkpt><trkpt lat="43.3377167" lon="13.20229"><ele>694.0</ele><time>2026-05-02T09:16:07.925Z</time></trkpt><trkpt lat="43.33778" lon="13.2022267"><ele>694.0</ele><time>2026-05-02T09:16:08.925Z</time></trkpt><trkpt lat="43.3378367" lon="13.2021633"><ele>694.0</ele><time>2026-05-02T09:16:09.925Z</time></trkpt><trkpt lat="43.3378983" lon="13.2021033"><ele>694.0</ele><time>2026-05-02T09:16:10.925Z</time></trkpt><trkpt lat="43.3379617" lon="13.202045"><ele>694.0</ele><time>2026-05-02T09:16:11.925Z</time></trkpt><trkpt lat="43.33803" lon="13.2019833"><ele>694.8333333333334</ele><time>2026-05-02T09:16:12.925Z</time></trkpt><trkpt lat="43.338105" lon="13.2019283"><ele>695.6666666666667</ele><time>2026-05-02T09:16:13.926Z</time></trkpt><trkpt lat="43.3381833" lon="13.201865"><ele>696.5</ele><time>2026-05-02T09:16:14.926Z</time></trkpt><trkpt lat="43.3382667" lon="13.201785"><ele>697.3333333333334</ele><time>2026-05-02T09:16:15.925Z</time></trkpt><trkpt lat="43.338335" lon="13.20174"><ele>698.1666666666666</ele><time>2026-05-02T09:16:16.925Z</time></trkpt><trkpt lat="43.3384117" lon="13.2016683"><ele>699.0</ele><time>2026-05-02T09:16:17.925Z</time></trkpt><trkpt lat="43.3384917" lon="13.2015883"><ele>699.0</ele><time>2026-05-02T09:16:18.926Z</time></trkpt><trkpt lat="43.33856" lon="13.2015167"><ele>699.0</ele><time>2026-05-02T09:16:19.925Z</time></trkpt><trkpt lat="43.33863" lon="13.2014433"><ele>699.0</ele><time>2026-05-02T09:16:20.926Z</time></trkpt><trkpt lat="43.338695" lon="13.2013883"><ele>699.0</ele><time>2026-05-02T09:16:21.925Z</time></trkpt><trkpt lat="43.33877" lon="13.2013267"><ele>699.0</ele><time>2026-05-02T09:16:22.925Z</time></trkpt><trkpt lat="43.33883" lon="13.2012733"><ele>699.0</ele><time>2026-05-02T09:16:23.925Z</time></trkpt><trkpt lat="43.338885" lon="13.2012283"><ele>698.5714285714286</ele><time>2026-05-02T09:16:24.925Z</time></trkpt><trkpt lat="43.3389417" lon="13.2011767"><ele>698.1428571428572</ele><time>2026-05-02T09:16:25.925Z</time></trkpt><trkpt lat="43.3389967" lon="13.201125"><ele>697.7142857142858</ele><time>2026-05-02T09:16:26.925Z</time></trkpt><trkpt lat="43.339055" lon="13.20107"><ele>697.2857142857142</ele><time>2026-05-02T09:16:27.925Z</time></trkpt><trkpt lat="43.3391183" lon="13.2010183"><ele>696.8571428571429</ele><time>2026-05-02T09:16:28.925Z</time></trkpt><trkpt lat="43.3391867" lon="13.20097"><ele>696.4285714285714</ele><time>2026-05-02T09:16:29.925Z</time></trkpt><trkpt lat="43.3392667" lon="13.2009067"><ele>696.0</ele><time>2026-05-02T09:16:30.925Z</time></trkpt><trkpt lat="43.339355" lon="13.200825"><ele>696.0</ele><time>2026-05-02T09:16:31.925Z</time></trkpt><trkpt lat="43.33945" lon="13.20073"><ele>696.0</ele><time>2026-05-02T09:16:32.925Z</time></trkpt><trkpt lat="43.339545" lon="13.2006367"><ele>696.0</ele><time>2026-05-02T09:16:33.925Z</time></trkpt><trkpt lat="43.3396267" lon="13.2005517"><ele>696.0</ele><time>2026-05-02T09:16:34.925Z</time></trkpt><trkpt lat="43.3396967" lon="13.2004633"><ele>696.0</ele><time>2026-05-02T09:16:35.925Z</time></trkpt><trkpt lat="43.33974" lon="13.2003867"><ele>695.5</ele><time>2026-05-02T09:16:36.925Z</time></trkpt><trkpt lat="43.339765" lon="13.200305"><ele>695.0</ele><time>2026-05-02T09:16:37.925Z</time></trkpt><trkpt lat="43.3397567" lon="13.2001333"><ele>694.5</ele><time>2026-05-02T09:16:39.926Z</time></trkpt><trkpt lat="43.3397633" lon="13.200035"><ele>694.0</ele><time>2026-05-02T09:16:40.925Z</time></trkpt><trkpt lat="43.3397783" lon="13.1999317"><ele>693.5</ele><time>2026-05-02T09:16:41.926Z</time></trkpt><trkpt lat="43.33981" lon="13.1998417"><ele>693.0</ele><time>2026-05-02T09:16:42.925Z</time></trkpt><trkpt lat="43.33986" lon="13.1997467"><ele>693.0</ele><time>2026-05-02T09:16:43.926Z</time></trkpt><trkpt lat="43.3399183" lon="13.1996467"><ele>693.0</ele><time>2026-05-02T09:16:44.925Z</time></trkpt><trkpt lat="43.3399867" lon="13.199555"><ele>693.0</ele><time>2026-05-02T09:16:45.925Z</time></trkpt><trkpt lat="43.340065" lon="13.199475"><ele>693.0</ele><time>2026-05-02T09:16:46.925Z</time></trkpt><trkpt lat="43.3401467" lon="13.1993933"><ele>693.0</ele><time>2026-05-02T09:16:47.925Z</time></trkpt><trkpt lat="43.3402183" lon="13.199315"><ele>693.0</ele><time>2026-05-02T09:16:48.925Z</time></trkpt><trkpt lat="43.34029" lon="13.199235"><ele>693.0</ele><time>2026-05-02T09:16:49.925Z</time></trkpt><trkpt lat="43.3403517" lon="13.1991733"><ele>693.0</ele><time>2026-05-02T09:16:50.926Z</time></trkpt><trkpt lat="43.3404167" lon="13.1991167"><ele>693.0</ele><time>2026-05-02T09:16:51.925Z</time></trkpt><trkpt lat="43.340475" lon="13.1990817"><ele>693.0</ele><time>2026-05-02T09:16:52.925Z</time></trkpt><trkpt lat="43.3405717" lon="13.19901"><ele>693.0</ele><time>2026-05-02T09:16:54.925Z</time></trkpt><trkpt lat="43.3406533" lon="13.198975"><ele>691.8333333333334</ele><time>2026-05-02T09:16:56.925Z</time></trkpt><trkpt lat="43.3407383" lon="13.1989517"><ele>690.6666666666666</ele><time>2026-05-02T09:16:58.925Z</time></trkpt><trkpt lat="43.34084" lon="13.1989283"><ele>689.5</ele><time>2026-05-02T09:17:00.925Z</time></trkpt><trkpt lat="43.3409017" lon="13.1989083"><ele>688.3333333333333</ele><time>2026-05-02T09:17:01.925Z</time></trkpt><trkpt lat="43.3409683" lon="13.1988717"><ele>687.1666666666666</ele><time>2026-05-02T09:17:02.925Z</time></trkpt><trkpt lat="43.3410267" lon="13.19883"><ele>686.0</ele><time>2026-05-02T09:17:03.925Z</time></trkpt><trkpt lat="43.3410867" lon="13.1987883"><ele>686.0</ele><time>2026-05-02T09:17:04.925Z</time></trkpt><trkpt lat="43.341185" lon="13.1987017"><ele>686.0</ele><time>2026-05-02T09:17:06.925Z</time></trkpt><trkpt lat="43.3412983" lon="13.198615"><ele>686.0</ele><time>2026-05-02T09:17:08.925Z</time></trkpt><trkpt lat="43.3413667" lon="13.198565"><ele>686.0</ele><time>2026-05-02T09:17:09.924Z</time></trkpt><trkpt lat="43.3414417" lon="13.1985033"><ele>686.0</ele><time>2026-05-02T09:17:10.924Z</time></trkpt><trkpt lat="43.3415167" lon="13.1984333"><ele>686.6666666666666</ele><time>2026-05-02T09:17:11.924Z</time></trkpt><trkpt lat="43.341585" lon="13.1983617"><ele>687.3333333333333</ele><time>2026-05-02T09:17:12.924Z</time></trkpt><trkpt lat="43.3416467" lon="13.1983017"><ele>688.0</ele><time>2026-05-02T09:17:13.924Z</time></trkpt><trkpt lat="43.341705" lon="13.1982417"><ele>688.6666666666666</ele><time>2026-05-02T09:17:14.924Z</time></trkpt><trkpt lat="43.3417933" lon="13.1981933"><ele>689.3333333333334</ele><time>2026-05-02T09:17:16.924Z</time></trkpt><trkpt lat="43.3418833" lon="13.19813"><ele>690.0</ele><time>2026-05-02T09:17:18.925Z</time></trkpt><trkpt lat="43.3419467" lon="13.198025"><ele>687.6</ele><time>2026-05-02T09:17:20.924Z</time></trkpt><trkpt lat="43.34201" lon="13.1979167"><ele>685.2</ele><time>2026-05-02T09:17:22.924Z</time></trkpt><trkpt lat="43.3420567" lon="13.1978117"><ele>682.8</ele><time>2026-05-02T09:17:24.924Z</time></trkpt><trkpt lat="43.3421183" lon="13.1976967"><ele>680.4</ele><time>2026-05-02T09:17:26.925Z</time></trkpt><trkpt lat="43.34219" lon="13.1975983"><ele>678.0</ele><time>2026-05-02T09:17:28.924Z</time></trkpt><trkpt lat="43.342285" lon="13.1975283"><ele>676.8333333333334</ele><time>2026-05-02T09:17:30.924Z</time></trkpt><trkpt lat="43.34235" lon="13.1975033"><ele>675.6666666666666</ele><time>2026-05-02T09:17:31.924Z</time></trkpt><trkpt lat="43.3424217" lon="13.1974833"><ele>674.5</ele><time>2026-05-02T09:17:32.924Z</time></trkpt><trkpt lat="43.3424867" lon="13.1974567"><ele>673.3333333333333</ele><time>2026-05-02T09:17:33.924Z</time></trkpt><trkpt lat="43.3425467" lon="13.1974283"><ele>672.1666666666666</ele><time>2026-05-02T09:17:34.924Z</time></trkpt><trkpt lat="43.3426133" lon="13.1973767"><ele>671.0</ele><time>2026-05-02T09:17:35.924Z</time></trkpt><trkpt lat="43.3427217" lon="13.1972817"><ele>669.6666666666666</ele><time>2026-05-02T09:17:37.924Z</time></trkpt><trkpt lat="43.3428183" lon="13.1971833"><ele>668.3333333333333</ele><time>2026-05-02T09:17:39.924Z</time></trkpt><trkpt lat="43.342865" lon="13.1971217"><ele>667.0</ele><time>2026-05-02T09:17:40.924Z</time></trkpt><trkpt lat="43.342955" lon="13.19704"><ele>665.6666666666666</ele><time>2026-05-02T09:17:42.924Z</time></trkpt><trkpt lat="43.3430317" lon="13.1970017"><ele>664.3333333333334</ele><time>2026-05-02T09:17:44.924Z</time></trkpt><trkpt lat="43.343095" lon="13.197035"><ele>663.0</ele><time>2026-05-02T09:17:46.924Z</time></trkpt><trkpt lat="43.3431617" lon="13.19713"><ele>660.0</ele><time>2026-05-02T09:17:48.925Z</time></trkpt><trkpt lat="43.3432283" lon="13.1972083"><ele>657.0</ele><time>2026-05-02T09:17:50.924Z</time></trkpt><trkpt lat="43.343305" lon="13.197235"><ele>654.0</ele><time>2026-05-02T09:17:52.924Z</time></trkpt><trkpt lat="43.34336" lon="13.1971683"><ele>651.0</ele><time>2026-05-02T09:17:54.924Z</time></trkpt><trkpt lat="43.3434133" lon="13.1970483"><ele>648.0</ele><time>2026-05-02T09:17:56.924Z</time></trkpt><trkpt lat="43.3434733" lon="13.1969017"><ele>648.0</ele><time>2026-05-02T09:17:58.924Z</time></trkpt><trkpt lat="43.343525" lon="13.1967583"><ele>648.0</ele><time>2026-05-02T09:18:00.925Z</time></trkpt><trkpt lat="43.3435833" lon="13.1966067"><ele>648.0</ele><time>2026-05-02T09:18:02.924Z</time></trkpt><trkpt lat="43.3436183" lon="13.1965217"><ele>648.0</ele><time>2026-05-02T09:18:03.925Z</time></trkpt><trkpt lat="43.3436517" lon="13.1964417"><ele>648.0</ele><time>2026-05-02T09:18:04.924Z</time></trkpt><trkpt lat="43.3436917" lon="13.19631"><ele>646.1999999999999</ele><time>2026-05-02T09:18:06.924Z</time></trkpt><trkpt lat="43.3437233" lon="13.1961533"><ele>644.4</ele><time>2026-05-02T09:18:08.924Z</time></trkpt><trkpt lat="43.3437317" lon="13.19597"><ele>642.5999999999999</ele><time>2026-05-02T09:18:10.924Z</time></trkpt><trkpt lat="43.3437333" lon="13.1958567"><ele>640.8</ele><time>2026-05-02T09:18:11.924Z</time></trkpt><trkpt lat="43.3437283" lon="13.1957433"><ele>639.0</ele><time>2026-05-02T09:18:12.924Z</time></trkpt><trkpt lat="43.3437267" lon="13.19564"><ele>637.1428571428572</ele><time>2026-05-02T09:18:13.925Z</time></trkpt><trkpt lat="43.3437283" lon="13.1955267"><ele>635.2857142857143</ele><time>2026-05-02T09:18:14.924Z</time></trkpt><trkpt lat="43.3437217" lon="13.19544"><ele>633.4285714285714</ele><time>2026-05-02T09:18:15.924Z</time></trkpt><trkpt lat="43.3437217" lon="13.1953417"><ele>631.5714285714287</ele><time>2026-05-02T09:18:16.924Z</time></trkpt><trkpt lat="43.3437183" lon="13.1952467"><ele>629.7142857142858</ele><time>2026-05-02T09:18:17.924Z</time></trkpt><trkpt lat="43.3437133" lon="13.1951567"><ele>627.8571428571429</ele><time>2026-05-02T09:18:18.925Z</time></trkpt><trkpt lat="43.343715" lon="13.1950683"><ele>626.0</ele><time>2026-05-02T09:18:19.925Z</time></trkpt><trkpt lat="43.34373" lon="13.1949767"><ele>626.0</ele><time>2026-05-02T09:18:20.924Z</time></trkpt><trkpt lat="43.3437667" lon="13.194855"><ele>626.0</ele><time>2026-05-02T09:18:22.924Z</time></trkpt><trkpt lat="43.3437917" lon="13.194705"><ele>626.0</ele><time>2026-05-02T09:18:24.924Z</time></trkpt><trkpt lat="43.343805" lon="13.19462"><ele>626.0</ele><time>2026-05-02T09:18:25.924Z</time></trkpt><trkpt lat="43.3438367" lon="13.1944783"><ele>626.0</ele><time>2026-05-02T09:18:27.924Z</time></trkpt><trkpt lat="43.3438633" lon="13.1943433"><ele>618.8</ele><time>2026-05-02T09:18:29.924Z</time></trkpt><trkpt lat="43.3438817" lon="13.1942083"><ele>611.6</ele><time>2026-05-02T09:18:31.924Z</time></trkpt><trkpt lat="43.343905" lon="13.1940767"><ele>604.4</ele><time>2026-05-02T09:18:33.924Z</time></trkpt><trkpt lat="43.3439133" lon="13.193925"><ele>597.2</ele><time>2026-05-02T09:18:35.924Z</time></trkpt><trkpt lat="43.3439283" lon="13.193795"><ele>590.0</ele><time>2026-05-02T09:18:37.924Z</time></trkpt><trkpt lat="43.3439483" lon="13.19366"><ele>588.5</ele><time>2026-05-02T09:18:39.924Z</time></trkpt><trkpt lat="43.3439483" lon="13.1935567"><ele>587.0</ele><time>2026-05-02T09:18:41.924Z</time></trkpt><trkpt lat="43.3439317" lon="13.1934617"><ele>585.5</ele><time>2026-05-02T09:18:43.924Z</time></trkpt><trkpt lat="43.3439083" lon="13.19334"><ele>584.0</ele><time>2026-05-02T09:18:46.924Z</time></trkpt><trkpt lat="43.343895" lon="13.1932383"><ele>582.5</ele><time>2026-05-02T09:18:59.924Z</time></trkpt><trkpt lat="43.3439667" lon="13.1932617"><ele>581.0</ele><time>2026-05-02T09:19:15.924Z</time></trkpt><trkpt lat="43.34401" lon="13.1933267"><ele>581.0</ele><time>2026-05-02T09:19:18.924Z</time></trkpt><trkpt lat="43.3440683" lon="13.1934117"><ele>581.0</ele><time>2026-05-02T09:19:22.924Z</time></trkpt><trkpt lat="43.3440933" lon="13.1934933"><ele>581.0</ele><time>2026-05-02T09:19:25.924Z</time></trkpt><trkpt lat="43.34416" lon="13.1936133"><ele>581.0</ele><time>2026-05-02T09:27:40.923Z</time></trkpt><trkpt lat="43.3442017" lon="13.1937667"><ele>581.0</ele><time>2026-05-02T09:27:42.923Z</time></trkpt><trkpt lat="43.3442267" lon="13.19386"><ele>581.0</ele><time>2026-05-02T09:27:43.923Z</time></trkpt><trkpt lat="43.3442583" lon="13.1939733"><ele>581.0</ele><time>2026-05-02T09:27:44.923Z</time></trkpt><trkpt lat="43.34431" lon="13.194105"><ele>581.0</ele><time>2026-05-02T09:27:45.923Z</time></trkpt><trkpt lat="43.344385" lon="13.19426"><ele>581.0</ele><time>2026-05-02T09:27:46.923Z</time></trkpt><trkpt lat="43.34448" lon="13.1944333"><ele>581.6666666666666</ele><time>2026-05-02T09:27:47.924Z</time></trkpt><trkpt lat="43.3445883" lon="13.194625"><ele>582.3333333333334</ele><time>2026-05-02T09:27:48.924Z</time></trkpt><trkpt lat="43.344705" lon="13.1948283"><ele>583.0</ele><time>2026-05-02T09:27:49.923Z</time></trkpt><trkpt lat="43.344835" lon="13.1950333"><ele>583.0</ele><time>2026-05-02T09:27:50.922Z</time></trkpt><trkpt lat="43.3449367" lon="13.195275"><ele>583.0</ele><time>2026-05-02T09:27:51.923Z</time></trkpt><trkpt lat="43.3450117" lon="13.1955433"><ele>583.0</ele><time>2026-05-02T09:27:52.922Z</time></trkpt><trkpt lat="43.3450783" lon="13.1958117"><ele>585.0</ele><time>2026-05-02T09:27:53.922Z</time></trkpt><trkpt lat="43.345145" lon="13.19608"><ele>587.0</ele><time>2026-05-02T09:27:54.923Z</time></trkpt><trkpt lat="43.3452117" lon="13.1963583"><ele>589.0</ele><time>2026-05-02T09:27:55.922Z</time></trkpt><trkpt lat="43.3452717" lon="13.1966183"><ele>591.0</ele><time>2026-05-02T09:27:56.922Z</time></trkpt><trkpt lat="43.34533" lon="13.1968433"><ele>593.0</ele><time>2026-05-02T09:27:57.922Z</time></trkpt><trkpt lat="43.34538" lon="13.1970483"><ele>595.0</ele><time>2026-05-02T09:27:58.922Z</time></trkpt><trkpt lat="43.345425" lon="13.1972417"><ele>595.75</ele><time>2026-05-02T09:27:59.922Z</time></trkpt><trkpt lat="43.345465" lon="13.1974217"><ele>596.5</ele><time>2026-05-02T09:28:00.922Z</time></trkpt><trkpt lat="43.3455083" lon="13.1975817"><ele>597.25</ele><time>2026-05-02T09:28:01.922Z</time></trkpt><trkpt lat="43.34555" lon="13.1977317"><ele>598.0</ele><time>2026-05-02T09:28:02.922Z</time></trkpt><trkpt lat="43.3456117" lon="13.197855"><ele>598.0</ele><time>2026-05-02T09:28:03.922Z</time></trkpt><trkpt lat="43.3456967" lon="13.1979517"><ele>598.0</ele><time>2026-05-02T09:28:04.922Z</time></trkpt><trkpt lat="43.3458" lon="13.1980217"><ele>598.0</ele><time>2026-05-02T09:28:05.923Z</time></trkpt><trkpt lat="43.345905" lon="13.1980367"><ele>598.0</ele><time>2026-05-02T09:28:06.922Z</time></trkpt><trkpt lat="43.346025" lon="13.19801"><ele>598.0</ele><time>2026-05-02T09:28:07.922Z</time></trkpt><trkpt lat="43.346135" lon="13.1979583"><ele>598.0</ele><time>2026-05-02T09:28:08.922Z</time></trkpt><trkpt lat="43.3462333" lon="13.1979067"><ele>598.0</ele><time>2026-05-02T09:28:09.922Z</time></trkpt><trkpt lat="43.34631" lon="13.19785"><ele>598.0</ele><time>2026-05-02T09:28:10.923Z</time></trkpt><trkpt lat="43.346375" lon="13.1977917"><ele>598.0</ele><time>2026-05-02T09:28:11.922Z</time></trkpt><trkpt lat="43.34644" lon="13.1977333"><ele>599.5</ele><time>2026-05-02T09:28:12.922Z</time></trkpt><trkpt lat="43.3465383" lon="13.19768"><ele>601.0</ele><time>2026-05-02T09:28:14.922Z</time></trkpt><trkpt lat="43.346575" lon="13.1977517"><ele>602.5</ele><time>2026-05-02T09:28:16.922Z</time></trkpt><trkpt lat="43.3465933" lon="13.1978833"><ele>604.0</ele><time>2026-05-02T09:28:18.922Z</time></trkpt><trkpt lat="43.3466117" lon="13.19802"><ele>605.5</ele><time>2026-05-02T09:28:20.922Z</time></trkpt><trkpt lat="43.3466183" lon="13.1981317"><ele>607.0</ele><time>2026-05-02T09:28:22.922Z</time></trkpt><trkpt lat="43.3466267" lon="13.198235"><ele>607.1666666666667</ele><time>2026-05-02T09:28:24.922Z</time></trkpt><trkpt lat="43.34664" lon="13.198355"><ele>607.3333333333334</ele><time>2026-05-02T09:28:27.922Z</time></trkpt><trkpt lat="43.3466533" lon="13.1984667"><ele>607.5</ele><time>2026-05-02T09:28:33.922Z</time></trkpt><trkpt lat="43.346675" lon="13.1985617"><ele>607.6666666666666</ele><time>2026-05-02T09:28:35.923Z</time></trkpt><trkpt lat="43.346685" lon="13.1987233"><ele>607.8333333333333</ele><time>2026-05-02T09:28:37.922Z</time></trkpt><trkpt lat="43.3466933" lon="13.1988267"><ele>608.0</ele><time>2026-05-02T09:28:38.922Z</time></trkpt><trkpt lat="43.3467017" lon="13.198945"><ele>608.6</ele><time>2026-05-02T09:28:39.922Z</time></trkpt><trkpt lat="43.3467183" lon="13.1990733"><ele>609.1999999999999</ele><time>2026-05-02T09:28:40.922Z</time></trkpt><trkpt lat="43.346735" lon="13.1992083"><ele>609.8</ele><time>2026-05-02T09:28:41.922Z</time></trkpt><trkpt lat="43.34675" lon="13.1993517"><ele>610.4</ele><time>2026-05-02T09:28:42.922Z</time></trkpt><trkpt lat="43.3467667" lon="13.1995033"><ele>611.0</ele><time>2026-05-02T09:28:43.923Z</time></trkpt><trkpt lat="43.34678" lon="13.1996467"><ele>611.0</ele><time>2026-05-02T09:28:44.922Z</time></trkpt><trkpt lat="43.34679" lon="13.1997917"><ele>611.0</ele><time>2026-05-02T09:28:45.922Z</time></trkpt><trkpt lat="43.3468" lon="13.1999383"><ele>611.0</ele><time>2026-05-02T09:28:46.922Z</time></trkpt><trkpt lat="43.3468033" lon="13.2000933"><ele>611.0</ele><time>2026-05-02T09:28:47.922Z</time></trkpt><trkpt lat="43.3468" lon="13.2002317"><ele>611.0</ele><time>2026-05-02T09:28:48.922Z</time></trkpt><trkpt lat="43.3467917" lon="13.2003583"><ele>610.6</ele><time>2026-05-02T09:28:49.922Z</time></trkpt><trkpt lat="43.346785" lon="13.2004733"><ele>610.2</ele><time>2026-05-02T09:28:50.922Z</time></trkpt><trkpt lat="43.3467583" lon="13.20061"><ele>609.8</ele><time>2026-05-02T09:28:51.922Z</time></trkpt><trkpt lat="43.3467283" lon="13.2007617"><ele>609.4</ele><time>2026-05-02T09:28:52.922Z</time></trkpt><trkpt lat="43.3467" lon="13.200935"><ele>609.0</ele><time>2026-05-02T09:28:53.922Z</time></trkpt><trkpt lat="43.3466783" lon="13.201115"><ele>609.0</ele><time>2026-05-02T09:28:54.922Z</time></trkpt><trkpt lat="43.3466533" lon="13.2012983"><ele>609.0</ele><time>2026-05-02T09:28:55.922Z</time></trkpt><trkpt lat="43.346635" lon="13.2014667"><ele>609.0</ele><time>2026-05-02T09:28:56.923Z</time></trkpt><trkpt lat="43.3466117" lon="13.2016167"><ele>609.0</ele><time>2026-05-02T09:28:57.922Z</time></trkpt><trkpt lat="43.3465917" lon="13.2017617"><ele>609.0</ele><time>2026-05-02T09:28:58.922Z</time></trkpt><trkpt lat="43.3465683" lon="13.201905"><ele>609.0</ele><time>2026-05-02T09:28:59.922Z</time></trkpt><trkpt lat="43.3465467" lon="13.2020433"><ele>609.0</ele><time>2026-05-02T09:29:00.922Z</time></trkpt><trkpt lat="43.3465267" lon="13.2021717"><ele>609.0</ele><time>2026-05-02T09:29:01.923Z</time></trkpt><trkpt lat="43.34651" lon="13.2022783"><ele>609.0</ele><time>2026-05-02T09:29:02.922Z</time></trkpt><trkpt lat="43.346495" lon="13.2023917"><ele>609.2</ele><time>2026-05-02T09:29:03.922Z</time></trkpt><trkpt lat="43.3464767" lon="13.2025017"><ele>609.4</ele><time>2026-05-02T09:29:04.922Z</time></trkpt><trkpt lat="43.346455" lon="13.2026183"><ele>609.6</ele><time>2026-05-02T09:29:05.922Z</time></trkpt><trkpt lat="43.3464217" lon="13.20275"><ele>609.8</ele><time>2026-05-02T09:29:06.922Z</time></trkpt><trkpt lat="43.34639" lon="13.2028933"><ele>610.0</ele><time>2026-05-02T09:29:07.922Z</time></trkpt><trkpt lat="43.34636" lon="13.2030467"><ele>605.0</ele><time>2026-05-02T09:29:08.923Z</time></trkpt><trkpt lat="43.34633" lon="13.20322"><ele>600.0</ele><time>2026-05-02T09:29:09.922Z</time></trkpt><trkpt lat="43.3463" lon="13.2034033"><ele>595.0</ele><time>2026-05-02T09:29:10.922Z</time></trkpt><trkpt lat="43.34627" lon="13.2035983"><ele>590.0</ele><time>2026-05-02T09:29:11.922Z</time></trkpt><trkpt lat="43.34624" lon="13.2037883"><ele>590.0</ele><time>2026-05-02T09:29:12.922Z</time></trkpt><trkpt lat="43.3462083" lon="13.2039683"><ele>590.0</ele><time>2026-05-02T09:29:13.923Z</time></trkpt><trkpt lat="43.346175" lon="13.2041383"><ele>590.0</ele><time>2026-05-02T09:29:14.922Z</time></trkpt><trkpt lat="43.34613" lon="13.204345"><ele>590.0</ele><time>2026-05-02T09:29:15.922Z</time></trkpt><trkpt lat="43.346085" lon="13.2045417"><ele>590.0</ele><time>2026-05-02T09:29:16.922Z</time></trkpt><trkpt lat="43.3460483" lon="13.204715"><ele>590.0</ele><time>2026-05-02T09:29:17.923Z</time></trkpt><trkpt lat="43.3460183" lon="13.2048883"><ele>590.0</ele><time>2026-05-02T09:29:18.922Z</time></trkpt><trkpt lat="43.346005" lon="13.20505"><ele>590.0</ele><time>2026-05-02T09:29:19.922Z</time></trkpt><trkpt lat="43.345985" lon="13.20521"><ele>590.0</ele><time>2026-05-02T09:29:20.922Z</time></trkpt><trkpt lat="43.34596" lon="13.205365"><ele>590.0</ele><time>2026-05-02T09:29:21.923Z</time></trkpt><trkpt lat="43.3459317" lon="13.2055333"><ele>590.0</ele><time>2026-05-02T09:29:22.922Z</time></trkpt><trkpt lat="43.345895" lon="13.2057233"><ele>590.0</ele><time>2026-05-02T09:29:23.922Z</time></trkpt><trkpt lat="43.3458517" lon="13.2059217"><ele>590.75</ele><time>2026-05-02T09:29:24.923Z</time></trkpt><trkpt lat="43.3458167" lon="13.2061133"><ele>591.5</ele><time>2026-05-02T09:29:25.922Z</time></trkpt><trkpt lat="43.34578" lon="13.2062917"><ele>592.25</ele><time>2026-05-02T09:29:26.923Z</time></trkpt><trkpt lat="43.3457433" lon="13.2064517"><ele>593.0</ele><time>2026-05-02T09:29:27.922Z</time></trkpt><trkpt lat="43.3457" lon="13.2066233"><ele>594.75</ele><time>2026-05-02T09:29:28.922Z</time></trkpt><trkpt lat="43.3456533" lon="13.2067817"><ele>596.5</ele><time>2026-05-02T09:29:29.923Z</time></trkpt><trkpt lat="43.345605" lon="13.20693"><ele>598.25</ele><time>2026-05-02T09:29:30.922Z</time></trkpt><trkpt lat="43.34555" lon="13.207065"><ele>600.0</ele><time>2026-05-02T09:29:31.922Z</time></trkpt><trkpt lat="43.3455033" lon="13.207185"><ele>597.6</ele><time>2026-05-02T09:29:32.922Z</time></trkpt><trkpt lat="43.3454583" lon="13.2072917"><ele>595.2</ele><time>2026-05-02T09:29:33.922Z</time></trkpt><trkpt lat="43.3454117" lon="13.2073667"><ele>592.8</ele><time>2026-05-02T09:29:34.923Z</time></trkpt><trkpt lat="43.34532" lon="13.2074667"><ele>590.4</ele><time>2026-05-02T09:29:36.922Z</time></trkpt><trkpt lat="43.3452283" lon="13.2075383"><ele>588.0</ele><time>2026-05-02T09:29:38.923Z</time></trkpt><trkpt lat="43.3451317" lon="13.207615"><ele>588.0</ele><time>2026-05-02T09:29:40.922Z</time></trkpt><trkpt lat="43.345035" lon="13.2077017"><ele>588.0</ele><time>2026-05-02T09:29:42.923Z</time></trkpt><trkpt lat="43.3449367" lon="13.207785"><ele>588.0</ele><time>2026-05-02T09:29:44.922Z</time></trkpt><trkpt lat="43.344865" lon="13.2078917"><ele>588.0</ele><time>2026-05-02T09:29:46.922Z</time></trkpt><trkpt lat="43.3448483" lon="13.2079817"><ele>588.0</ele><time>2026-05-02T09:29:48.922Z</time></trkpt><trkpt lat="43.3448883" lon="13.2080667"><ele>588.0</ele><time>2026-05-02T09:29:52.922Z</time></trkpt><trkpt lat="43.3449583" lon="13.2081183"><ele>588.0</ele><time>2026-05-02T09:29:55.922Z</time></trkpt><trkpt lat="43.3450433" lon="13.2081683"><ele>588.0</ele><time>2026-05-02T09:29:57.922Z</time></trkpt><trkpt lat="43.3451017" lon="13.208205"><ele>588.0</ele><time>2026-05-02T09:29:58.922Z</time></trkpt><trkpt lat="43.3451767" lon="13.2082467"><ele>588.0</ele><time>2026-05-02T09:29:59.922Z</time></trkpt><trkpt lat="43.3452567" lon="13.2083067"><ele>588.0</ele><time>2026-05-02T09:30:00.922Z</time></trkpt><trkpt lat="43.34534" lon="13.2083717"><ele>589.75</ele><time>2026-05-02T09:30:01.923Z</time></trkpt><trkpt lat="43.3454233" lon="13.2084667"><ele>591.5</ele><time>2026-05-02T09:30:02.922Z</time></trkpt><trkpt lat="43.3455083" lon="13.208565"><ele>593.25</ele><time>2026-05-02T09:30:03.922Z</time></trkpt><trkpt lat="43.3456033" lon="13.2086833"><ele>595.0</ele><time>2026-05-02T09:30:04.922Z</time></trkpt><trkpt lat="43.3457133" lon="13.2088067"><ele>599.5</ele><time>2026-05-02T09:30:05.922Z</time></trkpt><trkpt lat="43.3458117" lon="13.2089167"><ele>604.0</ele><time>2026-05-02T09:30:06.922Z</time></trkpt><trkpt lat="43.3459167" lon="13.20902"><ele>608.5</ele><time>2026-05-02T09:30:07.922Z</time></trkpt><trkpt lat="43.346015" lon="13.2091083"><ele>613.0</ele><time>2026-05-02T09:30:08.923Z</time></trkpt><trkpt lat="43.3461" lon="13.20919"><ele>614.8</ele><time>2026-05-02T09:30:09.922Z</time></trkpt><trkpt lat="43.346195" lon="13.209275"><ele>616.5999999999999</ele><time>2026-05-02T09:30:10.922Z</time></trkpt><trkpt lat="43.3462917" lon="13.20935"><ele>618.4000000000001</ele><time>2026-05-02T09:30:11.922Z</time></trkpt><trkpt lat="43.3463767" lon="13.2094283"><ele>620.2</ele><time>2026-05-02T09:30:12.922Z</time></trkpt><trkpt lat="43.346485" lon="13.2095017"><ele>622.0</ele><time>2026-05-02T09:30:13.923Z</time></trkpt><trkpt lat="43.3465717" lon="13.20958"><ele>624.3333333333334</ele><time>2026-05-02T09:30:14.922Z</time></trkpt><trkpt lat="43.346655" lon="13.2096517"><ele>626.6666666666667</ele><time>2026-05-02T09:30:15.922Z</time></trkpt><trkpt lat="43.346715" lon="13.2097283"><ele>629.0</ele><time>2026-05-02T09:30:16.922Z</time></trkpt><trkpt lat="43.3467633" lon="13.209815"><ele>631.3333333333334</ele><time>2026-05-02T09:30:17.922Z</time></trkpt><trkpt lat="43.3468033" lon="13.2098983"><ele>633.6666666666666</ele><time>2026-05-02T09:30:18.923Z</time></trkpt><trkpt lat="43.34684" lon="13.2099717"><ele>636.0</ele><time>2026-05-02T09:30:19.922Z</time></trkpt><trkpt lat="43.3468883" lon="13.210035"><ele>637.5714285714286</ele><time>2026-05-02T09:30:20.922Z</time></trkpt><trkpt lat="43.3469317" lon="13.2101033"><ele>639.1428571428572</ele><time>2026-05-02T09:30:21.922Z</time></trkpt><trkpt lat="43.3469767" lon="13.2101667"><ele>640.7142857142858</ele><time>2026-05-02T09:30:22.922Z</time></trkpt><trkpt lat="43.3470333" lon="13.2102083"><ele>642.2857142857142</ele><time>2026-05-02T09:30:23.922Z</time></trkpt><trkpt lat="43.3471033" lon="13.21023"><ele>643.8571428571429</ele><time>2026-05-02T09:30:24.922Z</time></trkpt><trkpt lat="43.34718" lon="13.2102367"><ele>645.4285714285714</ele><time>2026-05-02T09:30:25.923Z</time></trkpt><trkpt lat="43.3472467" lon="13.2102283"><ele>647.0</ele><time>2026-05-02T09:30:26.922Z</time></trkpt><trkpt lat="43.3473467" lon="13.2102667"><ele>650.0</ele><time>2026-05-02T09:30:28.922Z</time></trkpt><trkpt lat="43.347455" lon="13.2103483"><ele>653.0</ele><time>2026-05-02T09:30:30.922Z</time></trkpt><trkpt lat="43.3475167" lon="13.210395"><ele>656.0</ele><time>2026-05-02T09:30:31.922Z</time></trkpt><trkpt lat="43.34757" lon="13.2104567"><ele>659.0</ele><time>2026-05-02T09:30:32.922Z</time></trkpt><trkpt lat="43.347615" lon="13.210525"><ele>662.0</ele><time>2026-05-02T09:30:33.922Z</time></trkpt><trkpt lat="43.3476917" lon="13.2106667"><ele>663.8</ele><time>2026-05-02T09:30:35.922Z</time></trkpt><trkpt lat="43.3477433" lon="13.2107283"><ele>665.6</ele><time>2026-05-02T09:30:36.922Z</time></trkpt><trkpt lat="43.3477833" lon="13.2107967"><ele>667.4</ele><time>2026-05-02T09:30:37.923Z</time></trkpt><trkpt lat="43.3478583" lon="13.2108967"><ele>669.1999999999999</ele><time>2026-05-02T09:30:39.922Z</time></trkpt><trkpt lat="43.3479217" lon="13.21103"><ele>671.0</ele><time>2026-05-02T09:30:41.922Z</time></trkpt><trkpt lat="43.3480017" lon="13.2111433"><ele>673.8571428571428</ele><time>2026-05-02T09:30:43.922Z</time></trkpt><trkpt lat="43.34805" lon="13.2112017"><ele>676.7142857142858</ele><time>2026-05-02T09:30:44.922Z</time></trkpt><trkpt lat="43.348095" lon="13.211265"><ele>679.5714285714286</ele><time>2026-05-02T09:30:45.922Z</time></trkpt><trkpt lat="43.3481467" lon="13.211315"><ele>682.4285714285713</ele><time>2026-05-02T09:30:46.922Z</time></trkpt><trkpt lat="43.3482083" lon="13.2113533"><ele>685.2857142857142</ele><time>2026-05-02T09:30:47.922Z</time></trkpt><trkpt lat="43.3482717" lon="13.2113983"><ele>688.1428571428571</ele><time>2026-05-02T09:30:48.922Z</time></trkpt><trkpt lat="43.3483267" lon="13.2114517"><ele>691.0</ele><time>2026-05-02T09:30:49.922Z</time></trkpt><trkpt lat="43.34838" lon="13.2115083"><ele>691.3333333333334</ele><time>2026-05-02T09:30:50.922Z</time></trkpt><trkpt lat="43.3484317" lon="13.211565"><ele>691.6666666666667</ele><time>2026-05-02T09:30:51.922Z</time></trkpt><trkpt lat="43.3484917" lon="13.2116133"><ele>692.0</ele><time>2026-05-02T09:30:52.922Z</time></trkpt><trkpt lat="43.3485533" lon="13.2116633"><ele>692.3333333333334</ele><time>2026-05-02T09:30:53.923Z</time></trkpt><trkpt lat="43.34861" lon="13.211725"><ele>692.6666666666666</ele><time>2026-05-02T09:30:54.922Z</time></trkpt><trkpt lat="43.3486983" lon="13.2118567"><ele>693.0</ele><time>2026-05-02T09:30:56.923Z</time></trkpt><trkpt lat="43.348745" lon="13.2119467"><ele>693.0</ele><time>2026-05-02T09:30:57.922Z</time></trkpt><trkpt lat="43.3487817" lon="13.2120333"><ele>693.0</ele><time>2026-05-02T09:30:58.922Z</time></trkpt><trkpt lat="43.348835" lon="13.212115"><ele>693.0</ele><time>2026-05-02T09:30:59.922Z</time></trkpt><trkpt lat="43.3488933" lon="13.2121867"><ele>693.0</ele><time>2026-05-02T09:31:00.922Z</time></trkpt><trkpt lat="43.3489533" lon="13.21226"><ele>693.0</ele><time>2026-05-02T09:31:01.922Z</time></trkpt><trkpt lat="43.34901" lon="13.2123317"><ele>693.0</ele><time>2026-05-02T09:31:02.922Z</time></trkpt><trkpt lat="43.3490683" lon="13.2124067"><ele>696.0</ele><time>2026-05-02T09:31:03.922Z</time></trkpt><trkpt lat="43.3491287" lon="13.2124869"><ele>699.0</ele><time>2026-05-02T09:31:04.922Z</time></trkpt><trkpt lat="43.3491801" lon="13.212569"><ele>702.0</ele><time>2026-05-02T09:31:05.922Z</time></trkpt><trkpt lat="43.349228" lon="13.212654"><ele>705.0</ele><time>2026-05-02T09:31:06.922Z</time></trkpt><trkpt lat="43.3492695" lon="13.2127414"><ele>708.0</ele><time>2026-05-02T09:31:07.922Z</time></trkpt><trkpt lat="43.3493043" lon="13.2128432"><ele>711.0</ele><time>2026-05-02T09:31:08.922Z</time></trkpt><trkpt lat="43.3493382" lon="13.2129508"><ele>711.0</ele><time>2026-05-02T09:31:09.923Z</time></trkpt><trkpt lat="43.3493757" lon="13.2130536"><ele>711.0</ele><time>2026-05-02T09:31:10.922Z</time></trkpt><trkpt lat="43.3494271" lon="13.2131597"><ele>711.0</ele><time>2026-05-02T09:31:11.922Z</time></trkpt><trkpt lat="43.3494904" lon="13.2132789"><ele>711.0</ele><time>2026-05-02T09:31:12.922Z</time></trkpt><trkpt lat="43.3495659" lon="13.2134096"><ele>711.0</ele><time>2026-05-02T09:31:13.922Z</time></trkpt><trkpt lat="43.3496474" lon="13.2135386"><ele>714.5999999999999</ele><time>2026-05-02T09:31:14.922Z</time></trkpt><trkpt lat="43.3497247" lon="13.213659"><ele>718.2</ele><time>2026-05-02T09:31:15.923Z</time></trkpt><trkpt lat="43.3497992" lon="13.213759"><ele>721.8</ele><time>2026-05-02T09:31:16.922Z</time></trkpt><trkpt lat="43.3498667" lon="13.2138322"><ele>725.4000000000001</ele><time>2026-05-02T09:31:17.922Z</time></trkpt><trkpt lat="43.3499227" lon="13.2138917"><ele>729.0</ele><time>2026-05-02T09:31:18.922Z</time></trkpt><trkpt lat="43.349981" lon="13.213979"><ele>728.3333333333334</ele><time>2026-05-02T09:31:20.923Z</time></trkpt><trkpt lat="43.3500217" lon="13.2140585"><ele>727.6666666666666</ele><time>2026-05-02T09:31:22.922Z</time></trkpt><trkpt lat="43.3500846" lon="13.2141176"><ele>727.0</ele><time>2026-05-02T09:31:24.923Z</time></trkpt><trkpt lat="43.3501621" lon="13.2141883"><ele>726.3333333333333</ele><time>2026-05-02T09:31:26.922Z</time></trkpt><trkpt lat="43.3502587" lon="13.2142857"><ele>725.6666666666666</ele><time>2026-05-02T09:31:28.922Z</time></trkpt><trkpt lat="43.3503074" lon="13.2143479"><ele>725.0</ele><time>2026-05-02T09:31:29.922Z</time></trkpt><trkpt lat="43.3503615" lon="13.2144203"><ele>725.0</ele><time>2026-05-02T09:31:30.922Z</time></trkpt><trkpt lat="43.3504199" lon="13.2144974"><ele>725.0</ele><time>2026-05-02T09:31:31.922Z</time></trkpt><trkpt lat="43.3504815" lon="13.2145917"><ele>725.0</ele><time>2026-05-02T09:31:32.922Z</time></trkpt><trkpt lat="43.3505474" lon="13.2147004"><ele>725.0</ele><time>2026-05-02T09:31:33.922Z</time></trkpt><trkpt lat="43.3506157" lon="13.2148014"><ele>725.0</ele><time>2026-05-02T09:31:34.922Z</time></trkpt><trkpt lat="43.350686" lon="13.2148841"><ele>726.0</ele><time>2026-05-02T09:31:35.922Z</time></trkpt><trkpt lat="43.350767" lon="13.2149488"><ele>727.0</ele><time>2026-05-02T09:31:36.922Z</time></trkpt><trkpt lat="43.3508532" lon="13.2149756"><ele>728.0</ele><time>2026-05-02T09:31:37.922Z</time></trkpt><trkpt lat="43.3509324" lon="13.2149855"><ele>729.0</ele><time>2026-05-02T09:31:38.922Z</time></trkpt><trkpt lat="43.3510379" lon="13.2149404"><ele>730.0</ele><time>2026-05-02T09:31:40.922Z</time></trkpt><trkpt lat="43.3511103" lon="13.2148106"><ele>731.1666666666667</ele><time>2026-05-02T09:31:42.922Z</time></trkpt><trkpt lat="43.3511099" lon="13.2147105"><ele>732.3333333333334</ele><time>2026-05-02T09:31:43.922Z</time></trkpt><trkpt lat="43.3510888" lon="13.2146074"><ele>733.5</ele><time>2026-05-02T09:31:44.923Z</time></trkpt><trkpt lat="43.3510495" lon="13.2144956"><ele>734.6666666666666</ele><time>2026-05-02T09:31:45.922Z</time></trkpt><trkpt lat="43.3510008" lon="13.2143796"><ele>735.8333333333333</ele><time>2026-05-02T09:31:46.922Z</time></trkpt><trkpt lat="43.3509557" lon="13.2142642"><ele>737.0</ele><time>2026-05-02T09:31:47.922Z</time></trkpt><trkpt lat="43.3509079" lon="13.2141403"><ele>737.0</ele><time>2026-05-02T09:31:48.923Z</time></trkpt><trkpt lat="43.350865" lon="13.2140055"><ele>737.0</ele><time>2026-05-02T09:31:49.922Z</time></trkpt><trkpt lat="43.3508261" lon="13.2138719"><ele>737.0</ele><time>2026-05-02T09:31:50.922Z</time></trkpt><trkpt lat="43.3507897" lon="13.2137277"><ele>737.0</ele><time>2026-05-02T09:31:51.922Z</time></trkpt><trkpt lat="43.3507489" lon="13.2135786"><ele>737.0</ele><time>2026-05-02T09:31:52.922Z</time></trkpt><trkpt lat="43.3507051" lon="13.2134287"><ele>738.25</ele><time>2026-05-02T09:31:53.922Z</time></trkpt><trkpt lat="43.3506606" lon="13.2132781"><ele>739.5</ele><time>2026-05-02T09:31:54.922Z</time></trkpt><trkpt lat="43.3506051" lon="13.2131301"><ele>740.75</ele><time>2026-05-02T09:31:55.922Z</time></trkpt><trkpt lat="43.3505403" lon="13.2129855"><ele>742.0</ele><time>2026-05-02T09:31:56.922Z</time></trkpt><trkpt lat="43.3504683" lon="13.2128308"><ele>742.0</ele><time>2026-05-02T09:31:57.923Z</time></trkpt><trkpt lat="43.3504043" lon="13.2126571"><ele>742.0</ele><time>2026-05-02T09:31:58.922Z</time></trkpt><trkpt lat="43.3503202" lon="13.2125005"><ele>742.0</ele><time>2026-05-02T09:31:59.922Z</time></trkpt><trkpt lat="43.3502355" lon="13.2123343"><ele>742.0</ele><time>2026-05-02T09:32:00.922Z</time></trkpt><trkpt lat="43.3501631" lon="13.2121672"><ele>744.75</ele><time>2026-05-02T09:32:01.922Z</time></trkpt><trkpt lat="43.3500919" lon="13.2120022"><ele>747.5</ele><time>2026-05-02T09:32:02.922Z</time></trkpt><trkpt lat="43.3500254" lon="13.2118366"><ele>750.25</ele><time>2026-05-02T09:32:03.923Z</time></trkpt><trkpt lat="43.3499621" lon="13.2116671"><ele>753.0</ele><time>2026-05-02T09:32:04.922Z</time></trkpt><trkpt lat="43.3499116" lon="13.2114951"><ele>755.5</ele><time>2026-05-02T09:32:05.922Z</time></trkpt><trkpt lat="43.3498763" lon="13.2113125"><ele>758.0</ele><time>2026-05-02T09:32:06.922Z</time></trkpt><trkpt lat="43.3498514" lon="13.2111226"><ele>760.5</ele><time>2026-05-02T09:32:07.922Z</time></trkpt><trkpt lat="43.3498324" lon="13.2109325"><ele>763.0</ele><time>2026-05-02T09:32:08.922Z</time></trkpt><trkpt lat="43.3498126" lon="13.2107549"><ele>763.25</ele><time>2026-05-02T09:32:09.923Z</time></trkpt><trkpt lat="43.3498133" lon="13.2105678"><ele>763.5</ele><time>2026-05-02T09:32:10.922Z</time></trkpt><trkpt lat="43.3498383" lon="13.2103672"><ele>763.75</ele><time>2026-05-02T09:32:11.922Z</time></trkpt><trkpt lat="43.3498602" lon="13.2101819"><ele>764.0</ele><time>2026-05-02T09:32:12.922Z</time></trkpt><trkpt lat="43.3498619" lon="13.2100051"><ele>764.0</ele><time>2026-05-02T09:32:13.923Z</time></trkpt><trkpt lat="43.3498502" lon="13.2098354"><ele>764.0</ele><time>2026-05-02T09:32:14.922Z</time></trkpt><trkpt lat="43.3498405" lon="13.2096647"><ele>764.0</ele><time>2026-05-02T09:32:15.922Z</time></trkpt><trkpt lat="43.3498223" lon="13.2094834"><ele>764.0</ele><time>2026-05-02T09:32:16.923Z</time></trkpt><trkpt lat="43.3498" lon="13.2093078"><ele>763.5</ele><time>2026-05-02T09:32:17.922Z</time></trkpt><trkpt lat="43.3497592" lon="13.2091406"><ele>763.0</ele><time>2026-05-02T09:32:18.922Z</time></trkpt><trkpt lat="43.3497163" lon="13.2089822"><ele>762.5</ele><time>2026-05-02T09:32:19.922Z</time></trkpt><trkpt lat="43.3496727" lon="13.2088205"><ele>762.0</ele><time>2026-05-02T09:32:20.922Z</time></trkpt><trkpt lat="43.349616" lon="13.2086519"><ele>758.25</ele><time>2026-05-02T09:32:21.922Z</time></trkpt><trkpt lat="43.3495623" lon="13.208466"><ele>754.5</ele><time>2026-05-02T09:32:22.922Z</time></trkpt><trkpt lat="43.3495219" lon="13.2082698"><ele>750.75</ele><time>2026-05-02T09:32:23.922Z</time></trkpt><trkpt lat="43.3494931" lon="13.2080747"><ele>747.0</ele><time>2026-05-02T09:32:24.922Z</time></trkpt><trkpt lat="43.3494738" lon="13.2078739"><ele>746.0</ele><time>2026-05-02T09:32:25.923Z</time></trkpt><trkpt lat="43.3494568" lon="13.2076762"><ele>745.0</ele><time>2026-05-02T09:32:26.922Z</time></trkpt><trkpt lat="43.3494437" lon="13.2074764"><ele>744.0</ele><time>2026-05-02T09:32:27.922Z</time></trkpt><trkpt lat="43.3494348" lon="13.2072849"><ele>743.0</ele><time>2026-05-02T09:32:28.923Z</time></trkpt><trkpt lat="43.3494236" lon="13.2071049"><ele>742.75</ele><time>2026-05-02T09:32:29.922Z</time></trkpt><trkpt lat="43.3494053" lon="13.2069258"><ele>742.5</ele><time>2026-05-02T09:32:30.922Z</time></trkpt><trkpt lat="43.3493804" lon="13.2067417"><ele>742.25</ele><time>2026-05-02T09:32:31.922Z</time></trkpt><trkpt lat="43.3493563" lon="13.2065482"><ele>742.0</ele><time>2026-05-02T09:32:32.922Z</time></trkpt><trkpt lat="43.3493371" lon="13.2063462"><ele>742.0</ele><time>2026-05-02T09:32:33.922Z</time></trkpt><trkpt lat="43.3493112" lon="13.2061408"><ele>742.0</ele><time>2026-05-02T09:32:34.922Z</time></trkpt><trkpt lat="43.3492866" lon="13.205932"><ele>742.0</ele><time>2026-05-02T09:32:35.922Z</time></trkpt><trkpt lat="43.3492632" lon="13.2057136"><ele>740.6666666666667</ele><time>2026-05-02T09:32:36.922Z</time></trkpt><trkpt lat="43.3492377" lon="13.2055004"><ele>739.3333333333334</ele><time>2026-05-02T09:32:37.922Z</time></trkpt><trkpt lat="43.3492168" lon="13.2052917"><ele>738.0</ele><time>2026-05-02T09:32:38.922Z</time></trkpt><trkpt lat="43.3491985" lon="13.2050841"><ele>738.0</ele><time>2026-05-02T09:32:39.922Z</time></trkpt><trkpt lat="43.3491754" lon="13.2048794"><ele>738.0</ele><time>2026-05-02T09:32:40.922Z</time></trkpt><trkpt lat="43.3491513" lon="13.2046738"><ele>738.0</ele><time>2026-05-02T09:32:41.922Z</time></trkpt><trkpt lat="43.3491295" lon="13.2044649"><ele>737.75</ele><time>2026-05-02T09:32:42.922Z</time></trkpt><trkpt lat="43.3491099" lon="13.2042572"><ele>737.5</ele><time>2026-05-02T09:32:43.922Z</time></trkpt><trkpt lat="43.3490976" lon="13.2040669"><ele>737.25</ele><time>2026-05-02T09:32:44.922Z</time></trkpt><trkpt lat="43.3490987" lon="13.2038871"><ele>737.0</ele><time>2026-05-02T09:32:45.922Z</time></trkpt><trkpt lat="43.3491044" lon="13.2037167"><ele>736.6</ele><time>2026-05-02T09:32:46.923Z</time></trkpt><trkpt lat="43.3491096" lon="13.2035608"><ele>736.2</ele><time>2026-05-02T09:32:47.923Z</time></trkpt><trkpt lat="43.3491162" lon="13.2034165"><ele>735.8</ele><time>2026-05-02T09:32:48.922Z</time></trkpt><trkpt lat="43.349119" lon="13.2032716"><ele>735.4</ele><time>2026-05-02T09:32:49.922Z</time></trkpt><trkpt lat="43.3491206" lon="13.2031317"><ele>735.0</ele><time>2026-05-02T09:32:50.923Z</time></trkpt><trkpt lat="43.3491146" lon="13.202986"><ele>734.4</ele><time>2026-05-02T09:32:51.922Z</time></trkpt><trkpt lat="43.349101" lon="13.202836"><ele>733.8</ele><time>2026-05-02T09:32:52.922Z</time></trkpt><trkpt lat="43.3490813" lon="13.2026857"><ele>733.2</ele><time>2026-05-02T09:32:53.923Z</time></trkpt><trkpt lat="43.3490536" lon="13.2025409"><ele>732.6</ele><time>2026-05-02T09:32:54.922Z</time></trkpt><trkpt lat="43.3490281" lon="13.2023937"><ele>732.0</ele><time>2026-05-02T09:32:55.922Z</time></trkpt><trkpt lat="43.3490087" lon="13.2022494"><ele>731.25</ele><time>2026-05-02T09:32:56.922Z</time></trkpt><trkpt lat="43.3489832" lon="13.2020946"><ele>730.5</ele><time>2026-05-02T09:32:57.923Z</time></trkpt><trkpt lat="43.34896" lon="13.2019374"><ele>729.75</ele><time>2026-05-02T09:32:58.923Z</time></trkpt><trkpt lat="43.3489444" lon="13.2017693"><ele>729.0</ele><time>2026-05-02T09:32:59.922Z</time></trkpt><trkpt lat="43.3489332" lon="13.2015964"><ele>727.5</ele><time>2026-05-02T09:33:00.922Z</time></trkpt><trkpt lat="43.3489311" lon="13.2014197"><ele>726.0</ele><time>2026-05-02T09:33:01.922Z</time></trkpt><trkpt lat="43.3489315" lon="13.2012408"><ele>724.5</ele><time>2026-05-02T09:33:02.922Z</time></trkpt><trkpt lat="43.3489296" lon="13.2010663"><ele>723.0</ele><time>2026-05-02T09:33:03.922Z</time></trkpt><trkpt lat="43.3489263" lon="13.2008984"><ele>723.0</ele><time>2026-05-02T09:33:04.922Z</time></trkpt><trkpt lat="43.3489193" lon="13.2007416"><ele>723.0</ele><time>2026-05-02T09:33:05.922Z</time></trkpt><trkpt lat="43.348914" lon="13.2005942"><ele>723.0</ele><time>2026-05-02T09:33:06.922Z</time></trkpt><trkpt lat="43.3489053" lon="13.2004568"><ele>723.0</ele><time>2026-05-02T09:33:07.922Z</time></trkpt><trkpt lat="43.3488919" lon="13.2003321"><ele>723.0</ele><time>2026-05-02T09:33:08.922Z</time></trkpt><trkpt lat="43.3488795" lon="13.200206"><ele>715.8</ele><time>2026-05-02T09:33:09.922Z</time></trkpt><trkpt lat="43.3488687" lon="13.2000681"><ele>708.5999999999999</ele><time>2026-05-02T09:33:10.922Z</time></trkpt><trkpt lat="43.3488571" lon="13.1999177"><ele>701.4000000000001</ele><time>2026-05-02T09:33:11.922Z</time></trkpt><trkpt lat="43.3488442" lon="13.1997607"><ele>694.2</ele><time>2026-05-02T09:33:12.923Z</time></trkpt><trkpt lat="43.3488338" lon="13.1995923"><ele>687.0</ele><time>2026-05-02T09:33:13.922Z</time></trkpt><trkpt lat="43.3488269" lon="13.1994289"><ele>685.75</ele><time>2026-05-02T09:33:14.923Z</time></trkpt><trkpt lat="43.3488247" lon="13.1992604"><ele>684.5</ele><time>2026-05-02T09:33:15.922Z</time></trkpt><trkpt lat="43.3488275" lon="13.1990959"><ele>683.25</ele><time>2026-05-02T09:33:16.922Z</time></trkpt><trkpt lat="43.3488311" lon="13.1989418"><ele>682.0</ele><time>2026-05-02T09:33:17.922Z</time></trkpt><trkpt lat="43.348835" lon="13.1987967"><ele>681.0</ele><time>2026-05-02T09:33:18.922Z</time></trkpt><trkpt lat="43.3488317" lon="13.1986483"><ele>680.0</ele><time>2026-05-02T09:33:19.922Z</time></trkpt><trkpt lat="43.3488217" lon="13.198505"><ele>679.0</ele><time>2026-05-02T09:33:20.922Z</time></trkpt><trkpt lat="43.348815" lon="13.198345"><ele>678.0</ele><time>2026-05-02T09:33:21.922Z</time></trkpt><trkpt lat="43.34882" lon="13.1981883"><ele>677.0</ele><time>2026-05-02T09:33:22.922Z</time></trkpt><trkpt lat="43.34883" lon="13.19804"><ele>676.4000000000001</ele><time>2026-05-02T09:33:23.922Z</time></trkpt><trkpt lat="43.3488417" lon="13.1978883"><ele>675.8000000000001</ele><time>2026-05-02T09:33:24.922Z</time></trkpt><trkpt lat="43.3488567" lon="13.197745"><ele>675.2</ele><time>2026-05-02T09:33:25.923Z</time></trkpt><trkpt lat="43.3488667" lon="13.197605"><ele>674.6</ele><time>2026-05-02T09:33:26.922Z</time></trkpt><trkpt lat="43.3488583" lon="13.19746"><ele>674.0</ele><time>2026-05-02T09:33:27.922Z</time></trkpt><trkpt lat="43.34886" lon="13.1973267"><ele>672.6666666666666</ele><time>2026-05-02T09:33:28.923Z</time></trkpt><trkpt lat="43.3488517" lon="13.19719"><ele>671.3333333333333</ele><time>2026-05-02T09:33:29.923Z</time></trkpt><trkpt lat="43.348865" lon="13.197065"><ele>670.0</ele><time>2026-05-02T09:33:30.923Z</time></trkpt><trkpt lat="43.3488917" lon="13.19695"><ele>668.6666666666666</ele><time>2026-05-02T09:33:31.923Z</time></trkpt><trkpt lat="43.3489283" lon="13.1968383"><ele>667.3333333333334</ele><time>2026-05-02T09:33:32.922Z</time></trkpt><trkpt lat="43.3489817" lon="13.1967617"><ele>666.0</ele><time>2026-05-02T09:33:33.922Z</time></trkpt><trkpt lat="43.34904" lon="13.1966967"><ele>670.3333333333334</ele><time>2026-05-02T09:33:34.922Z</time></trkpt><trkpt lat="43.3491383" lon="13.1966667"><ele>674.6666666666666</ele><time>2026-05-02T09:33:36.922Z</time></trkpt><trkpt lat="43.3492033" lon="13.1966483"><ele>679.0</ele><time>2026-05-02T09:33:39.922Z</time></trkpt><trkpt lat="43.349215" lon="13.19654"><ele>683.3333333333333</ele><time>2026-05-02T09:33:47.922Z</time></trkpt><trkpt lat="43.3492267" lon="13.1964333"><ele>687.6666666666666</ele><time>2026-05-02T09:33:50.922Z</time></trkpt><trkpt lat="43.349315" lon="13.1964117"><ele>692.0</ele><time>2026-05-02T09:34:00.922Z</time></trkpt><trkpt lat="43.3493867" lon="13.1964217"><ele>692.4000000000001</ele><time>2026-05-02T09:34:02.922Z</time></trkpt><trkpt lat="43.3494733" lon="13.1964183"><ele>692.8000000000001</ele><time>2026-05-02T09:34:04.922Z</time></trkpt><trkpt lat="43.3495767" lon="13.1964483"><ele>693.2</ele><time>2026-05-02T09:34:06.922Z</time></trkpt><trkpt lat="43.34969" lon="13.1965"><ele>693.6</ele><time>2026-05-02T09:34:08.922Z</time></trkpt><trkpt lat="43.3498233" lon="13.19653"><ele>694.0</ele><time>2026-05-02T09:34:10.922Z</time></trkpt><trkpt lat="43.349925" lon="13.1965617"><ele>696.2</ele><time>2026-05-02T09:34:12.923Z</time></trkpt><trkpt lat="43.3499933" lon="13.19662"><ele>698.4000000000001</ele><time>2026-05-02T09:34:14.922Z</time></trkpt><trkpt lat="43.35007" lon="13.1966383"><ele>700.6</ele><time>2026-05-02T09:34:17.922Z</time></trkpt><trkpt lat="43.3501433" lon="13.1966483"><ele>702.8</ele><time>2026-05-02T09:34:19.923Z</time></trkpt><trkpt lat="43.350255" lon="13.19665"><ele>705.0</ele><time>2026-05-02T09:34:21.922Z</time></trkpt><trkpt lat="43.3503733" lon="13.1966917"><ele>705.0</ele><time>2026-05-02T09:34:23.922Z</time></trkpt><trkpt lat="43.3504767" lon="13.1967283"><ele>705.0</ele><time>2026-05-02T09:34:25.922Z</time></trkpt><trkpt lat="43.3505733" lon="13.1967633"><ele>705.0</ele><time>2026-05-02T09:34:27.922Z</time></trkpt><trkpt lat="43.35068" lon="13.196795"><ele>705.0</ele><time>2026-05-02T09:34:29.922Z</time></trkpt><trkpt lat="43.3507783" lon="13.1968067"><ele>705.0</ele><time>2026-05-02T09:34:31.922Z</time></trkpt><trkpt lat="43.3508717" lon="13.19681"><ele>707.2</ele><time>2026-05-02T09:34:34.922Z</time></trkpt><trkpt lat="43.350965" lon="13.1967967"><ele>709.4</ele><time>2026-05-02T09:34:36.922Z</time></trkpt><trkpt lat="43.351075" lon="13.1967983"><ele>711.5999999999999</ele><time>2026-05-02T09:34:38.922Z</time></trkpt><trkpt lat="43.3511767" lon="13.1968017"><ele>713.8</ele><time>2026-05-02T09:34:40.922Z</time></trkpt><trkpt lat="43.3512567" lon="13.19678"><ele>716.0</ele><time>2026-05-02T09:34:42.922Z</time></trkpt><trkpt lat="43.351335" lon="13.1967467"><ele>716.5999999999999</ele><time>2026-05-02T09:34:44.922Z</time></trkpt><trkpt lat="43.3514267" lon="13.19672"><ele>717.2</ele><time>2026-05-02T09:34:47.922Z</time></trkpt><trkpt lat="43.3515267" lon="13.1967"><ele>717.8</ele><time>2026-05-02T09:34:49.923Z</time></trkpt><trkpt lat="43.3515967" lon="13.196705"><ele>718.4000000000001</ele><time>2026-05-02T09:34:50.922Z</time></trkpt><trkpt lat="43.351695" lon="13.1967167"><ele>719.0</ele><time>2026-05-02T09:34:51.922Z</time></trkpt><trkpt lat="43.351795" lon="13.19672"><ele>719.0</ele><time>2026-05-02T09:34:52.922Z</time></trkpt><trkpt lat="43.3518867" lon="13.1967233"><ele>719.0</ele><time>2026-05-02T09:34:53.922Z</time></trkpt><trkpt lat="43.3519767" lon="13.1967333"><ele>719.0</ele><time>2026-05-02T09:34:54.922Z</time></trkpt><trkpt lat="43.3520433" lon="13.19677"><ele>719.0</ele><time>2026-05-02T09:34:55.922Z</time></trkpt><trkpt lat="43.3521133" lon="13.1968217"><ele>719.0</ele><time>2026-05-02T09:34:56.923Z</time></trkpt><trkpt lat="43.3521967" lon="13.1968867"><ele>719.0</ele><time>2026-05-02T09:34:57.922Z</time></trkpt><trkpt lat="43.3522883" lon="13.196965"><ele>718.6</ele><time>2026-05-02T09:34:58.922Z</time></trkpt><trkpt lat="43.3523867" lon="13.19704"><ele>718.2</ele><time>2026-05-02T09:34:59.922Z</time></trkpt><trkpt lat="43.352475" lon="13.1971117"><ele>717.8000000000001</ele><time>2026-05-02T09:35:00.922Z</time></trkpt><trkpt lat="43.3525633" lon="13.19718"><ele>717.4000000000001</ele><time>2026-05-02T09:35:01.923Z</time></trkpt><trkpt lat="43.3526267" lon="13.1972583"><ele>717.0</ele><time>2026-05-02T09:35:02.922Z</time></trkpt><trkpt lat="43.35266" lon="13.1973467"><ele>717.0</ele><time>2026-05-02T09:35:03.922Z</time></trkpt><trkpt lat="43.35268" lon="13.1974467"><ele>717.0</ele><time>2026-05-02T09:35:04.922Z</time></trkpt><trkpt lat="43.3526883" lon="13.1975517"><ele>717.0</ele><time>2026-05-02T09:35:05.923Z</time></trkpt><trkpt lat="43.3526933" lon="13.1976433"><ele>717.0</ele><time>2026-05-02T09:35:06.922Z</time></trkpt><trkpt lat="43.3526733" lon="13.1977267"><ele>717.0</ele><time>2026-05-02T09:35:07.922Z</time></trkpt><trkpt lat="43.352635" lon="13.1978067"><ele>717.0</ele><time>2026-05-02T09:35:08.923Z</time></trkpt><trkpt lat="43.35259" lon="13.19788"><ele>717.0</ele><time>2026-05-02T09:35:09.922Z</time></trkpt><trkpt lat="43.35254" lon="13.1979533"><ele>717.0</ele><time>2026-05-02T09:35:10.922Z</time></trkpt><trkpt lat="43.35249" lon="13.19801"><ele>717.0</ele><time>2026-05-02T09:35:11.922Z</time></trkpt><trkpt lat="43.3524217" lon="13.1980983"><ele>717.0</ele><time>2026-05-02T09:35:13.922Z</time></trkpt><trkpt lat="43.3524033" lon="13.1981883"><ele>717.0</ele><time>2026-05-02T09:35:15.922Z</time></trkpt><trkpt lat="43.352405" lon="13.19829"><ele>717.0</ele><time>2026-05-02T09:35:18.922Z</time></trkpt><trkpt lat="43.3524833" lon="13.1983367"><ele>717.0</ele><time>2026-05-02T09:35:22.923Z</time></trkpt><trkpt lat="43.352595" lon="13.1983117"><ele>716.0</ele><time>2026-05-02T09:35:24.922Z</time></trkpt><trkpt lat="43.35268" lon="13.1982883"><ele>715.0</ele><time>2026-05-02T09:35:25.922Z</time></trkpt><trkpt lat="43.3527783" lon="13.1982717"><ele>714.0</ele><time>2026-05-02T09:35:26.922Z</time></trkpt><trkpt lat="43.3528817" lon="13.19825"><ele>713.0</ele><time>2026-05-02T09:35:27.922Z</time></trkpt><trkpt lat="43.3529933" lon="13.1982283"><ele>712.0</ele><time>2026-05-02T09:35:28.922Z</time></trkpt><trkpt lat="43.3531167" lon="13.1982217"><ele>712.0</ele><time>2026-05-02T09:35:29.922Z</time></trkpt><trkpt lat="43.3532417" lon="13.19822"><ele>712.0</ele><time>2026-05-02T09:35:30.922Z</time></trkpt><trkpt lat="43.3533733" lon="13.19824"><ele>712.0</ele><time>2026-05-02T09:35:31.923Z</time></trkpt><trkpt lat="43.3534917" lon="13.1982783"><ele>712.0</ele><time>2026-05-02T09:35:32.922Z</time></trkpt><trkpt lat="43.353615" lon="13.198325"><ele>712.0</ele><time>2026-05-02T09:35:33.922Z</time></trkpt><trkpt lat="43.3537367" lon="13.1983917"><ele>712.0</ele><time>2026-05-02T09:35:34.923Z</time></trkpt><trkpt lat="43.3538633" lon="13.19846"><ele>712.0</ele><time>2026-05-02T09:35:35.922Z</time></trkpt><trkpt lat="43.3539867" lon="13.198525"><ele>712.0</ele><time>2026-05-02T09:35:36.922Z</time></trkpt><trkpt lat="43.354105" lon="13.1986"><ele>714.75</ele><time>2026-05-02T09:35:37.921Z</time></trkpt><trkpt lat="43.354225" lon="13.19868"><ele>717.5</ele><time>2026-05-02T09:35:38.921Z</time></trkpt><trkpt lat="43.3543467" lon="13.198765"><ele>720.25</ele><time>2026-05-02T09:35:39.921Z</time></trkpt><trkpt lat="43.3544783" lon="13.1988517"><ele>723.0</ele><time>2026-05-02T09:35:40.921Z</time></trkpt><trkpt lat="43.3546083" lon="13.1989467"><ele>721.5</ele><time>2026-05-02T09:35:41.922Z</time></trkpt><trkpt lat="43.35473" lon="13.19904"><ele>720.0</ele><time>2026-05-02T09:35:42.921Z</time></trkpt><trkpt lat="43.3548533" lon="13.199125"><ele>718.5</ele><time>2026-05-02T09:35:43.921Z</time></trkpt><trkpt lat="43.3549767" lon="13.199205"><ele>717.0</ele><time>2026-05-02T09:35:44.921Z</time></trkpt><trkpt lat="43.35511" lon="13.1992817"><ele>717.0</ele><time>2026-05-02T09:35:45.921Z</time></trkpt><trkpt lat="43.35523" lon="13.19935"><ele>717.0</ele><time>2026-05-02T09:35:46.921Z</time></trkpt><trkpt lat="43.3553517" lon="13.19942"><ele>717.0</ele><time>2026-05-02T09:35:47.921Z</time></trkpt><trkpt lat="43.35547" lon="13.19948"><ele>717.0</ele><time>2026-05-02T09:35:48.921Z</time></trkpt><trkpt lat="43.3556067" lon="13.1995233"><ele>719.5</ele><time>2026-05-02T09:35:49.921Z</time></trkpt><trkpt lat="43.3557467" lon="13.19955"><ele>722.0</ele><time>2026-05-02T09:35:50.921Z</time></trkpt><trkpt lat="43.3558783" lon="13.199585"><ele>724.5</ele><time>2026-05-02T09:35:51.921Z</time></trkpt><trkpt lat="43.356005" lon="13.199625"><ele>727.0</ele><time>2026-05-02T09:35:52.921Z</time></trkpt><trkpt lat="43.3561267" lon="13.1996567"><ele>727.0</ele><time>2026-05-02T09:35:53.921Z</time></trkpt><trkpt lat="43.35625" lon="13.1996717"><ele>727.0</ele><time>2026-05-02T09:35:54.921Z</time></trkpt><trkpt lat="43.3563683" lon="13.1996667"><ele>727.0</ele><time>2026-05-02T09:35:55.921Z</time></trkpt><trkpt lat="43.35647" lon="13.1996417"><ele>727.0</ele><time>2026-05-02T09:35:56.921Z</time></trkpt><trkpt lat="43.3565483" lon="13.199595"><ele>727.0</ele><time>2026-05-02T09:35:57.921Z</time></trkpt><trkpt lat="43.35661" lon="13.1995183"><ele>727.1666666666667</ele><time>2026-05-02T09:35:58.921Z</time></trkpt><trkpt lat="43.356655" lon="13.1994333"><ele>727.3333333333334</ele><time>2026-05-02T09:35:59.921Z</time></trkpt><trkpt lat="43.3567" lon="13.1993417"><ele>727.5</ele><time>2026-05-02T09:36:00.921Z</time></trkpt><trkpt lat="43.35674" lon="13.1992417"><ele>727.6666666666666</ele><time>2026-05-02T09:36:01.921Z</time></trkpt><trkpt lat="43.35679" lon="13.1991417"><ele>727.8333333333333</ele><time>2026-05-02T09:36:02.921Z</time></trkpt><trkpt lat="43.356835" lon="13.1990217"><ele>728.0</ele><time>2026-05-02T09:36:03.921Z</time></trkpt><trkpt lat="43.356875" lon="13.198905"><ele>728.0</ele><time>2026-05-02T09:36:04.921Z</time></trkpt><trkpt lat="43.3569083" lon="13.19878"><ele>728.0</ele><time>2026-05-02T09:36:05.921Z</time></trkpt><trkpt lat="43.356935" lon="13.1986567"><ele>728.0</ele><time>2026-05-02T09:36:06.921Z</time></trkpt><trkpt lat="43.35695" lon="13.1985183"><ele>728.0</ele><time>2026-05-02T09:36:07.921Z</time></trkpt><trkpt lat="43.3569567" lon="13.1983817"><ele>728.0</ele><time>2026-05-02T09:36:08.921Z</time></trkpt><trkpt lat="43.35696" lon="13.1982517"><ele>728.0</ele><time>2026-05-02T09:36:09.921Z</time></trkpt><trkpt lat="43.3569783" lon="13.19812"><ele>728.0</ele><time>2026-05-02T09:36:10.921Z</time></trkpt><trkpt lat="43.3570083" lon="13.1979883"><ele>728.0</ele><time>2026-05-02T09:36:11.921Z</time></trkpt><trkpt lat="43.3570567" lon="13.1978733"><ele>728.0</ele><time>2026-05-02T09:36:12.921Z</time></trkpt><trkpt lat="43.3571183" lon="13.1977683"><ele>728.0</ele><time>2026-05-02T09:36:13.922Z</time></trkpt><trkpt lat="43.3571983" lon="13.197665"><ele>726.8</ele><time>2026-05-02T09:36:14.921Z</time></trkpt><trkpt lat="43.3572883" lon="13.1975783"><ele>725.5999999999999</ele><time>2026-05-02T09:36:15.921Z</time></trkpt><trkpt lat="43.3573833" lon="13.1974967"><ele>724.4000000000001</ele><time>2026-05-02T09:36:16.921Z</time></trkpt><trkpt lat="43.3574817" lon="13.1974283"><ele>723.2</ele><time>2026-05-02T09:36:17.922Z</time></trkpt><trkpt lat="43.3575867" lon="13.19737"><ele>722.0</ele><time>2026-05-02T09:36:18.922Z</time></trkpt><trkpt lat="43.3576983" lon="13.1973467"><ele>722.0</ele><time>2026-05-02T09:36:19.922Z</time></trkpt><trkpt lat="43.3578117" lon="13.1973417"><ele>722.0</ele><time>2026-05-02T09:36:20.921Z</time></trkpt><trkpt lat="43.357925" lon="13.197335"><ele>722.0</ele><time>2026-05-02T09:36:21.921Z</time></trkpt><trkpt lat="43.3580367" lon="13.197335"><ele>722.0</ele><time>2026-05-02T09:36:22.921Z</time></trkpt><trkpt lat="43.3581583" lon="13.19734"><ele>722.5</ele><time>2026-05-02T09:36:23.921Z</time></trkpt><trkpt lat="43.35828" lon="13.197355"><ele>723.0</ele><time>2026-05-02T09:36:24.921Z</time></trkpt><trkpt lat="43.3584067" lon="13.1973567"><ele>723.5</ele><time>2026-05-02T09:36:25.921Z</time></trkpt><trkpt lat="43.3585383" lon="13.1973783"><ele>724.0</ele><time>2026-05-02T09:36:26.921Z</time></trkpt><trkpt lat="43.3586633" lon="13.1973917"><ele>724.0</ele><time>2026-05-02T09:36:27.921Z</time></trkpt><trkpt lat="43.3587983" lon="13.1974017"><ele>724.0</ele><time>2026-05-02T09:36:28.921Z</time></trkpt><trkpt lat="43.358935" lon="13.1974333"><ele>724.0</ele><time>2026-05-02T09:36:29.921Z</time></trkpt><trkpt lat="43.3590667" lon="13.1974717"><ele>724.0</ele><time>2026-05-02T09:36:30.921Z</time></trkpt><trkpt lat="43.359205" lon="13.19751"><ele>726.0</ele><time>2026-05-02T09:36:31.921Z</time></trkpt><trkpt lat="43.3593467" lon="13.19755"><ele>728.0</ele><time>2026-05-02T09:36:32.921Z</time></trkpt><trkpt lat="43.3594983" lon="13.1975883"><ele>730.0</ele><time>2026-05-02T09:36:33.921Z</time></trkpt><trkpt lat="43.3596617" lon="13.1976283"><ele>732.3333333333334</ele><time>2026-05-02T09:36:34.921Z</time></trkpt><trkpt lat="43.3598267" lon="13.19767"><ele>734.6666666666666</ele><time>2026-05-02T09:36:35.922Z</time></trkpt><trkpt lat="43.35999" lon="13.1977117"><ele>737.0</ele><time>2026-05-02T09:36:36.921Z</time></trkpt><trkpt lat="43.3601367" lon="13.1977633"><ele>737.0</ele><time>2026-05-02T09:36:37.921Z</time></trkpt><trkpt lat="43.3602967" lon="13.1978183"><ele>737.0</ele><time>2026-05-02T09:36:38.922Z</time></trkpt><trkpt lat="43.3604617" lon="13.1978967"><ele>737.0</ele><time>2026-05-02T09:36:39.922Z</time></trkpt><trkpt lat="43.36063" lon="13.1979733"><ele>740.0</ele><time>2026-05-02T09:36:40.921Z</time></trkpt><trkpt lat="43.3607967" lon="13.1980233"><ele>743.0</ele><time>2026-05-02T09:36:41.921Z</time></trkpt><trkpt lat="43.3609633" lon="13.1980867"><ele>746.0</ele><time>2026-05-02T09:36:42.921Z</time></trkpt><trkpt lat="43.3611255" lon="13.1981499"><ele>744.0</ele><time>2026-05-02T09:36:43.922Z</time></trkpt><trkpt lat="43.3612943" lon="13.1982122"><ele>742.0</ele><time>2026-05-02T09:36:44.921Z</time></trkpt><trkpt lat="43.3614581" lon="13.1982655"><ele>740.0</ele><time>2026-05-02T09:36:45.921Z</time></trkpt><trkpt lat="43.3616204" lon="13.198311"><ele>740.0</ele><time>2026-05-02T09:36:46.921Z</time></trkpt><trkpt lat="43.3617728" lon="13.1983482"><ele>740.0</ele><time>2026-05-02T09:36:47.921Z</time></trkpt><trkpt lat="43.36193" lon="13.198389"><ele>740.0</ele><time>2026-05-02T09:36:48.922Z</time></trkpt><trkpt lat="43.362085" lon="13.1984401"><ele>743.3333333333333</ele><time>2026-05-02T09:36:49.921Z</time></trkpt><trkpt lat="43.362248" lon="13.1984797"><ele>746.6666666666666</ele><time>2026-05-02T09:36:50.921Z</time></trkpt><trkpt lat="43.3624141" lon="13.198522"><ele>750.0</ele><time>2026-05-02T09:36:51.921Z</time></trkpt><trkpt lat="43.3625769" lon="13.1985781"><ele>750.0</ele><time>2026-05-02T09:36:52.921Z</time></trkpt><trkpt lat="43.3627367" lon="13.1986457"><ele>750.0</ele><time>2026-05-02T09:36:53.921Z</time></trkpt><trkpt lat="43.3629041" lon="13.1987395"><ele>750.0</ele><time>2026-05-02T09:36:54.921Z</time></trkpt><trkpt lat="43.3630695" lon="13.1988408"><ele>748.6666666666666</ele><time>2026-05-02T09:36:55.921Z</time></trkpt><trkpt lat="43.3632386" lon="13.1989593"><ele>747.3333333333333</ele><time>2026-05-02T09:36:56.921Z</time></trkpt><trkpt lat="43.3633939" lon="13.1991004"><ele>746.0</ele><time>2026-05-02T09:36:57.922Z</time></trkpt><trkpt lat="43.3635352" lon="13.199259"><ele>746.0</ele><time>2026-05-02T09:36:58.921Z</time></trkpt><trkpt lat="43.3636679" lon="13.1994342"><ele>746.0</ele><time>2026-05-02T09:36:59.921Z</time></trkpt><trkpt lat="43.3637863" lon="13.1996045"><ele>746.0</ele><time>2026-05-02T09:37:00.921Z</time></trkpt><trkpt lat="43.3638936" lon="13.1997545"><ele>745.8</ele><time>2026-05-02T09:37:01.921Z</time></trkpt><trkpt lat="43.3639987" lon="13.1998723"><ele>745.5999999999999</ele><time>2026-05-02T09:37:02.921Z</time></trkpt><trkpt lat="43.3641072" lon="13.1999465"><ele>745.4</ele><time>2026-05-02T09:37:03.921Z</time></trkpt><trkpt lat="43.3642006" lon="13.1999724"><ele>745.2</ele><time>2026-05-02T09:37:04.921Z</time></trkpt><trkpt lat="43.3642901" lon="13.1999619"><ele>745.0</ele><time>2026-05-02T09:37:05.921Z</time></trkpt><trkpt lat="43.3643675" lon="13.1999249"><ele>745.0</ele><time>2026-05-02T09:37:06.921Z</time></trkpt><trkpt lat="43.3644413" lon="13.1998513"><ele>745.0</ele><time>2026-05-02T09:37:07.921Z</time></trkpt><trkpt lat="43.364507" lon="13.199746"><ele>745.0</ele><time>2026-05-02T09:37:08.921Z</time></trkpt><trkpt lat="43.364571" lon="13.1996302"><ele>745.0</ele><time>2026-05-02T09:37:09.922Z</time></trkpt><trkpt lat="43.3646296" lon="13.1994977"><ele>745.0</ele><time>2026-05-02T09:37:10.922Z</time></trkpt><trkpt lat="43.3646948" lon="13.1993355"><ele>744.0</ele><time>2026-05-02T09:37:11.921Z</time></trkpt><trkpt lat="43.3647609" lon="13.1991513"><ele>743.0</ele><time>2026-05-02T09:37:12.921Z</time></trkpt><trkpt lat="43.3648261" lon="13.1989829"><ele>742.0</ele><time>2026-05-02T09:37:13.921Z</time></trkpt><trkpt lat="43.3648881" lon="13.1988073"><ele>741.0</ele><time>2026-05-02T09:37:14.921Z</time></trkpt><trkpt lat="43.3649635" lon="13.1986373"><ele>741.0</ele><time>2026-05-02T09:37:15.921Z</time></trkpt><trkpt lat="43.3650497" lon="13.1984712"><ele>741.0</ele><time>2026-05-02T09:37:16.921Z</time></trkpt><trkpt lat="43.3651488" lon="13.1983163"><ele>741.0</ele><time>2026-05-02T09:37:17.922Z</time></trkpt><trkpt lat="43.3652498" lon="13.198163"><ele>741.0</ele><time>2026-05-02T09:37:18.921Z</time></trkpt><trkpt lat="43.3653472" lon="13.1980095"><ele>742.25</ele><time>2026-05-02T09:37:19.921Z</time></trkpt><trkpt lat="43.3654479" lon="13.1978512"><ele>743.5</ele><time>2026-05-02T09:37:20.921Z</time></trkpt><trkpt lat="43.3655412" lon="13.1977074"><ele>744.75</ele><time>2026-05-02T09:37:21.922Z</time></trkpt><trkpt lat="43.365628" lon="13.1975693"><ele>746.0</ele><time>2026-05-02T09:37:22.921Z</time></trkpt><trkpt lat="43.3657096" lon="13.1974445"><ele>744.0</ele><time>2026-05-02T09:37:23.921Z</time></trkpt><trkpt lat="43.3657874" lon="13.1973379"><ele>742.0</ele><time>2026-05-02T09:37:24.921Z</time></trkpt><trkpt lat="43.3658546" lon="13.1972554"><ele>740.0</ele><time>2026-05-02T09:37:25.921Z</time></trkpt><trkpt lat="43.3659204" lon="13.197173"><ele>738.0</ele><time>2026-05-02T09:37:26.921Z</time></trkpt><trkpt lat="43.3659919" lon="13.1970856"><ele>736.0</ele><time>2026-05-02T09:37:27.921Z</time></trkpt><trkpt lat="43.3660643" lon="13.1969952"><ele>736.0</ele><time>2026-05-02T09:37:28.921Z</time></trkpt><trkpt lat="43.3661256" lon="13.196908"><ele>736.0</ele><time>2026-05-02T09:37:29.922Z</time></trkpt><trkpt lat="43.3661847" lon="13.1968123"><ele>736.0</ele><time>2026-05-02T09:37:30.921Z</time></trkpt><trkpt lat="43.3662398" lon="13.1967171"><ele>736.0</ele><time>2026-05-02T09:37:31.921Z</time></trkpt><trkpt lat="43.3662931" lon="13.1966288"><ele>736.0</ele><time>2026-05-02T09:37:32.921Z</time></trkpt><trkpt lat="43.3663523" lon="13.1965347"><ele>736.0</ele><time>2026-05-02T09:37:33.921Z</time></trkpt><trkpt lat="43.3664109" lon="13.1964324"><ele>733.8</ele><time>2026-05-02T09:37:34.922Z</time></trkpt><trkpt lat="43.3664725" lon="13.1963327"><ele>731.5999999999999</ele><time>2026-05-02T09:37:35.921Z</time></trkpt><trkpt lat="43.3665294" lon="13.1962495"><ele>729.4</ele><time>2026-05-02T09:37:36.921Z</time></trkpt><trkpt lat="43.3665751" lon="13.1961824"><ele>727.2</ele><time>2026-05-02T09:37:37.921Z</time></trkpt><trkpt lat="43.366651" lon="13.1960538"><ele>725.0</ele><time>2026-05-02T09:37:39.921Z</time></trkpt><trkpt lat="43.3667234" lon="13.1959419"><ele>725.0</ele><time>2026-05-02T09:37:41.921Z</time></trkpt><trkpt lat="43.366775" lon="13.1958877"><ele>725.0</ele><time>2026-05-02T09:37:43.921Z</time></trkpt><trkpt lat="43.3668273" lon="13.1958063"><ele>725.0</ele><time>2026-05-02T09:39:37.921Z</time></trkpt><trkpt lat="43.3668829" lon="13.1956885"><ele>725.0</ele><time>2026-05-02T09:39:39.922Z</time></trkpt><trkpt lat="43.366921" lon="13.1956188"><ele>725.0</ele><time>2026-05-02T09:39:40.921Z</time></trkpt><trkpt lat="43.3669576" lon="13.1955424"><ele>725.0</ele><time>2026-05-02T09:39:41.921Z</time></trkpt><trkpt lat="43.3669959" lon="13.1954415"><ele>724.1666666666666</ele><time>2026-05-02T09:39:42.921Z</time></trkpt><trkpt lat="43.3670345" lon="13.1953436"><ele>723.3333333333333</ele><time>2026-05-02T09:39:43.921Z</time></trkpt><trkpt lat="43.3670797" lon="13.1952357"><ele>722.5</ele><time>2026-05-02T09:39:44.921Z</time></trkpt><trkpt lat="43.3671216" lon="13.1951275"><ele>721.6666666666666</ele><time>2026-05-02T09:39:45.921Z</time></trkpt><trkpt lat="43.3671657" lon="13.1950238"><ele>720.8333333333334</ele><time>2026-05-02T09:39:46.922Z</time></trkpt><trkpt lat="43.3672146" lon="13.1949214"><ele>720.0</ele><time>2026-05-02T09:39:47.921Z</time></trkpt><trkpt lat="43.3672634" lon="13.1948211"><ele>720.0</ele><time>2026-05-02T09:39:48.921Z</time></trkpt><trkpt lat="43.3673055" lon="13.1947287"><ele>720.0</ele><time>2026-05-02T09:39:49.921Z</time></trkpt><trkpt lat="43.3673389" lon="13.1946443"><ele>720.0</ele><time>2026-05-02T09:39:50.921Z</time></trkpt><trkpt lat="43.3673673" lon="13.1945637"><ele>720.0</ele><time>2026-05-02T09:39:51.922Z</time></trkpt><trkpt lat="43.3673946" lon="13.1944792"><ele>720.0</ele><time>2026-05-02T09:39:52.921Z</time></trkpt><trkpt lat="43.3674184" lon="13.1943962"><ele>720.0</ele><time>2026-05-02T09:39:53.921Z</time></trkpt><trkpt lat="43.3674561" lon="13.194241"><ele>720.0</ele><time>2026-05-02T09:39:55.921Z</time></trkpt><trkpt lat="43.367503" lon="13.1940796"><ele>720.0</ele><time>2026-05-02T09:39:57.921Z</time></trkpt><trkpt lat="43.3675425" lon="13.1939892"><ele>720.0</ele><time>2026-05-02T09:39:58.921Z</time></trkpt><trkpt lat="43.3676008" lon="13.1938999"><ele>720.0</ele><time>2026-05-02T09:39:59.921Z</time></trkpt><trkpt lat="43.3676586" lon="13.193816"><ele>720.0</ele><time>2026-05-02T09:40:00.921Z</time></trkpt><trkpt lat="43.3677195" lon="13.1937404"><ele>721.0</ele><time>2026-05-02T09:40:01.921Z</time></trkpt><trkpt lat="43.3678003" lon="13.1936696"><ele>722.0</ele><time>2026-05-02T09:40:02.921Z</time></trkpt><trkpt lat="43.3678831" lon="13.1936203"><ele>723.0</ele><time>2026-05-02T09:40:03.922Z</time></trkpt><trkpt lat="43.3679678" lon="13.1935991"><ele>724.0</ele><time>2026-05-02T09:40:04.922Z</time></trkpt><trkpt lat="43.3680487" lon="13.1935856"><ele>725.0</ele><time>2026-05-02T09:40:05.921Z</time></trkpt><trkpt lat="43.3681204" lon="13.1935903"><ele>726.0</ele><time>2026-05-02T09:40:06.921Z</time></trkpt><trkpt lat="43.3681843" lon="13.1936097"><ele>723.8333333333334</ele><time>2026-05-02T09:40:07.921Z</time></trkpt><trkpt lat="43.3682511" lon="13.193645"><ele>721.6666666666666</ele><time>2026-05-02T09:40:08.921Z</time></trkpt><trkpt lat="43.3683215" lon="13.1936944"><ele>719.5</ele><time>2026-05-02T09:40:09.921Z</time></trkpt><trkpt lat="43.368393" lon="13.1937419"><ele>717.3333333333333</ele><time>2026-05-02T09:40:10.921Z</time></trkpt><trkpt lat="43.3684509" lon="13.1937843"><ele>715.1666666666666</ele><time>2026-05-02T09:40:11.921Z</time></trkpt><trkpt lat="43.36854" lon="13.1938523"><ele>713.0</ele><time>2026-05-02T09:40:13.921Z</time></trkpt><trkpt lat="43.3686267" lon="13.1939531"><ele>711.4</ele><time>2026-05-02T09:40:15.922Z</time></trkpt><trkpt lat="43.3686991" lon="13.1940975"><ele>709.8</ele><time>2026-05-02T09:40:17.921Z</time></trkpt><trkpt lat="43.3687488" lon="13.1942495"><ele>708.2</ele><time>2026-05-02T09:40:19.921Z</time></trkpt><trkpt lat="43.3687795" lon="13.1943328"><ele>706.6</ele><time>2026-05-02T09:40:20.922Z</time></trkpt><trkpt lat="43.3688166" lon="13.1944252"><ele>705.0</ele><time>2026-05-02T09:40:21.921Z</time></trkpt><trkpt lat="43.368857" lon="13.1945241"><ele>705.0</ele><time>2026-05-02T09:40:22.921Z</time></trkpt><trkpt lat="43.3689081" lon="13.1946324"><ele>705.0</ele><time>2026-05-02T09:40:23.921Z</time></trkpt><trkpt lat="43.3689577" lon="13.1947487"><ele>705.0</ele><time>2026-05-02T09:40:24.922Z</time></trkpt><trkpt lat="43.3690037" lon="13.1948631"><ele>705.0</ele><time>2026-05-02T09:40:25.921Z</time></trkpt><trkpt lat="43.3690549" lon="13.1949659"><ele>705.0</ele><time>2026-05-02T09:40:26.921Z</time></trkpt><trkpt lat="43.3691052" lon="13.1950644"><ele>703.8</ele><time>2026-05-02T09:40:27.922Z</time></trkpt><trkpt lat="43.3691538" lon="13.1951665"><ele>702.6</ele><time>2026-05-02T09:40:28.922Z</time></trkpt><trkpt lat="43.3692024" lon="13.1952743"><ele>701.4000000000001</ele><time>2026-05-02T09:40:29.921Z</time></trkpt><trkpt lat="43.3692464" lon="13.1953943"><ele>700.2</ele><time>2026-05-02T09:40:30.921Z</time></trkpt><trkpt lat="43.3692977" lon="13.1955254"><ele>699.0</ele><time>2026-05-02T09:40:31.921Z</time></trkpt><trkpt lat="43.369353" lon="13.1956669"><ele>696.0</ele><time>2026-05-02T09:40:32.921Z</time></trkpt><trkpt lat="43.3694191" lon="13.195817"><ele>693.0</ele><time>2026-05-02T09:40:33.921Z</time></trkpt><trkpt lat="43.36949" lon="13.1959704"><ele>690.0</ele><time>2026-05-02T09:40:34.922Z</time></trkpt><trkpt lat="43.3695583" lon="13.1961288"><ele>687.0</ele><time>2026-05-02T09:40:35.921Z</time></trkpt><trkpt lat="43.3696236" lon="13.196288"><ele>687.0</ele><time>2026-05-02T09:40:36.921Z</time></trkpt><trkpt lat="43.3696912" lon="13.1964431"><ele>687.0</ele><time>2026-05-02T09:40:37.921Z</time></trkpt><trkpt lat="43.3697474" lon="13.1965878"><ele>687.0</ele><time>2026-05-02T09:40:38.921Z</time></trkpt><trkpt lat="43.3698019" lon="13.1967216"><ele>687.0</ele><time>2026-05-02T09:40:39.922Z</time></trkpt><trkpt lat="43.3698546" lon="13.1968413"><ele>688.1666666666666</ele><time>2026-05-02T09:40:40.921Z</time></trkpt><trkpt lat="43.3699038" lon="13.1969496"><ele>689.3333333333334</ele><time>2026-05-02T09:40:41.921Z</time></trkpt><trkpt lat="43.3699436" lon="13.1970461"><ele>690.5</ele><time>2026-05-02T09:40:42.922Z</time></trkpt><trkpt lat="43.3699757" lon="13.1971227"><ele>691.6666666666667</ele><time>2026-05-02T09:40:43.921Z</time></trkpt><trkpt lat="43.3700013" lon="13.1972341"><ele>692.8333333333334</ele><time>2026-05-02T09:40:45.921Z</time></trkpt><trkpt lat="43.3699125" lon="13.1972265"><ele>694.0</ele><time>2026-05-02T09:40:48.921Z</time></trkpt><trkpt lat="43.3698183" lon="13.1971129"><ele>694.0</ele><time>2026-05-02T09:40:50.921Z</time></trkpt><trkpt lat="43.3697736" lon="13.1970376"><ele>694.0</ele><time>2026-05-02T09:40:51.921Z</time></trkpt><trkpt lat="43.3697299" lon="13.1969732"><ele>694.0</ele><time>2026-05-02T09:40:52.921Z</time></trkpt><trkpt lat="43.3696587" lon="13.1968542"><ele>694.0</ele><time>2026-05-02T09:40:54.921Z</time></trkpt><trkpt lat="43.3695926" lon="13.1967319"><ele>694.0</ele><time>2026-05-02T09:40:56.922Z</time></trkpt><trkpt lat="43.3695303" lon="13.1966381"><ele>692.8333333333334</ele><time>2026-05-02T09:40:58.921Z</time></trkpt><trkpt lat="43.3694761" lon="13.1965758"><ele>691.6666666666667</ele><time>2026-05-02T09:41:00.921Z</time></trkpt><trkpt lat="43.3694297" lon="13.1964646"><ele>690.5</ele><time>2026-05-02T09:41:03.922Z</time></trkpt><trkpt lat="43.3693993" lon="13.1963615"><ele>689.3333333333334</ele><time>2026-05-02T09:41:05.921Z</time></trkpt><trkpt lat="43.3693767" lon="13.1962356"><ele>688.1666666666666</ele><time>2026-05-02T09:41:07.921Z</time></trkpt><trkpt lat="43.3693394" lon="13.1960943"><ele>687.0</ele><time>2026-05-02T09:41:09.921Z</time></trkpt><trkpt lat="43.3692813" lon="13.195945"><ele>687.0</ele><time>2026-05-02T09:41:11.921Z</time></trkpt><trkpt lat="43.3692092" lon="13.1958027"><ele>687.0</ele><time>2026-05-02T09:41:13.921Z</time></trkpt><trkpt lat="43.3691363" lon="13.1957018"><ele>687.0</ele><time>2026-05-02T09:41:15.921Z</time></trkpt><trkpt lat="43.3690798" lon="13.1956113"><ele>687.0</ele><time>2026-05-02T09:41:17.921Z</time></trkpt><trkpt lat="43.3690193" lon="13.1955219"><ele>687.0</ele><time>2026-05-02T09:41:20.921Z</time></trkpt><trkpt lat="43.3689655" lon="13.1954497"><ele>699.0</ele><time>2026-05-02T09:41:24.921Z</time></trkpt></trkseg></trk></gpx>